Darstellungsparameter: Aktuell verwendete Einstellungen:
Skalierung der Graphiken ... ?
xyx+y,   Skalierungsfaktor:      Skalierung: Modus: x, Faktor: 1
Darstellungszeitraum ... ?
Vom - - bis: - -   Zeitraum: 17.10.2008 - 16.11.2008
Min/Max/Avg-Anzeige ... ?
Zeige MMA aktuell
Zeige MMA Monat
Zeige MMA alles
Zeige --A aktuell
Zeige --A Monat
Zeige --A alles
Keine MMA-Anzeige
MMA:
Average (ber die Originaldaten)
MMA-Basis: 17.04.2019 - 19.05.2019
Quicknavigation für Darstellung... ?
Tage:      1T, 2T, 3T, 5T -1T -2T -3T -5T +1T +2T +3T +5T
Wochen: 1W, 2W, 3W -1W -2W -3W +1W +2W +3W
Monate: 1M, 3M, 6M -1M -3M -6M +1M +3M +6M
Jahre:    1J, 3J, 5J, 10J -1J -3J -5J -10J +1J +3J +5J +10J
Nutze für die Darstellung ... ?
Originaldaten oder Mittelwerte auf ...
Stundenbasis Tagesbasis Wochenbasis
Monatsbasis Jahresbasis      Datenbasis: Original-Daten
Darstellen als:
Statistik (Auto) Statistik J:M      Darstellung:
Zur Graphik,    zurück zur Übersicht aller Sensoren.
 
Tabellarische Datenbersicht: ?
 
<
Sensor: Nr:Datum:Temp:Abs-Feuchte:Windchill:Wind:
Aussen-T/F 1 17-10-2008 00:03:26 6.8 C 6.5 g/m*3 6.8 C 0 km/h
2 17-10-2008 00:08:26 6.8 C 6.42 g/m*3 6.8 C 0 km/h
3 17-10-2008 00:13:26 6.8 C 6.42 g/m*3 6.8 C 0 km/h
4 17-10-2008 00:18:26 7 C 6.35 g/m*3 7 C 0 km/h
5 17-10-2008 00:23:26 6.9 C 6.31 g/m*3 6.9 C 0 km/h
6 17-10-2008 00:28:26 6.9 C 6.31 g/m*3 6.9 C 0 km/h
7 17-10-2008 00:33:26 6.8 C 6.19 g/m*3 6.8 C 0 km/h
8 17-10-2008 00:38:26 6.9 C 6.24 g/m*3 6.9 C 0 km/h
9 17-10-2008 00:43:26 6.8 C 6.19 g/m*3 6.8 C 0 km/h
10 17-10-2008 00:48:26 6.8 C 6.19 g/m*3 6.8 C 0 km/h
11 17-10-2008 00:53:26 6.7 C 6.15 g/m*3 6.7 C 0 km/h
12 17-10-2008 00:58:26 6.7 C 6.15 g/m*3 6.7 C 0 km/h
13 17-10-2008 01:03:26 6.7 C 6.23 g/m*3 6.7 C 0 km/h
14 17-10-2008 01:08:27 6.6 C 6.19 g/m*3 6.6 C 0 km/h
15 17-10-2008 01:13:27 6.6 C 6.19 g/m*3 6.6 C 0 km/h
16 17-10-2008 01:18:27 6.6 C 6.19 g/m*3 6.6 C 0 km/h
17 17-10-2008 01:23:27 6.6 C 6.19 g/m*3 6.6 C 0 km/h
18 17-10-2008 01:28:27 6.7 C 6.23 g/m*3 6.7 C 0 km/h
19 17-10-2008 01:33:27 6.6 C 6.19 g/m*3 6.6 C 0 km/h
20 17-10-2008 01:38:27 6.5 C 6.15 g/m*3 6.5 C 0 km/h
21 17-10-2008 01:43:27 6.5 C 6.15 g/m*3 6.5 C 0 km/h
22 17-10-2008 01:48:27 6.5 C 6.15 g/m*3 6.5 C 0 km/h
23 17-10-2008 01:53:27 6.4 C 6.18 g/m*3 6.4 C 0 km/h
24 17-10-2008 01:58:27 6.4 C 6.18 g/m*3 6.4 C 0 km/h
25 17-10-2008 02:03:27 6.4 C 6.18 g/m*3 6.4 C 0 km/h
Sensor: Nr:Datum:Temp:Abs-Feuchte:Windchill:Wind:
Aussen-T/F 26 17-10-2008 02:08:27 6.3 C 6.14 g/m*3 6.3 C 0 km/h
27 17-10-2008 02:13:27 6.3 C 6.14 g/m*3 6.3 C 0 km/h
28 17-10-2008 02:18:27 6.2 C 6.18 g/m*3 6.2 C 0 km/h
29 17-10-2008 02:23:27 6.2 C 6.18 g/m*3 6.2 C 0 km/h
30 17-10-2008 02:28:27 6.2 C 6.18 g/m*3 6.2 C 0 km/h
31 17-10-2008 02:33:27 6.1 C 6.14 g/m*3 6.1 C 0 km/h
32 17-10-2008 02:38:27 6.1 C 6.21 g/m*3 6.1 C 0 km/h
33 17-10-2008 02:43:27 6.1 C 6.21 g/m*3 6.1 C 0 km/h
34 17-10-2008 02:48:28 6.1 C 6.21 g/m*3 6.1 C 0 km/h
35 17-10-2008 02:53:28 6 C 6.17 g/m*3 6 C 0 km/h
36 17-10-2008 02:58:28 6 C 6.17 g/m*3 6 C 0 km/h
37 17-10-2008 03:03:28 6 C 6.17 g/m*3 6 C 0 km/h
38 17-10-2008 03:08:28 6 C 6.17 g/m*3 6 C 0 km/h
39 17-10-2008 03:13:28 6 C 6.17 g/m*3 6 C 0 km/h
40 17-10-2008 03:18:28 5.9 C 6.2 g/m*3 5.9 C 0 km/h
41 17-10-2008 03:23:28 5.9 C 6.2 g/m*3 5.9 C 0 km/h
42 17-10-2008 03:28:28 5.9 C 6.2 g/m*3 5.9 C 0 km/h
43 17-10-2008 03:33:28 5.9 C 6.2 g/m*3 5.9 C 0 km/h
44 17-10-2008 03:38:28 5.8 C 6.16 g/m*3 5.8 C 0 km/h
45 17-10-2008 03:43:28 5.7 C 6.12 g/m*3 5.7 C 0 km/h
46 17-10-2008 03:48:28 5.6 C 6.15 g/m*3 5.6 C 0 km/h
47 17-10-2008 03:53:28 5.7 C 6.19 g/m*3 5.7 C 0 km/h
48 17-10-2008 03:58:28 5.7 C 6.19 g/m*3 5.7 C 0 km/h
49 17-10-2008 04:03:28 5.7 C 6.19 g/m*3 5.7 C 0 km/h
50 17-10-2008 04:08:28 5.7 C 6.19 g/m*3 5.7 C 0 km/h
Sensor: Nr:Datum:Temp:Abs-Feuchte:Windchill:Wind:
Aussen-T/F 51 17-10-2008 04:13:28 5.8 C 6.23 g/m*3 5.8 C 0 km/h
52 17-10-2008 04:18:28 5.8 C 6.23 g/m*3 5.8 C 0 km/h
53 17-10-2008 04:23:29 5.9 C 6.2 g/m*3 5.9 C 0 km/h
54 17-10-2008 04:28:29 5.9 C 6.2 g/m*3 5.9 C 0 km/h
55 17-10-2008 04:33:29 5.9 C 6.2 g/m*3 5.9 C 0 km/h
56 17-10-2008 04:38:29 6 C 6.1 g/m*3 6 C 0 km/h
57 17-10-2008 04:43:29 6 C 6.1 g/m*3 6 C 0 km/h
58 17-10-2008 04:48:29 6 C 6.1 g/m*3 6 C 0 km/h
59 17-10-2008 04:53:29 6 C 6.1 g/m*3 6 C 0 km/h
60 17-10-2008 04:58:29 6 C 6.1 g/m*3 6 C 0 km/h
61 17-10-2008 05:03:29 6 C 6.1 g/m*3 6 C 0 km/h
62 17-10-2008 05:08:29 6.3 C 6.22 g/m*3 6.3 C 0 km/h
63 17-10-2008 05:13:29 6.4 C 6.18 g/m*3 6.4 C 0 km/h
64 17-10-2008 05:18:29 6.4 C 6.11 g/m*3 6.4 C 0 km/h
65 17-10-2008 05:23:29 6.5 C 6.15 g/m*3 6.5 C 0 km/h
66 17-10-2008 05:28:29 6.5 C 6.15 g/m*3 6.5 C 0 km/h
67 17-10-2008 05:33:29 6.5 C 6.07 g/m*3 6.5 C 0 km/h
68 17-10-2008 05:38:29 6.5 C 6.07 g/m*3 6.5 C 0 km/h
69 17-10-2008 05:43:29 6.5 C 6.07 g/m*3 6.5 C 0 km/h
70 17-10-2008 05:48:29 6.4 C 6.04 g/m*3 6.4 C 0 km/h
71 17-10-2008 05:53:29 6.4 C 6.04 g/m*3 6.4 C 0 km/h
72 17-10-2008 05:58:30 6.4 C 6.04 g/m*3 6.4 C 0 km/h
73 17-10-2008 06:03:30 6.3 C 6 g/m*3 6.3 C 0 km/h
74 17-10-2008 06:08:30 6.3 C 6 g/m*3 6.3 C 0 km/h
75 17-10-2008 06:13:30 6.1 C 5.99 g/m*3 6.1 C 0 km/h
Sensor: Nr:Datum:Temp:Abs-Feuchte:Windchill:Wind:
Aussen-T/F 76 17-10-2008 06:18:30 6 C 5.95 g/m*3 6 C 0 km/h
77 17-10-2008 06:23:30 6 C 5.95 g/m*3 6 C 0 km/h
78 17-10-2008 06:28:30 5.9 C 5.98 g/m*3 5.9 C 0 km/h
79 17-10-2008 06:33:30 5.9 C 6.06 g/m*3 5.9 C 0 km/h
80 17-10-2008 06:38:30 5.9 C 6.06 g/m*3 5.9 C 0 km/h
81 17-10-2008 06:43:30 5.9 C 6.06 g/m*3 5.9 C 0 km/h
82 17-10-2008 06:48:03 5.8 C 6.09 g/m*3 5.8 C 0 km/h
83 17-10-2008 06:53:03 5.7 C 6.05 g/m*3 5.7 C 0 km/h
84 17-10-2008 06:58:03 5.7 C 6.05 g/m*3 5.7 C 0 km/h
85 17-10-2008 07:03:03 5.7 C 6.05 g/m*3 5.7 C 0 km/h
86 17-10-2008 07:08:03 5.6 C 6.01 g/m*3 5.6 C 0 km/h
87 17-10-2008 07:13:03 5.6 C 6.08 g/m*3 5.6 C 0 km/h
88 17-10-2008 07:18:03 5.5 C 6.04 g/m*3 5.5 C 0 km/h
89 17-10-2008 07:23:03 5.4 C 6 g/m*3 5.4 C 0 km/h
90 17-10-2008 07:28:03 5.4 C 6 g/m*3 5.4 C 0 km/h
91 17-10-2008 07:33:03 5.3 C 5.96 g/m*3 5.3 C 0 km/h
92 17-10-2008 07:38:03 5.3 C 6.03 g/m*3 5.3 C 0 km/h
93 17-10-2008 07:43:03 5.2 C 5.99 g/m*3 5.2 C 0 km/h
94 17-10-2008 07:48:02 5.2 C 5.99 g/m*3 5.2 C 0 km/h
95 17-10-2008 07:53:02 5.1 C 5.95 g/m*3 5.1 C 0 km/h
96 17-10-2008 07:58:02 5.2 C 5.99 g/m*3 5.2 C 0 km/h
97 17-10-2008 08:03:02 5.2 C 5.99 g/m*3 5.2 C 0 km/h
98 17-10-2008 08:08:02 5.1 C 5.95 g/m*3 5.1 C 0 km/h
99 17-10-2008 08:13:02 5.1 C 5.95 g/m*3 5.1 C 0 km/h
100 17-10-2008 08:18:03 5.2 C 6.06 g/m*3 5.2 C 0 km/h
Sensor: Nr:Datum:Temp:Abs-Feuchte:Windchill:Wind:
Aussen-T/F 101 17-10-2008 08:23:03 5.2 C 6.06 g/m*3 5.2 C 0 km/h
102 17-10-2008 08:28:03 5.2 C 6.06 g/m*3 5.2 C 0 km/h
103 17-10-2008 08:33:03 5.2 C 6.06 g/m*3 5.2 C 0 km/h
104 17-10-2008 08:38:03 5.2 C 6.06 g/m*3 5.2 C 0 km/h
105 17-10-2008 08:43:04 5.4 C 6.14 g/m*3 5.4 C 0 km/h
106 17-10-2008 08:48:02 5.5 C 6.18 g/m*3 5.5 C 0 km/h
107 17-10-2008 08:53:02 5.6 C 6.22 g/m*3 5.6 C 0 km/h
108 17-10-2008 08:58:02 5.5 C 6.11 g/m*3 5.5 C 0 km/h
109 17-10-2008 09:03:02 5.7 C 6.26 g/m*3 5.7 C 0 km/h
110 17-10-2008 09:08:02 5.9 C 6.27 g/m*3 5.9 C 0 km/h
111 17-10-2008 09:13:02 5.9 C 6.27 g/m*3 5.9 C 0 km/h
112 17-10-2008 09:18:02 6.1 C 6.28 g/m*3 6.1 C 0 km/h
113 17-10-2008 09:23:02 6.2 C 6.25 g/m*3 6.2 C 0 km/h
114 17-10-2008 09:28:02 6.2 C 6.25 g/m*3 6.2 C 0 km/h
115 17-10-2008 09:33:02 6.3 C 6.22 g/m*3 6.3 C 0 km/h
116 17-10-2008 09:38:02 6.7 C 6.38 g/m*3 6.7 C 0 km/h
117 17-10-2008 09:43:02 6.8 C 6.35 g/m*3 6.8 C 0 km/h
118 17-10-2008 09:48:02 6.8 C 6.35 g/m*3 6.8 C 0 km/h
119 17-10-2008 09:53:03 7 C 6.28 g/m*3 7 C 0 km/h
120 17-10-2008 09:58:03 7 C 6.28 g/m*3 7 C 0 km/h
121 17-10-2008 10:03:03 7.3 C 6.32 g/m*3 7.3 C 0 km/h
122 17-10-2008 10:08:03 7.4 C 6.28 g/m*3 7.4 C 0 km/h
123 17-10-2008 10:13:03 7.5 C 6.32 g/m*3 7.5 C 0 km/h
124 17-10-2008 10:18:02 7.4 C 6.2 g/m*3 7.4 C 0 km/h
125 17-10-2008 10:23:02 7.6 C 6.28 g/m*3 7.6 C 0 km/h
Sensor: Nr:Datum:Temp:Abs-Feuchte:Windchill:Wind:
Aussen-T/F 126 17-10-2008 10:28:03 7.8 C 6.37 g/m*3 7.8 C 0 km/h
127 17-10-2008 10:33:03 7.9 C 6.41 g/m*3 7.9 C 0 km/h
128 17-10-2008 10:38:03 8.1 C 6.32 g/m*3 8.1 C 0 km/h
129 17-10-2008 10:43:03 8.2 C 6.28 g/m*3 8.2 C 0 km/h
130 17-10-2008 10:48:02 8.2 C 6.2 g/m*3 8.2 C 0 km/h
131 17-10-2008 10:53:02 8.2 C 6.28 g/m*3 8.2 C 0 km/h
132 17-10-2008 10:58:02 8.2 C 6.28 g/m*3 8.2 C 0 km/h
133 17-10-2008 11:03:02 8.2 C 6.36 g/m*3 8.2 C 0 km/h
134 17-10-2008 11:08:02 8.1 C 6.24 g/m*3 8.1 C 0 km/h
135 17-10-2008 11:13:02 8.1 C 6.24 g/m*3 8.1 C 0 km/h
136 17-10-2008 11:18:02 8 C 6.2 g/m*3 8 C 0 km/h
137 17-10-2008 11:23:02 8.1 C 6.32 g/m*3 8.1 C 0 km/h
138 17-10-2008 11:28:02 8.2 C 6.36 g/m*3 8.2 C 0 km/h
139 17-10-2008 11:33:02 8.2 C 6.28 g/m*3 8.2 C 0 km/h
140 17-10-2008 11:38:02 8.3 C 6.41 g/m*3 8.3 C 0 km/h
141 17-10-2008 11:43:02 8.5 C 6.49 g/m*3 8.5 C 0 km/h
142 17-10-2008 11:48:02 8.6 C 6.44 g/m*3 8.6 C 0 km/h
143 17-10-2008 11:53:03 8.7 C 6.49 g/m*3 8.7 C 0 km/h
144 17-10-2008 11:58:03 8.9 C 6.57 g/m*3 8.9 C 0 km/h
145 17-10-2008 12:03:01 9 C 6.52 g/m*3 9 C 0 km/h
146 17-10-2008 12:08:01 9.3 C 6.56 g/m*3 9.3 C 0 km/h
147 17-10-2008 12:13:01 9.4 C 6.6 g/m*3 9.4 C 0 km/h
148 17-10-2008 12:18:02 9.5 C 6.64 g/m*3 9.5 C 0 km/h
149 17-10-2008 12:23:02 9.7 C 6.55 g/m*3 9.7 C 0 km/h
150 17-10-2008 12:28:02 9.8 C 6.59 g/m*3 9.8 C 0 km/h
Sensor: Nr:Datum:Temp:Abs-Feuchte:Windchill:Wind:
Aussen-T/F 151 17-10-2008 12:33:01 10.1 C 6.52 g/m*3 10.1 C 0 km/h
152 17-10-2008 12:38:01 10.6 C 6.64 g/m*3 10.6 C 0 km/h
153 17-10-2008 12:43:01 10.7 C 6.48 g/m*3 10.7 C 0 km/h
154 17-10-2008 12:48:02 11.2 C 6.39 g/m*3 11.2 C 0 km/h
155 17-10-2008 12:53:02 11.6 C 6.44 g/m*3 11.6 C 0 km/h
156 17-10-2008 12:58:02 11.6 C 6.34 g/m*3 11.6 C 0 km/h
157 17-10-2008 13:03:02 11.7 C 6.38 g/m*3 11.7 C 0 km/h
158 17-10-2008 13:08:02 11.8 C 6.31 g/m*3 11.8 C 0 km/h
159 17-10-2008 13:13:02 12 C 6.29 g/m*3 12 C 0 km/h
160 17-10-2008 13:18:02 12 C 6.18 g/m*3 12 C 0 km/h
161 17-10-2008 13:23:02 12.4 C 6.01 g/m*3 12.4 C 0 km/h
162 17-10-2008 13:28:02 12.8 C 5.71 g/m*3 12.8 C 0 km/h
163 17-10-2008 13:33:01 13 C 5.78 g/m*3 13 C 0 km/h
164 17-10-2008 13:38:01 12.6 C 5.64 g/m*3 12.6 C 0 km/h
165 17-10-2008 13:43:01 12.5 C 5.5 g/m*3 12.5 C 0 km/h
166 17-10-2008 13:48:01 12.7 C 5.45 g/m*3 12.7 C 0 km/h
167 17-10-2008 13:53:01 13 C 5.33 g/m*3 13 C 0 km/h
168 17-10-2008 13:58:01 13 C 5.22 g/m*3 13 C 0 km/h
169 17-10-2008 14:03:02 13 C 5.22 g/m*3 13 C 0 km/h
170 17-10-2008 14:08:02 12.6 C 5.2 g/m*3 12.6 C 0 km/h
171 17-10-2008 14:13:03 12.4 C 5.24 g/m*3 12.4 C 0 km/h
172 17-10-2008 14:18:01 12.2 C 5.29 g/m*3 12.2 C 0 km/h
173 17-10-2008 14:23:01 12.2 C 5.5 g/m*3 12.2 C 0 km/h
174 17-10-2008 14:28:01 12.2 C 5.5 g/m*3 12.2 C 0 km/h
175 17-10-2008 14:33:02 12.3 C 5.43 g/m*3 12.3 C 0 km/h
Sensor: Nr:Datum:Temp:Abs-Feuchte:Windchill:Wind:
Aussen-T/F 176 17-10-2008 14:38:02 12.4 C 5.46 g/m*3 12.4 C 0 km/h
177 17-10-2008 14:43:02 12.5 C 5.39 g/m*3 12.5 C 0 km/h
178 17-10-2008 14:48:02 12.6 C 5.42 g/m*3 12.6 C 0 km/h
179 17-10-2008 14:53:02 12.6 C 5.42 g/m*3 12.6 C 0 km/h
180 17-10-2008 14:58:02 12.8 C 5.49 g/m*3 12.8 C 0 km/h
181 17-10-2008 15:03:02 13 C 5.22 g/m*3 13 C 0 km/h
182 17-10-2008 15:08:02 13.5 C 5.26 g/m*3 13.5 C 0 km/h
183 17-10-2008 15:13:02 13.3 C 5.2 g/m*3 13.3 C 0 km/h
184 17-10-2008 15:18:02 13.2 C 5.17 g/m*3 13.2 C 0 km/h
185 17-10-2008 15:23:02 13.2 C 5.28 g/m*3 13.2 C 0 km/h
186 17-10-2008 15:28:02 13.2 C 5.28 g/m*3 13.2 C 0 km/h
187 17-10-2008 15:33:02 13.4 C 5.11 g/m*3 13.4 C 0 km/h
188 17-10-2008 15:38:02 13.1 C 5.02 g/m*3 13.1 C 0 km/h
189 17-10-2008 15:43:02 13.1 C 5.02 g/m*3 13.1 C 0 km/h
190 17-10-2008 15:48:02 12.9 C 5.07 g/m*3 12.9 C 0 km/h
191 17-10-2008 15:53:02 12.8 C 5.15 g/m*3 12.8 C 0 km/h
192 17-10-2008 15:58:02 13 C 5.1 g/m*3 13 C 0 km/h
193 17-10-2008 16:03:03 13 C 5.22 g/m*3 13 C 0 km/h
194 17-10-2008 16:08:03 12.8 C 5.04 g/m*3 12.8 C 0 km/h
195 17-10-2008 16:13:03 12.6 C 5.09 g/m*3 12.6 C 0 km/h
196 17-10-2008 16:18:02 12.5 C 5.06 g/m*3 12.5 C 0 km/h
197 17-10-2008 16:23:02 12.4 C 5.14 g/m*3 12.4 C 0 km/h
198 17-10-2008 16:28:02 12.3 C 5.43 g/m*3 12.3 C 0 km/h
199 17-10-2008 16:33:04 12.2 C 5.5 g/m*3 12.2 C 0 km/h
200 17-10-2008 16:38:04 12.1 C 5.68 g/m*3 12.1 C 0 km/h
Sensor: Nr:Datum:Temp:Abs-Feuchte:Windchill:Wind:
Aussen-T/F 201 17-10-2008 16:43:04 12.1 C 5.58 g/m*3 12.1 C 0 km/h
202 17-10-2008 16:48:02 12.2 C 5.72 g/m*3 12.2 C 0 km/h
203 17-10-2008 16:53:02 12.2 C 5.83 g/m*3 12.2 C 0 km/h
204 17-10-2008 16:58:02 12 C 5.86 g/m*3 12 C 0 km/h
205 17-10-2008 17:03:03 12.1 C 6.01 g/m*3 12.1 C 0 km/h
206 17-10-2008 17:08:03 12.1 C 6.01 g/m*3 12.1 C 0 km/h
207 17-10-2008 17:13:03 12 C 6.07 g/m*3 12 C 0 km/h
208 17-10-2008 17:18:03 11.9 C 6.35 g/m*3 11.9 C 0 km/h
209 17-10-2008 17:23:03 11.8 C 6.21 g/m*3 11.8 C 0 km/h
210 17-10-2008 17:28:03 11.8 C 6.31 g/m*3 11.8 C 0 km/h
211 17-10-2008 17:33:02 12.1 C 6.33 g/m*3 12.1 C 0 km/h
212 17-10-2008 17:38:03 12 C 6.29 g/m*3 12 C 0 km/h
213 17-10-2008 17:43:03 12.1 C 6.22 g/m*3 12.1 C 0 km/h
214 17-10-2008 17:48:02 11.6 C 6.13 g/m*3 11.6 C 0 km/h
215 17-10-2008 17:53:02 11.5 C 6.09 g/m*3 11.5 C 0 km/h
216 17-10-2008 17:58:02 11.4 C 6.06 g/m*3 11.4 C 0 km/h
217 17-10-2008 18:03:02 11.3 C 6.02 g/m*3 11.3 C 0 km/h
218 17-10-2008 18:08:02 11 C 6.01 g/m*3 11 C 0 km/h
219 17-10-2008 18:13:02 10.8 C 6.13 g/m*3 10.8 C 0 km/h
220 17-10-2008 18:18:02 10.6 C 6.15 g/m*3 10.6 C 0 km/h
221 17-10-2008 18:23:02 10.3 C 6.22 g/m*3 10.3 C 0 km/h
222 17-10-2008 18:28:02 10.3 C 6.22 g/m*3 10.3 C 0 km/h
223 17-10-2008 18:33:02 9.8 C 6.22 g/m*3 9.8 C 0 km/h
224 17-10-2008 18:38:02 9.6 C 6.23 g/m*3 9.6 C 0 km/h
225 17-10-2008 18:43:02 9.5 C 6.19 g/m*3 9.5 C 0 km/h
Sensor: Nr:Datum:Temp:Abs-Feuchte:Windchill:Wind:
Aussen-T/F 226 17-10-2008 18:48:02 9.3 C 6.11 g/m*3 9.3 C 0 km/h
227 17-10-2008 18:53:02 9.1 C 6.12 g/m*3 9.1 C 0 km/h
228 17-10-2008 18:58:02 8.9 C 6.22 g/m*3 8.9 C 0 km/h
229 17-10-2008 19:03:02 8.8 C 6.18 g/m*3 8.8 C 0 km/h
230 17-10-2008 19:08:02 8.7 C 6.14 g/m*3 8.7 C 0 km/h
231 17-10-2008 19:13:02 8.5 C 6.15 g/m*3 8.5 C 0 km/h
232 17-10-2008 19:18:02 8.5 C 6.15 g/m*3 8.5 C 0 km/h
233 17-10-2008 19:23:02 8.4 C 6.11 g/m*3 8.4 C 0 km/h
234 17-10-2008 19:28:02 8.2 C 6.03 g/m*3 8.2 C 0 km/h
235 17-10-2008 19:33:02 8.2 C 6.03 g/m*3 8.2 C 0 km/h
236 17-10-2008 19:38:02 8.1 C 5.99 g/m*3 8.1 C 0 km/h
237 17-10-2008 19:43:03 7.9 C 6.08 g/m*3 7.9 C 0 km/h
238 17-10-2008 19:48:02 7.9 C 6.08 g/m*3 7.9 C 0 km/h
239 17-10-2008 19:53:02 7.8 C 6.12 g/m*3 7.8 C 0 km/h
240 17-10-2008 19:58:02 7.6 C 6.04 g/m*3 7.6 C 0 km/h
241 17-10-2008 20:03:03 7.5 C 6.08 g/m*3 7.5 C 0 km/h
242 17-10-2008 20:08:03 7.5 C 6.08 g/m*3 7.5 C 0 km/h
243 17-10-2008 20:13:03 7.4 C 5.96 g/m*3 7.4 C 0 km/h
244 17-10-2008 20:18:02 7.4 C 6.04 g/m*3 7.4 C 0 km/h
245 17-10-2008 20:23:02 7.4 C 6.12 g/m*3 7.4 C 0 km/h
246 17-10-2008 20:28:02 7.2 C 5.97 g/m*3 7.2 C 0 km/h
247 17-10-2008 20:33:02 7.2 C 6.04 g/m*3 7.2 C 0 km/h
248 17-10-2008 20:38:02 7.2 C 6.04 g/m*3 7.2 C 0 km/h
249 17-10-2008 20:43:02 6.9 C 6 g/m*3 6.9 C 0 km/h
250 17-10-2008 20:48:02 6.8 C 5.97 g/m*3 6.8 C 0 km/h
Sensor: Nr:Datum:Temp:Abs-Feuchte:Windchill:Wind:
Aussen-T/F 251 17-10-2008 20:53:02 6.8 C 6.04 g/m*3 6.8 C 0 km/h
252 17-10-2008 20:58:02 6.8 C 6.04 g/m*3 6.8 C 0 km/h
253 17-10-2008 21:03:01 6.7 C 6 g/m*3 6.7 C 0 km/h
254 17-10-2008 21:08:01 6.7 C 6 g/m*3 6.7 C 0 km/h
255 17-10-2008 21:13:01 6.6 C 5.96 g/m*3 6.6 C 0 km/h
256 17-10-2008 21:18:01 6.5 C 5.92 g/m*3 6.5 C 0 km/h
257 17-10-2008 21:23:01 6.5 C 6 g/m*3 6.5 C 0 km/h
258 17-10-2008 21:28:01 6.5 C 6.07 g/m*3 6.5 C 0 km/h
259 17-10-2008 21:33:02 6.4 C 6.04 g/m*3 6.4 C 0 km/h
260 17-10-2008 21:38:02 6.4 C 6.04 g/m*3 6.4 C 0 km/h
261 17-10-2008 21:43:02 6.5 C 6.15 g/m*3 6.5 C 0 km/h
262 17-10-2008 21:48:02 6.4 C 6.11 g/m*3 6.4 C 0 km/h
263 17-10-2008 21:53:02 6.3 C 6.07 g/m*3 6.3 C 0 km/h
264 17-10-2008 21:58:02 6.2 C 6.03 g/m*3 6.2 C 0 km/h
265 17-10-2008 22:03:03 6.2 C 6.03 g/m*3 6.2 C 0 km/h
266 17-10-2008 22:08:03 6 C 5.95 g/m*3 6 C 0 km/h
267 17-10-2008 22:13:03 5.9 C 5.98 g/m*3 5.9 C 0 km/h
268 17-10-2008 22:18:03 5.8 C 5.95 g/m*3 5.8 C 0 km/h
269 17-10-2008 22:23:03 5.7 C 5.91 g/m*3 5.7 C 0 km/h
270 17-10-2008 22:28:03 5.7 C 5.98 g/m*3 5.7 C 0 km/h
271 17-10-2008 22:33:03 5.6 C 5.94 g/m*3 5.6 C 0 km/h
272 17-10-2008 22:38:03 5.6 C 5.94 g/m*3 5.6 C 0 km/h
273 17-10-2008 22:43:03 5.5 C 5.97 g/m*3 5.5 C 0 km/h
274 17-10-2008 22:48:02 5.5 C 5.97 g/m*3 5.5 C 0 km/h
275 17-10-2008 22:53:02 5.4 C 5.93 g/m*3 5.4 C 0 km/h
Sensor: Nr:Datum:Temp:Abs-Feuchte:Windchill:Wind:
Aussen-T/F 276 17-10-2008 22:58:02 5.4 C 5.93 g/m*3 5.4 C 0 km/h
277 17-10-2008 23:03:03 5.3 C 5.89 g/m*3 5.3 C 0 km/h
278 17-10-2008 23:08:03 5.3 C 5.89 g/m*3 5.3 C 0 km/h
279 17-10-2008 23:13:03 5.3 C 5.96 g/m*3 5.3 C 0 km/h
280 17-10-2008 23:18:02 5.2 C 5.92 g/m*3 5.2 C 0 km/h
281 17-10-2008 23:23:02 5.2 C 5.92 g/m*3 5.2 C 0 km/h
282 17-10-2008 23:28:03 5.1 C 5.88 g/m*3 5.1 C 0 km/h
283 17-10-2008 23:33:02 5 C 5.84 g/m*3 5 C 0 km/h
284 17-10-2008 23:38:02 5 C 5.84 g/m*3 5 C 0 km/h
285 17-10-2008 23:43:02 5.1 C 5.95 g/m*3 5.1 C 0 km/h
286 17-10-2008 23:48:02 5 C 5.91 g/m*3 5 C 0 km/h
287 17-10-2008 23:53:03 5 C 5.91 g/m*3 5 C 0 km/h
288 17-10-2008 23:58:03 5 C 5.91 g/m*3 5 C 0 km/h
289 18-10-2008 00:03:02 5 C 5.91 g/m*3 5 C 0 km/h
290 18-10-2008 00:08:02 4.8 C 5.9 g/m*3 4.8 C 0 km/h
291 18-10-2008 00:13:02 4.7 C 5.86 g/m*3 4.7 C 0 km/h
292 18-10-2008 00:18:02 4.6 C 5.82 g/m*3 4.6 C 0 km/h
293 18-10-2008 00:23:02 4.7 C 5.93 g/m*3 4.7 C 0 km/h
294 18-10-2008 00:28:02 4.7 C 5.93 g/m*3 4.7 C 0 km/h
295 18-10-2008 00:33:02 4.6 C 5.89 g/m*3 4.6 C 0 km/h
296 18-10-2008 00:38:02 4.4 C 5.81 g/m*3 4.4 C 0 km/h
297 18-10-2008 00:43:02 4.4 C 5.81 g/m*3 4.4 C 0 km/h
298 18-10-2008 00:48:02 4.3 C 5.77 g/m*3 4.3 C 0 km/h
299 18-10-2008 00:53:03 4.4 C 5.81 g/m*3 4.4 C 0 km/h
300 18-10-2008 00:58:03 4.3 C 5.77 g/m*3 4.3 C 0 km/h
Sensor: Nr:Datum:Temp:Abs-Feuchte:Windchill:Wind:
Aussen-T/F 301 18-10-2008 01:03:02 4.3 C 5.77 g/m*3 4.3 C 0 km/h
302 18-10-2008 01:08:03 4.2 C 5.73 g/m*3 4.2 C 0 km/h
303 18-10-2008 01:13:03 4.2 C 5.8 g/m*3 4.2 C 0 km/h
304 18-10-2008 01:18:02 4.2 C 5.8 g/m*3 4.2 C 0 km/h
305 18-10-2008 01:23:02 4.2 C 5.8 g/m*3 4.2 C 0 km/h
306 18-10-2008 01:28:02 4.1 C 5.76 g/m*3 4.1 C 0 km/h
307 18-10-2008 01:33:02 4 C 5.72 g/m*3 4 C 0 km/h
308 18-10-2008 01:38:02 4 C 5.72 g/m*3 4 C 0 km/h
309 18-10-2008 01:43:02 4 C 5.72 g/m*3 4 C 0 km/h
310 18-10-2008 01:48:02 4 C 5.72 g/m*3 4 C 0 km/h
311 18-10-2008 01:53:02 3.9 C 5.75 g/m*3 3.9 C 0 km/h
312 18-10-2008 01:58:02 3.8 C 5.71 g/m*3 3.8 C 0 km/h
313 18-10-2008 02:03:02 3.8 C 5.71 g/m*3 3.8 C 0 km/h
314 18-10-2008 02:08:02 3.8 C 5.71 g/m*3 3.8 C 0 km/h
315 18-10-2008 02:13:02 3.7 C 5.67 g/m*3 3.7 C 0 km/h
316 18-10-2008 02:18:01 3.6 C 5.63 g/m*3 3.6 C 0 km/h
317 18-10-2008 02:23:01 3.6 C 5.63 g/m*3 3.6 C 0 km/h
318 18-10-2008 02:28:01 3.5 C 5.6 g/m*3 3.5 C 0 km/h
319 18-10-2008 02:33:02 3.4 C 5.56 g/m*3 3.4 C 0 km/h
320 18-10-2008 02:38:02 3.4 C 5.56 g/m*3 3.4 C 0 km/h
321 18-10-2008 02:43:02 3.4 C 5.56 g/m*3 3.4 C 0 km/h
322 18-10-2008 02:49:03 3.3 C 5.52 g/m*3 3.3 C 0 km/h
323 18-10-2008 02:54:03 3.2 C 5.48 g/m*3 3.2 C 0 km/h
324 18-10-2008 02:59:03 3.2 C 5.48 g/m*3 3.2 C 0 km/h
325 18-10-2008 03:04:03 3.2 C 5.48 g/m*3 3.2 C 0 km/h
Sensor: Nr:Datum:Temp:Abs-Feuchte:Windchill:Wind:
Aussen-T/F 326 18-10-2008 03:09:03 3.2 C 5.48 g/m*3 3.2 C 0 km/h
327 18-10-2008 03:14:03 3.2 C 5.48 g/m*3 3.2 C 0 km/h
328 18-10-2008 03:19:03 3.3 C 5.52 g/m*3 3.3 C 0 km/h
329 18-10-2008 03:24:03 3.4 C 5.62 g/m*3 3.4 C 0 km/h
330 18-10-2008 03:29:03 3.5 C 5.66 g/m*3 3.5 C 0 km/h
331 18-10-2008 03:34:01 3.5 C 5.66 g/m*3 3.5 C 0 km/h
332 18-10-2008 03:39:01 3.6 C 5.69 g/m*3 3.6 C 0 km/h
333 18-10-2008 03:44:01 3.7 C 5.73 g/m*3 3.7 C 0 km/h
334 18-10-2008 03:49:01 3.7 C 5.8 g/m*3 3.7 C 0 km/h
335 18-10-2008 03:54:01 3.7 C 5.8 g/m*3 3.7 C 0 km/h
336 18-10-2008 03:59:01 3.7 C 5.8 g/m*3 3.7 C 0 km/h
337 18-10-2008 04:04:01 3.8 C 5.83 g/m*3 3.8 C 0 km/h
338 18-10-2008 04:09:01 3.8 C 5.83 g/m*3 3.8 C 0 km/h
339 18-10-2008 04:14:01 3.8 C 5.83 g/m*3 3.8 C 0 km/h
340 18-10-2008 04:19:01 3.8 C 5.83 g/m*3 3.8 C 0 km/h
341 18-10-2008 04:24:01 3.9 C 5.87 g/m*3 3.9 C 0 km/h
342 18-10-2008 04:29:01 3.9 C 5.87 g/m*3 3.9 C 0 km/h
343 18-10-2008 04:34:01 3.9 C 5.87 g/m*3 3.9 C 0 km/h
344 18-10-2008 04:39:01 3.8 C 5.83 g/m*3 3.8 C 0 km/h
345 18-10-2008 04:44:01 3.8 C 5.83 g/m*3 3.8 C 0 km/h
346 18-10-2008 04:49:03 3.7 C 5.8 g/m*3 3.7 C 0 km/h
347 18-10-2008 04:54:03 3.7 C 5.8 g/m*3 3.7 C 0 km/h
348 18-10-2008 04:59:03 3.7 C 5.8 g/m*3 3.7 C 0 km/h
349 18-10-2008 05:04:02 3.7 C 5.8 g/m*3 3.7 C 0 km/h
350 18-10-2008 05:09:02 3.7 C 5.8 g/m*3 3.7 C 0 km/h
Sensor: Nr:Datum:Temp:Abs-Feuchte:Windchill:Wind:
Aussen-T/F 351 18-10-2008 05:14:02 3.7 C 5.8 g/m*3 3.7 C 0 km/h
352 18-10-2008 05:19:02 3.7 C 5.8 g/m*3 3.7 C 0 km/h
353 18-10-2008 05:24:02 3.7 C 5.8 g/m*3 3.7 C 0 km/h
354 18-10-2008 05:29:02 3.7 C 5.8 g/m*3 3.7 C 0 km/h
355 18-10-2008 05:34:02 3.7 C 5.8 g/m*3 3.7 C 0 km/h
356 18-10-2008 05:39:03 3.7 C 5.8 g/m*3 3.7 C 0 km/h
357 18-10-2008 05:44:03 3.7 C 5.8 g/m*3 3.7 C 0 km/h
358 18-10-2008 05:49:02 3.7 C 5.8 g/m*3 3.7 C 0 km/h
359 18-10-2008 05:54:02 3.6 C 5.76 g/m*3 3.6 C 0 km/h
360 18-10-2008 05:59:03 3.4 C 5.62 g/m*3 3.4 C 0 km/h
361 18-10-2008 06:04:01 3.4 C 5.62 g/m*3 3.4 C 0 km/h
362 18-10-2008 06:09:01 3.4 C 5.62 g/m*3 3.4 C 0 km/h
363 18-10-2008 06:14:01 3.4 C 5.62 g/m*3 3.4 C 0 km/h
364 18-10-2008 06:19:02 3.5 C 5.66 g/m*3 3.5 C 0 km/h
365 18-10-2008 06:24:02 3.5 C 5.66 g/m*3 3.5 C 0 km/h
366 18-10-2008 06:29:02 3.4 C 5.62 g/m*3 3.4 C 0 km/h
367 18-10-2008 06:34:01 3.3 C 5.58 g/m*3 3.3 C 0 km/h
368 18-10-2008 06:39:01 3.4 C 5.62 g/m*3 3.4 C 0 km/h
369 18-10-2008 06:44:01 3.2 C 5.48 g/m*3 3.2 C 0 km/h
370 18-10-2008 06:49:01 3.2 C 5.48 g/m*3 3.2 C 0 km/h
371 18-10-2008 06:54:01 3.2 C 5.48 g/m*3 3.2 C 0 km/h
372 18-10-2008 06:59:01 3.1 C 5.45 g/m*3 3.1 C 0 km/h
373 18-10-2008 07:04:02 3 C 5.41 g/m*3 3 C 0 km/h
374 18-10-2008 07:09:02 3 C 5.41 g/m*3 3 C 0 km/h
375 18-10-2008 07:14:02 2.8 C 5.4 g/m*3 2.8 C 0 km/h
Sensor: Nr:Datum:Temp:Abs-Feuchte:Windchill:Wind:
Aussen-T/F 376 18-10-2008 07:19:01 2.7 C 5.36 g/m*3 2.7 C 0 km/h
377 18-10-2008 07:24:01 2.7 C 5.36 g/m*3 2.7 C 0 km/h
378 18-10-2008 07:29:01 2.7 C 5.42 g/m*3 2.7 C 0 km/h
379 18-10-2008 07:34:02 2.7 C 5.42 g/m*3 2.7 C 0 km/h
380 18-10-2008 07:39:02 2.6 C 5.38 g/m*3 2.6 C 0 km/h
381 18-10-2008 07:44:02 2.5 C 5.35 g/m*3 2.5 C 0 km/h
382 18-10-2008 07:49:02 2.7 C 5.42 g/m*3 2.7 C 0 km/h
383 18-10-2008 07:54:03 2.7 C 5.42 g/m*3 2.7 C 0 km/h
384 18-10-2008 07:59:03 2.7 C 5.42 g/m*3 2.7 C 0 km/h
385 18-10-2008 08:04:02 2.7 C 5.42 g/m*3 2.7 C 0 km/h
386 18-10-2008 08:09:02 2.7 C 5.42 g/m*3 2.7 C 0 km/h
387 18-10-2008 08:14:02 2.7 C 5.42 g/m*3 2.7 C 0 km/h
388 18-10-2008 08:19:02 2.7 C 5.42 g/m*3 2.7 C 0 km/h
389 18-10-2008 08:24:02 2.8 C 5.46 g/m*3 2.8 C 0 km/h
390 18-10-2008 08:29:02 2.7 C 5.42 g/m*3 2.7 C 0 km/h
391 18-10-2008 08:34:02 2.7 C 5.42 g/m*3 2.7 C 0 km/h
392 18-10-2008 08:39:02 2.8 C 5.46 g/m*3 2.8 C 0 km/h
393 18-10-2008 08:44:02 2.8 C 5.46 g/m*3 2.8 C 0 km/h
394 18-10-2008 08:49:02 3 C 5.47 g/m*3 3 C 0 km/h
395 18-10-2008 08:54:02 3 C 5.47 g/m*3 3 C 0 km/h
396 18-10-2008 08:59:02 3 C 5.47 g/m*3 3 C 0 km/h
397 18-10-2008 09:04:02 3 C 5.47 g/m*3 3 C 0 km/h
398 18-10-2008 09:09:02 2.9 C 5.43 g/m*3 2.9 C 0 km/h
399 18-10-2008 09:14:02 2.8 C 5.4 g/m*3 2.8 C 0 km/h
400 18-10-2008 09:19:02 2.9 C 5.43 g/m*3 2.9 C 0 km/h
Sensor: Nr:Datum:Temp:Abs-Feuchte:Windchill:Wind:
Aussen-T/F 401 18-10-2008 09:24:02 3 C 5.41 g/m*3 3 C 0 km/h
402 18-10-2008 09:29:02 3 C 5.41 g/m*3 3 C 0 km/h
403 18-10-2008 09:34:02 3.1 C 5.45 g/m*3 3.1 C 0 km/h
404 18-10-2008 09:39:02 3.1 C 5.45 g/m*3 3.1 C 0 km/h
405 18-10-2008 09:44:02 3.2 C 5.54 g/m*3 3.2 C 0 km/h
406 18-10-2008 09:49:02 3.3 C 5.58 g/m*3 3.3 C 0 km/h
407 18-10-2008 09:54:02 3.3 C 5.58 g/m*3 3.3 C 0 km/h
408 18-10-2008 09:59:02 3.4 C 5.62 g/m*3 3.4 C 0 km/h
409 18-10-2008 10:04:02 3.4 C 5.62 g/m*3 3.4 C 0 km/h
410 18-10-2008 10:09:03 3.5 C 5.66 g/m*3 3.5 C 0 km/h
411 18-10-2008 10:14:03 3.5 C 5.66 g/m*3 3.5 C 0 km/h
412 18-10-2008 10:19:02 3.6 C 5.69 g/m*3 3.6 C 0 km/h
413 18-10-2008 10:24:02 3.7 C 5.73 g/m*3 3.7 C 0 km/h
414 18-10-2008 10:29:02 3.7 C 5.67 g/m*3 3.7 C 0 km/h
415 18-10-2008 10:34:01 3.7 C 5.67 g/m*3 3.7 C 0 km/h
416 18-10-2008 10:39:01 3.8 C 5.71 g/m*3 3.8 C 0 km/h
417 18-10-2008 10:44:01 3.9 C 5.75 g/m*3 3.9 C 0 km/h
418 18-10-2008 10:49:02 4 C 5.72 g/m*3 4 C 0 km/h
419 18-10-2008 10:54:02 4.2 C 5.8 g/m*3 4.2 C 0 km/h
420 18-10-2008 10:59:02 4.3 C 5.84 g/m*3 4.3 C 0 km/h
421 18-10-2008 11:04:02 4.4 C 5.81 g/m*3 4.4 C 0 km/h
422 18-10-2008 11:09:02 4.4 C 5.81 g/m*3 4.4 C 0 km/h
423 18-10-2008 11:14:02 4.5 C 5.78 g/m*3 4.5 C 0 km/h
424 18-10-2008 11:19:02 4.7 C 5.86 g/m*3 4.7 C 0 km/h
425 18-10-2008 11:24:02 4.7 C 5.8 g/m*3 4.7 C 0 km/h
Sensor: Nr:Datum:Temp:Abs-Feuchte:Windchill:Wind:
Aussen-T/F 426 18-10-2008 11:29:02 4.8 C 5.83 g/m*3 4.8 C 0 km/h
427 18-10-2008 11:34:02 5 C 5.84 g/m*3 5 C 0 km/h
428 18-10-2008 11:39:02 5.2 C 5.92 g/m*3 5.2 C 0 km/h
429 18-10-2008 11:44:02 5.2 C 5.85 g/m*3 5.2 C 0 km/h
430 18-10-2008 11:49:02 5.2 C 5.85 g/m*3 5.2 C 0 km/h
431 18-10-2008 11:54:02 5.2 C 5.78 g/m*3 5.2 C 0 km/h
432 18-10-2008 11:59:02 5.5 C 5.9 g/m*3 5.5 C 0 km/h
433 18-10-2008 12:04:02 5.7 C 5.98 g/m*3 5.7 C 0 km/h
434 18-10-2008 12:09:03 6.2 C 6.1 g/m*3 6.2 C 0 km/h
435 18-10-2008 12:14:03 6.5 C 6.22 g/m*3 6.5 C 0 km/h
436 18-10-2008 12:19:02 6.5 C 6.15 g/m*3 6.5 C 0 km/h
437 18-10-2008 12:24:02 6.5 C 6.07 g/m*3 6.5 C 0 km/h
438 18-10-2008 12:29:02 6.7 C 6.15 g/m*3 6.7 C 0 km/h
439 18-10-2008 12:34:03 6.7 C 6.15 g/m*3 6.7 C 0 km/h
440 18-10-2008 12:39:03 6.9 C 6.31 g/m*3 6.9 C 0 km/h
441 18-10-2008 12:44:03 7.2 C 6.36 g/m*3 7.2 C 0 km/h
442 18-10-2008 12:49:02 7.5 C 6.48 g/m*3 7.5 C 0 km/h
443 18-10-2008 12:54:02 7.8 C 6.61 g/m*3 7.8 C 0 km/h
444 18-10-2008 12:59:02 8.1 C 6.57 g/m*3 8.1 C 0 km/h
445 18-10-2008 13:04:03 8.5 C 6.66 g/m*3 8.5 C 0 km/h
446 18-10-2008 13:09:03 8.5 C 6.66 g/m*3 8.5 C 0 km/h
447 18-10-2008 13:14:03 9 C 6.61 g/m*3 9 C 0 km/h
448 18-10-2008 13:19:02 9.5 C 6.74 g/m*3 9.5 C 0 km/h
449 18-10-2008 13:24:02 9.6 C 6.69 g/m*3 9.6 C 0 km/h
450 18-10-2008 13:29:02 10.1 C 6.62 g/m*3 10.1 C 0 km/h
Sensor: Nr:Datum:Temp:Abs-Feuchte:Windchill:Wind:
Aussen-T/F 451 18-10-2008 13:34:06 10.5 C 6.69 g/m*3 10.5 C 0 km/h
452 18-10-2008 13:39:06 10.7 C 6.68 g/m*3 10.7 C 0 km/h
453 18-10-2008 13:44:06 11.1 C 6.55 g/m*3 11.1 C 0 km/h
454 18-10-2008 13:49:02 11.4 C 6.67 g/m*3 11.4 C 0 km/h
455 18-10-2008 13:54:02 11.7 C 6.69 g/m*3 11.7 C 0 km/h
456 18-10-2008 13:59:02 12.1 C 6.86 g/m*3 12.1 C 0 km/h
457 18-10-2008 14:04:02 12.6 C 7.08 g/m*3 12.6 C 0 km/h
458 18-10-2008 14:09:02 13 C 7.03 g/m*3 13 C 0 km/h
459 18-10-2008 14:14:02 13.2 C 7.12 g/m*3 13.2 C 0 km/h
460 18-10-2008 14:19:02 13.5 C 7.02 g/m*3 13.5 C 0 km/h
461 18-10-2008 14:24:02 13.8 C 7.03 g/m*3 13.8 C 0 km/h
462 18-10-2008 14:29:02 13.9 C 6.83 g/m*3 13.9 C 0 km/h
463 18-10-2008 14:34:02 14.5 C 6.84 g/m*3 14.5 C 0 km/h
464 18-10-2008 14:39:02 14.8 C 6.84 g/m*3 14.8 C 0 km/h
465 18-10-2008 14:44:02 15.1 C 6.45 g/m*3 15.1 C 0 km/h
466 18-10-2008 14:49:02 15.2 C 6.36 g/m*3 15.2 C 0 km/h
467 18-10-2008 14:54:02 15.5 C 6.21 g/m*3 15.5 C 0 km/h
468 18-10-2008 14:59:02 15.8 C 6.06 g/m*3 15.8 C 0 km/h
469 18-10-2008 15:04:02 15.9 C 6.09 g/m*3 15.9 C 0 km/h
470 18-10-2008 15:09:02 16.1 C 6.03 g/m*3 16.1 C 0 km/h
471 18-10-2008 15:14:02 16.1 C 5.21 g/m*3 16.1 C 0 km/h
472 18-10-2008 15:19:02 16.2 C 5.52 g/m*3 16.2 C 0 km/h
473 18-10-2008 15:24:02 16 C 5.04 g/m*3 16 C 0 km/h
474 18-10-2008 15:29:03 15.8 C 5.12 g/m*3 15.8 C 0 km/h
475 18-10-2008 15:34:01 15.7 C 4.82 g/m*3 15.7 C 0 km/h
Sensor: Nr:Datum:Temp:Abs-Feuchte:Windchill:Wind:
Aussen-T/F 476 18-10-2008 15:39:01 15.6 C 4.79 g/m*3 15.6 C 0 km/h
477 18-10-2008 15:44:01 15.4 C 4.73 g/m*3 15.4 C 0 km/h
478 18-10-2008 15:49:02 15.7 C 4.55 g/m*3 15.7 C 0 km/h
479 18-10-2008 15:54:02 15.8 C 4.58 g/m*3 15.8 C 0 km/h
480 18-10-2008 15:59:02 15.8 C 4.58 g/m*3 15.8 C 0 km/h
481 18-10-2008 16:04:02 16.2 C 4.96 g/m*3 16.2 C 0 km/h
482 18-10-2008 16:09:02 16 C 4.5 g/m*3 16 C 0 km/h
483 18-10-2008 16:14:02 15.3 C 4.57 g/m*3 15.3 C 0 km/h
484 18-10-2008 16:19:01 15.4 C 4.47 g/m*3 15.4 C 0 km/h
485 18-10-2008 16:24:01 15.4 C 4.34 g/m*3 15.4 C 0 km/h
486 18-10-2008 16:29:01 15.6 C 4.52 g/m*3 15.6 C 0 km/h
487 18-10-2008 16:34:02 15.5 C 4.63 g/m*3 15.5 C 0 km/h
488 18-10-2008 16:39:02 15.6 C 4.65 g/m*3 15.6 C 0 km/h
489 18-10-2008 16:44:02 15.6 C 4.79 g/m*3 15.6 C 0 km/h
490 18-10-2008 16:49:02 15.6 C 4.92 g/m*3 15.6 C 0 km/h
491 18-10-2008 16:54:02 15.8 C 4.98 g/m*3 15.8 C 0 km/h
492 18-10-2008 16:59:03 15.8 C 4.98 g/m*3 15.8 C 0 km/h
493 18-10-2008 17:04:02 15.5 C 4.76 g/m*3 15.5 C 0 km/h
494 18-10-2008 17:09:02 15 C 4.87 g/m*3 15 C 0 km/h
495 18-10-2008 17:14:02 14.7 C 4.78 g/m*3 14.7 C 0 km/h
496 18-10-2008 17:19:02 14.2 C 4.64 g/m*3 14.2 C 0 km/h
497 18-10-2008 17:24:02 13.8 C 4.77 g/m*3 13.8 C 0 km/h
498 18-10-2008 17:29:02 13.7 C 4.74 g/m*3 13.7 C 0 km/h
499 18-10-2008 17:34:02 13.7 C 4.86 g/m*3 13.7 C 0 km/h
500 18-10-2008 17:39:02 13.3 C 4.85 g/m*3 13.3 C 0 km/h
Sensor: Nr:Datum:Temp:Abs-Feuchte:Windchill:Wind:
Aussen-T/F 501 18-10-2008 17:44:02 12.9 C 5.07 g/m*3 12.9 C 0 km/h
502 18-10-2008 17:49:02 12.7 C 4.9 g/m*3 12.7 C 0 km/h
503 18-10-2008 17:54:02 12.5 C 4.95 g/m*3 12.5 C 0 km/h
504 18-10-2008 17:59:02 12.5 C 5.06 g/m*3 12.5 C 0 km/h
505 18-10-2008 18:04:03 12.4 C 5.03 g/m*3 12.4 C 0 km/h
506 18-10-2008 18:09:03 12.3 C 5.1 g/m*3 12.3 C 0 km/h
507 18-10-2008 18:14:03 12 C 5.12 g/m*3 12 C 0 km/h
508 18-10-2008 18:19:02 12 C 5.12 g/m*3 12 C 0 km/h
509 18-10-2008 18:24:02 11.5 C 5.16 g/m*3 11.5 C 0 km/h
510 18-10-2008 18:29:02 11.3 C 5.1 g/m*3 11.3 C 0 km/h
511 18-10-2008 18:34:03 11.2 C 5.17 g/m*3 11.2 C 0 km/h
512 18-10-2008 18:39:03 11 C 5.1 g/m*3 11 C 0 km/h
513 18-10-2008 18:44:03 10.9 C 5.27 g/m*3 10.9 C 0 km/h
514 18-10-2008 18:49:02 10.8 C 5.44 g/m*3 10.8 C 0 km/h
515 18-10-2008 18:54:02 10.8 C 5.44 g/m*3 10.8 C 0 km/h
516 18-10-2008 18:59:02 10.8 C 5.54 g/m*3 10.8 C 0 km/h
517 18-10-2008 19:04:02 10.6 C 5.47 g/m*3 10.6 C 0 km/h
518 18-10-2008 19:09:02 10.5 C 5.53 g/m*3 10.5 C 0 km/h
519 18-10-2008 19:14:02 10.3 C 5.46 g/m*3 10.3 C 0 km/h
520 18-10-2008 19:19:02 10.2 C 5.61 g/m*3 10.2 C 0 km/h
521 18-10-2008 19:24:02 10.1 C 5.58 g/m*3 10.1 C 0 km/h
522 18-10-2008 19:29:02 9.9 C 5.6 g/m*3 9.9 C 0 km/h
523 18-10-2008 19:34:02 9.7 C 5.62 g/m*3 9.7 C 0 km/h
524 18-10-2008 19:39:02 9.5 C 5.64 g/m*3 9.5 C 0 km/h
525 18-10-2008 19:44:02 9.5 C 5.73 g/m*3 9.5 C 0 km/h
Sensor: Nr:Datum:Temp:Abs-Feuchte:Windchill:Wind:
Aussen-T/F 526 18-10-2008 19:49:02 9.2 C 5.63 g/m*3 9.2 C 0 km/h
527 18-10-2008 19:54:02 9.2 C 5.71 g/m*3 9.2 C 0 km/h
528 18-10-2008 19:59:02 9.1 C 5.77 g/m*3 9.1 C 0 km/h
529 18-10-2008 20:04:03 9 C 5.73 g/m*3 9 C 0 km/h
530 18-10-2008 20:09:03 8.8 C 5.83 g/m*3 8.8 C 0 km/h
531 18-10-2008 20:14:03 8.7 C 5.79 g/m*3 8.7 C 0 km/h
532 18-10-2008 20:19:02 8.6 C 5.84 g/m*3 8.6 C 0 km/h
533 18-10-2008 20:24:02 8.6 C 5.84 g/m*3 8.6 C 0 km/h
534 18-10-2008 20:29:02 8.5 C 5.81 g/m*3 8.5 C 0 km/h
535 18-10-2008 20:34:02 8.5 C 5.72 g/m*3 8.5 C 0 km/h
536 18-10-2008 20:39:02 8.5 C 5.72 g/m*3 8.5 C 0 km/h
537 18-10-2008 20:44:02 8.4 C 5.77 g/m*3 8.4 C 0 km/h
538 18-10-2008 20:49:03 8.4 C 5.77 g/m*3 8.4 C 0 km/h
539 18-10-2008 20:54:03 8.3 C 5.82 g/m*3 8.3 C 0 km/h
540 18-10-2008 20:59:03 8.3 C 5.82 g/m*3 8.3 C 0 km/h
541 18-10-2008 21:04:02 8.2 C 5.78 g/m*3 8.2 C 0 km/h
542 18-10-2008 21:09:02 8.1 C 5.74 g/m*3 8.1 C 0 km/h
543 18-10-2008 21:14:03 8 C 5.79 g/m*3 8 C 0 km/h
544 18-10-2008 21:19:02 7.9 C 5.83 g/m*3 7.9 C 0 km/h
545 18-10-2008 21:24:02 7.8 C 5.79 g/m*3 7.8 C 0 km/h
546 18-10-2008 21:29:02 7.8 C 5.88 g/m*3 7.8 C 0 km/h
547 18-10-2008 21:34:03 7.7 C 5.84 g/m*3 7.7 C 0 km/h
548 18-10-2008 21:39:03 7.6 C 5.88 g/m*3 7.6 C 0 km/h
549 18-10-2008 21:44:03 7.4 C 5.81 g/m*3 7.4 C 0 km/h
550 18-10-2008 21:49:02 7.3 C 5.77 g/m*3 7.3 C 0 km/h
Sensor: Nr:Datum:Temp:Abs-Feuchte:Windchill:Wind:
Aussen-T/F 551 18-10-2008 21:54:02 7.3 C 5.85 g/m*3 7.3 C 0 km/h
552 18-10-2008 21:59:03 7.3 C 5.85 g/m*3 7.3 C 0 km/h
553 18-10-2008 22:04:01 7.2 C 5.89 g/m*3 7.2 C 0 km/h
554 18-10-2008 22:09:01 7.2 C 5.89 g/m*3 7.2 C 0 km/h
555 18-10-2008 22:14:01 7 C 5.81 g/m*3 7 C 0 km/h
556 18-10-2008 22:20:03 7 C 5.81 g/m*3 7 C 0 km/h
557 18-10-2008 22:25:03 6.9 C 5.93 g/m*3 6.9 C 0 km/h
558 18-10-2008 22:30:03 6.8 C 5.89 g/m*3 6.8 C 0 km/h
559 18-10-2008 22:35:03 6.7 C 5.85 g/m*3 6.7 C 0 km/h
560 18-10-2008 22:40:03 6.6 C 5.81 g/m*3 6.6 C 0 km/h
561 18-10-2008 22:45:03 6.6 C 5.81 g/m*3 6.6 C 0 km/h
562 18-10-2008 22:50:03 6.4 C 5.81 g/m*3 6.4 C 0 km/h
563 18-10-2008 22:55:03 6.3 C 5.77 g/m*3 6.3 C 0 km/h
564 18-10-2008 23:00:03 6.3 C 5.77 g/m*3 6.3 C 0 km/h
565 18-10-2008 23:05:03 6.2 C 5.81 g/m*3 6.2 C 0 km/h
566 18-10-2008 23:10:03 6.2 C 5.88 g/m*3 6.2 C 0 km/h
567 18-10-2008 23:15:03 6.2 C 5.88 g/m*3 6.2 C 0 km/h
568 18-10-2008 23:20:03 6 C 5.88 g/m*3 6 C 0 km/h
569 18-10-2008 23:25:03 6 C 5.81 g/m*3 6 C 0 km/h
570 18-10-2008 23:30:04 5.9 C 5.84 g/m*3 5.9 C 0 km/h
571 18-10-2008 23:35:04 5.8 C 5.8 g/m*3 5.8 C 0 km/h
572 18-10-2008 23:40:04 5.8 C 5.87 g/m*3 5.8 C 0 km/h
573 18-10-2008 23:45:04 5.8 C 5.87 g/m*3 5.8 C 0 km/h
574 18-10-2008 23:50:04 5.8 C 5.95 g/m*3 5.8 C 0 km/h
575 18-10-2008 23:55:04 5.8 C 5.95 g/m*3 5.8 C 0 km/h
Sensor: Nr:Datum:Temp:Abs-Feuchte:Windchill:Wind:
Aussen-T/F 576 19-10-2008 00:00:04 5.8 C 5.95 g/m*3 5.8 C 0 km/h
577 19-10-2008 00:05:04 5.7 C 5.91 g/m*3 5.7 C 0 km/h
578 19-10-2008 00:10:04 5.7 C 5.91 g/m*3 5.7 C 0 km/h
579 19-10-2008 00:15:04 5.7 C 5.98 g/m*3 5.7 C 0 km/h
580 19-10-2008 00:20:04 5.7 C 5.98 g/m*3 5.7 C 0 km/h
581 19-10-2008 00:25:04 5.7 C 5.98 g/m*3 5.7 C 0 km/h
582 19-10-2008 00:30:04 5.6 C 5.94 g/m*3 5.6 C 0 km/h
583 19-10-2008 00:35:04 5.6 C 5.94 g/m*3 5.6 C 0 km/h
584 19-10-2008 00:40:04 5.5 C 5.9 g/m*3 5.5 C 0 km/h
585 19-10-2008 00:45:04 5.5 C 5.9 g/m*3 5.5 C 0 km/h
586 19-10-2008 00:50:04 5.4 C 5.86 g/m*3 5.4 C 0 km/h
587 19-10-2008 00:55:04 5.4 C 5.86 g/m*3 5.4 C 0 km/h
588 19-10-2008 01:00:04 5.4 C 5.93 g/m*3 5.4 C 0 km/h
589 19-10-2008 01:05:05 5.3 C 5.89 g/m*3 5.3 C 0 km/h
590 19-10-2008 01:10:05 5.3 C 5.89 g/m*3 5.3 C 0 km/h
591 19-10-2008 01:15:05 5.2 C 5.85 g/m*3 5.2 C 0 km/h
592 19-10-2008 01:20:05 5 C 5.78 g/m*3 5 C 0 km/h
593 19-10-2008 01:25:05 5 C 5.71 g/m*3 5 C 0 km/h
594 19-10-2008 01:30:05 4.9 C 5.74 g/m*3 4.9 C 0 km/h
595 19-10-2008 01:35:05 4.9 C 5.81 g/m*3 4.9 C 0 km/h
596 19-10-2008 01:40:05 4.8 C 5.83 g/m*3 4.8 C 0 km/h
597 19-10-2008 01:45:05 4.7 C 5.8 g/m*3 4.7 C 0 km/h
598 19-10-2008 01:50:05 4.6 C 5.82 g/m*3 4.6 C 0 km/h
599 19-10-2008 01:55:05 4.5 C 5.78 g/m*3 4.5 C 0 km/h
600 19-10-2008 02:00:05 4.5 C 5.78 g/m*3 4.5 C 0 km/h
Sensor: Nr:Datum:Temp:Abs-Feuchte:Windchill:Wind:
Aussen-T/F 601 19-10-2008 02:05:05 4.5 C 5.85 g/m*3 4.5 C 0 km/h
602 19-10-2008 02:10:05 4.6 C 5.89 g/m*3 4.6 C 0 km/h
603 19-10-2008 02:15:05 4.6 C 5.89 g/m*3 4.6 C 0 km/h
604 19-10-2008 02:20:05 4.6 C 5.89 g/m*3 4.6 C 0 km/h
605 19-10-2008 02:25:05 4.5 C 5.85 g/m*3 4.5 C 0 km/h
606 19-10-2008 02:30:05 4.5 C 5.85 g/m*3 4.5 C 0 km/h
607 19-10-2008 02:35:05 4.6 C 5.89 g/m*3 4.6 C 0 km/h
608 19-10-2008 02:40:05 4.6 C 5.96 g/m*3 4.6 C 0 km/h
609 19-10-2008 02:45:05 4.6 C 5.96 g/m*3 4.6 C 0 km/h
610 19-10-2008 02:50:06 4.6 C 5.96 g/m*3 4.6 C 0 km/h
611 19-10-2008 02:55:06 4.6 C 5.96 g/m*3 4.6 C 0 km/h
612 19-10-2008 03:00:06 4.5 C 5.92 g/m*3 4.5 C 0 km/h
613 19-10-2008 03:05:06 4.5 C 5.92 g/m*3 4.5 C 0 km/h
614 19-10-2008 03:10:06 4.3 C 5.84 g/m*3 4.3 C 0 km/h
615 19-10-2008 03:15:06 4.3 C 5.84 g/m*3 4.3 C 0 km/h
616 19-10-2008 03:20:06 4.4 C 5.88 g/m*3 4.4 C 0 km/h
617 19-10-2008 03:25:06 4.5 C 5.92 g/m*3 4.5 C 0 km/h
618 19-10-2008 03:30:06 4.6 C 6.02 g/m*3 4.6 C 0 km/h
619 19-10-2008 03:35:06 4.6 C 6.02 g/m*3 4.6 C 0 km/h
620 19-10-2008 03:40:06 4.6 C 6.02 g/m*3 4.6 C 0 km/h
621 19-10-2008 03:45:06 4.6 C 6.02 g/m*3 4.6 C 0 km/h
622 19-10-2008 03:50:06 4.6 C 5.96 g/m*3 4.6 C 0 km/h
623 19-10-2008 03:55:06 4.6 C 5.96 g/m*3 4.6 C 0 km/h
624 19-10-2008 04:00:06 4.6 C 5.96 g/m*3 4.6 C 0 km/h
625 19-10-2008 04:05:06 4.6 C 5.96 g/m*3 4.6 C 0 km/h
Sensor: Nr:Datum:Temp:Abs-Feuchte:Windchill:Wind:
Aussen-T/F 626 19-10-2008 04:10:06 4.6 C 5.96 g/m*3 4.6 C 0 km/h
627 19-10-2008 04:15:06 4.5 C 5.92 g/m*3 4.5 C 0 km/h
628 19-10-2008 04:20:06 4.6 C 5.96 g/m*3 4.6 C 0 km/h
629 19-10-2008 04:25:06 4.4 C 5.88 g/m*3 4.4 C 0 km/h
630 19-10-2008 04:30:07 4.3 C 5.84 g/m*3 4.3 C 0 km/h
631 19-10-2008 04:35:07 4.2 C 5.8 g/m*3 4.2 C 0 km/h
632 19-10-2008 04:40:07 4.4 C 5.88 g/m*3 4.4 C 0 km/h
633 19-10-2008 04:45:07 4.6 C 6.02 g/m*3 4.6 C 0 km/h
634 19-10-2008 04:50:07 4.6 C 6.02 g/m*3 4.6 C 0 km/h
635 19-10-2008 04:55:07 4.7 C 6.06 g/m*3 4.7 C 0 km/h
636 19-10-2008 05:00:07 4.8 C 6.1 g/m*3 4.8 C 0 km/h
637 19-10-2008 05:05:07 4.8 C 6.1 g/m*3 4.8 C 0 km/h
638 19-10-2008 05:10:07 4.8 C 6.04 g/m*3 4.8 C 0 km/h
639 19-10-2008 05:15:07 4.8 C 6.04 g/m*3 4.8 C 0 km/h
640 19-10-2008 05:20:07 5 C 6.05 g/m*3 5 C 0 km/h
641 19-10-2008 05:25:07 5 C 6.05 g/m*3 5 C 0 km/h
642 19-10-2008 05:30:07 5 C 5.98 g/m*3 5 C 0 km/h
643 19-10-2008 05:35:07 4.8 C 5.97 g/m*3 4.8 C 0 km/h
644 19-10-2008 05:40:07 4.8 C 5.97 g/m*3 4.8 C 0 km/h
645 19-10-2008 05:45:07 4.7 C 5.93 g/m*3 4.7 C 0 km/h
646 19-10-2008 05:50:07 4.4 C 5.81 g/m*3 4.4 C 0 km/h
647 19-10-2008 05:55:07 4.3 C 5.77 g/m*3 4.3 C 0 km/h
648 19-10-2008 06:00:07 4.2 C 5.73 g/m*3 4.2 C 0 km/h
649 19-10-2008 06:05:07 4.1 C 5.7 g/m*3 4.1 C 0 km/h
650 19-10-2008 06:10:07 4.1 C 5.7 g/m*3 4.1 C 0 km/h
Sensor: Nr:Datum:Temp:Abs-Feuchte:Windchill:Wind:
Aussen-T/F 651 19-10-2008 06:15:08 4 C 5.72 g/m*3 4 C 0 km/h
652 19-10-2008 06:20:08 3.8 C 5.71 g/m*3 3.8 C 0 km/h
653 19-10-2008 06:25:08 3.9 C 5.75 g/m*3 3.9 C 0 km/h
654 19-10-2008 06:30:08 3.8 C 5.71 g/m*3 3.8 C 0 km/h
655 19-10-2008 06:35:08 3.8 C 5.77 g/m*3 3.8 C 0 km/h
656 19-10-2008 06:40:08 3.7 C 5.73 g/m*3 3.7 C 0 km/h
657 19-10-2008 06:45:08 3.6 C 5.69 g/m*3 3.6 C 0 km/h
658 19-10-2008 06:50:08 3.5 C 5.66 g/m*3 3.5 C 0 km/h
659 19-10-2008 06:55:08 3.5 C 5.66 g/m*3 3.5 C 0 km/h
660 19-10-2008 07:00:08 3.4 C 5.62 g/m*3 3.4 C 0 km/h
661 19-10-2008 07:05:08 3.3 C 5.58 g/m*3 3.3 C 0 km/h
662 19-10-2008 07:10:08 3.2 C 5.48 g/m*3 3.2 C 0 km/h
663 19-10-2008 07:15:08 3.2 C 5.54 g/m*3 3.2 C 0 km/h
664 19-10-2008 07:20:08 3.2 C 5.54 g/m*3 3.2 C 0 km/h
665 19-10-2008 07:25:08 3.1 C 5.51 g/m*3 3.1 C 0 km/h
666 19-10-2008 07:30:08 3.1 C 5.51 g/m*3 3.1 C 0 km/h
667 19-10-2008 07:35:08 3.1 C 5.51 g/m*3 3.1 C 0 km/h
668 19-10-2008 07:40:08 3.1 C 5.51 g/m*3 3.1 C 0 km/h
669 19-10-2008 07:45:08 3.1 C 5.51 g/m*3 3.1 C 0 km/h
670 19-10-2008 07:50:08 3.1 C 5.51 g/m*3 3.1 C 0 km/h
671 19-10-2008 07:55:08 3.1 C 5.51 g/m*3 3.1 C 0 km/h
672 19-10-2008 08:00:09 3.1 C 5.51 g/m*3 3.1 C 0 km/h
673 19-10-2008 08:05:09 3.1 C 5.51 g/m*3 3.1 C 0 km/h
674 19-10-2008 08:10:09 3.1 C 5.51 g/m*3 3.1 C 0 km/h
675 19-10-2008 08:15:09 3.1 C 5.51 g/m*3 3.1 C 0 km/h
Sensor: Nr:Datum:Temp:Abs-Feuchte:Windchill:Wind:
Aussen-T/F 676 19-10-2008 08:20:09 3.1 C 5.51 g/m*3 3.1 C 0 km/h
677 19-10-2008 08:25:09 3.1 C 5.51 g/m*3 3.1 C 0 km/h
678 19-10-2008 08:30:09 3.2 C 5.54 g/m*3 3.2 C 0 km/h
679 19-10-2008 08:35:09 3.2 C 5.6 g/m*3 3.2 C 0 km/h
680 19-10-2008 08:40:09 3.2 C 5.6 g/m*3 3.2 C 0 km/h
681 19-10-2008 08:45:09 3.3 C 5.64 g/m*3 3.3 C 0 km/h
682 19-10-2008 08:50:09 3.4 C 5.68 g/m*3 3.4 C 0 km/h
683 19-10-2008 08:55:09 3.4 C 5.68 g/m*3 3.4 C 0 km/h
684 19-10-2008 09:00:09 3.5 C 5.72 g/m*3 3.5 C 0 km/h
685 19-10-2008 09:05:09 3.5 C 5.72 g/m*3 3.5 C 0 km/h
686 19-10-2008 09:10:09 3.6 C 5.76 g/m*3 3.6 C 0 km/h
687 19-10-2008 09:15:09 3.7 C 5.8 g/m*3 3.7 C 0 km/h
688 19-10-2008 09:20:09 3.7 C 5.8 g/m*3 3.7 C 0 km/h
689 19-10-2008 09:25:09 3.9 C 5.87 g/m*3 3.9 C 0 km/h
690 19-10-2008 09:30:09 4 C 5.91 g/m*3 4 C 0 km/h
691 19-10-2008 09:35:03 4.1 C 5.95 g/m*3 4.1 C 0 km/h
692 19-10-2008 09:40:03 4.2 C 5.99 g/m*3 4.2 C 0 km/h
693 19-10-2008 09:45:02 4.3 C 6.03 g/m*3 4.3 C 0 km/h
694 19-10-2008 09:50:02 4.4 C 6.07 g/m*3 4.4 C 0 km/h
695 19-10-2008 09:55:02 4.5 C 6.11 g/m*3 4.5 C 0 km/h
696 19-10-2008 10:00:02 4.5 C 6.11 g/m*3 4.5 C 0 km/h
697 19-10-2008 10:05:02 4.7 C 6.19 g/m*3 4.7 C 0 km/h
698 19-10-2008 10:10:02 4.9 C 6.28 g/m*3 4.9 C 0 km/h
699 19-10-2008 10:15:02 4.9 C 6.28 g/m*3 4.9 C 0 km/h
700 19-10-2008 10:20:02 5 C 6.32 g/m*3 5 C 0 km/h
Sensor: Nr:Datum:Temp:Abs-Feuchte:Windchill:Wind:
Aussen-T/F 701 19-10-2008 10:25:02 5.2 C 6.4 g/m*3 5.2 C 0 km/h
702 19-10-2008 10:30:02 5.4 C 6.49 g/m*3 5.4 C 0 km/h
703 19-10-2008 10:35:03 5.5 C 6.53 g/m*3 5.5 C 0 km/h
704 19-10-2008 10:40:03 5.8 C 6.66 g/m*3 5.8 C 0 km/h
705 19-10-2008 10:45:02 6.2 C 6.84 g/m*3 6.2 C 0 km/h
706 19-10-2008 10:50:02 6.4 C 6.93 g/m*3 6.4 C 0 km/h
707 19-10-2008 10:55:02 6.8 C 7.11 g/m*3 6.8 C 0 km/h
708 19-10-2008 11:00:02 7.3 C 7.35 g/m*3 7.3 C 0 km/h
709 19-10-2008 11:05:02 7.3 C 7.27 g/m*3 7.3 C 0 km/h
710 19-10-2008 11:10:02 7.7 C 7.46 g/m*3 7.7 C 0 km/h
711 19-10-2008 11:15:02 7.9 C 7.47 g/m*3 7.9 C 0 km/h
712 19-10-2008 11:20:02 8 C 7.36 g/m*3 8 C 0 km/h
713 19-10-2008 11:25:02 8.3 C 7.33 g/m*3 8.3 C 0 km/h
714 19-10-2008 11:30:02 8.5 C 7.26 g/m*3 8.5 C 0 km/h
715 19-10-2008 11:35:02 8.8 C 7.14 g/m*3 8.8 C 0 km/h
716 19-10-2008 11:40:02 8.8 C 7.05 g/m*3 8.8 C 0 km/h
717 19-10-2008 11:45:02 9 C 6.88 g/m*3 9 C 0 km/h
718 19-10-2008 11:50:02 9.2 C 6.79 g/m*3 9.2 C 0 km/h
719 19-10-2008 11:55:02 9.2 C 6.7 g/m*3 9.2 C 0 km/h
720 19-10-2008 12:00:02 9.5 C 6.64 g/m*3 9.5 C 0 km/h
721 19-10-2008 12:05:02 9.7 C 6.55 g/m*3 9.7 C 0 km/h
722 19-10-2008 12:10:02 9.8 C 6.59 g/m*3 9.8 C 0 km/h
723 19-10-2008 12:15:02 10 C 6.39 g/m*3 10 C 0 km/h
724 19-10-2008 12:20:02 10.2 C 6.47 g/m*3 10.2 C 0 km/h
725 19-10-2008 12:25:02 10.5 C 6.4 g/m*3 10.5 C 0 km/h
Sensor: Nr:Datum:Temp:Abs-Feuchte:Windchill:Wind:
Aussen-T/F 726 19-10-2008 12:30:02 10.6 C 6.44 g/m*3 10.6 C 0 km/h
727 19-10-2008 12:35:02 10.9 C 6.47 g/m*3 10.9 C 0 km/h
728 19-10-2008 12:40:03 11.2 C 6.39 g/m*3 11.2 C 0 km/h
729 19-10-2008 12:45:02 11.4 C 6.26 g/m*3 11.4 C 0 km/h
730 19-10-2008 12:50:02 11.6 C 6.13 g/m*3 11.6 C 0 km/h
731 19-10-2008 12:55:02 12 C 6.07 g/m*3 12 C 0 km/h
732 19-10-2008 13:00:02 12 C 5.97 g/m*3 12 C 0 km/h
733 19-10-2008 13:05:02 12.2 C 5.94 g/m*3 12.2 C 0 km/h
734 19-10-2008 13:10:02 12.6 C 6.08 g/m*3 12.6 C 0 km/h
735 19-10-2008 13:15:02 12.8 C 6.16 g/m*3 12.8 C 0 km/h
736 19-10-2008 13:20:03 13 C 6.01 g/m*3 13 C 0 km/h
737 19-10-2008 13:25:03 13.2 C 5.86 g/m*3 13.2 C 0 km/h
738 19-10-2008 13:30:03 13.4 C 5.93 g/m*3 13.4 C 0 km/h
739 19-10-2008 13:35:02 13.4 C 5.81 g/m*3 13.4 C 0 km/h
740 19-10-2008 13:40:02 13.5 C 5.85 g/m*3 13.5 C 0 km/h
741 19-10-2008 13:45:02 13.7 C 5.92 g/m*3 13.7 C 0 km/h
742 19-10-2008 13:50:02 13.7 C 5.92 g/m*3 13.7 C 0 km/h
743 19-10-2008 13:55:02 13.8 C 5.96 g/m*3 13.8 C 0 km/h
744 19-10-2008 14:00:02 13.9 C 5.87 g/m*3 13.9 C 0 km/h
745 19-10-2008 14:05:02 13.9 C 5.75 g/m*3 13.9 C 0 km/h
746 19-10-2008 14:10:02 14.1 C 5.7 g/m*3 14.1 C 0 km/h
747 19-10-2008 14:15:02 14.2 C 5.74 g/m*3 14.2 C 0 km/h
748 19-10-2008 14:20:02 14.4 C 5.81 g/m*3 14.4 C 0 km/h
749 19-10-2008 14:25:02 14.3 C 5.77 g/m*3 14.3 C 0 km/h
750 19-10-2008 14:30:02 14.5 C 5.85 g/m*3 14.5 C 0 km/h
Sensor: Nr:Datum:Temp:Abs-Feuchte:Windchill:Wind:
Aussen-T/F 751 19-10-2008 14:35:02 14.5 C 5.72 g/m*3 14.5 C 0 km/h
752 19-10-2008 14:40:02 14.5 C 5.72 g/m*3 14.5 C 0 km/h
753 19-10-2008 14:45:02 14.8 C 5.7 g/m*3 14.8 C 0 km/h
754 19-10-2008 14:50:02 15 C 5.64 g/m*3 15 C 0 km/h
755 19-10-2008 14:55:02 15.1 C 5.55 g/m*3 15.1 C 0 km/h
756 19-10-2008 15:00:02 15.3 C 5.35 g/m*3 15.3 C 0 km/h
757 19-10-2008 15:05:02 15.5 C 5.42 g/m*3 15.5 C 0 km/h
758 19-10-2008 15:10:02 15.4 C 5.39 g/m*3 15.4 C 0 km/h
759 19-10-2008 15:15:02 15.4 C 5.39 g/m*3 15.4 C 0 km/h
760 19-10-2008 15:20:02 15.3 C 5.35 g/m*3 15.3 C 0 km/h
761 19-10-2008 15:25:02 15.2 C 5.32 g/m*3 15.2 C 0 km/h
762 19-10-2008 15:30:02 15.2 C 5.32 g/m*3 15.2 C 0 km/h
763 19-10-2008 15:35:02 15.2 C 5.32 g/m*3 15.2 C 0 km/h
764 19-10-2008 15:40:02 15.3 C 5.35 g/m*3 15.3 C 0 km/h
765 19-10-2008 15:45:02 15.4 C 5.39 g/m*3 15.4 C 0 km/h
766 19-10-2008 15:50:02 15.7 C 5.35 g/m*3 15.7 C 0 km/h
767 19-10-2008 15:55:02 15.9 C 5.28 g/m*3 15.9 C 0 km/h
768 19-10-2008 16:00:02 15.8 C 5.25 g/m*3 15.8 C 0 km/h
769 19-10-2008 16:05:02 16.2 C 5.24 g/m*3 16.2 C 0 km/h
770 19-10-2008 16:10:02 16.3 C 5.13 g/m*3 16.3 C 0 km/h
771 19-10-2008 16:15:02 16.4 C 5.16 g/m*3 16.4 C 0 km/h
772 19-10-2008 16:20:02 16.3 C 5.13 g/m*3 16.3 C 0 km/h
773 19-10-2008 16:25:02 16.3 C 5.27 g/m*3 16.3 C 0 km/h
774 19-10-2008 16:30:02 16.2 C 5.24 g/m*3 16.2 C 0 km/h
775 19-10-2008 16:35:02 16.2 C 5.24 g/m*3 16.2 C 0 km/h
Sensor: Nr:Datum:Temp:Abs-Feuchte:Windchill:Wind:
Aussen-T/F 776 19-10-2008 16:40:02 16.4 C 5.3 g/m*3 16.4 C 0 km/h
777 19-10-2008 16:45:03 16.2 C 5.1 g/m*3 16.2 C 0 km/h
778 19-10-2008 16:50:03 16.1 C 5.21 g/m*3 16.1 C 0 km/h
779 19-10-2008 16:55:03 15.9 C 5.28 g/m*3 15.9 C 0 km/h
780 19-10-2008 17:00:03 15.7 C 5.35 g/m*3 15.7 C 0 km/h
781 19-10-2008 17:05:02 15.6 C 5.45 g/m*3 15.6 C 0 km/h
782 19-10-2008 17:10:02 15.4 C 5.39 g/m*3 15.4 C 0 km/h
783 19-10-2008 17:15:02 15.3 C 5.62 g/m*3 15.3 C 0 km/h
784 19-10-2008 17:20:02 15.2 C 5.71 g/m*3 15.2 C 0 km/h
785 19-10-2008 17:25:03 15.1 C 5.81 g/m*3 15.1 C 0 km/h
786 19-10-2008 17:30:03 14.8 C 5.95 g/m*3 14.8 C 0 km/h
787 19-10-2008 17:35:02 14.5 C 5.85 g/m*3 14.5 C 0 km/h
788 19-10-2008 17:40:02 14.2 C 5.86 g/m*3 14.2 C 0 km/h
789 19-10-2008 17:45:02 13.8 C 5.96 g/m*3 13.8 C 0 km/h
790 19-10-2008 17:50:02 13.5 C 5.97 g/m*3 13.5 C 0 km/h
791 19-10-2008 17:55:02 13.4 C 5.93 g/m*3 13.4 C 0 km/h
792 19-10-2008 18:00:02 13.3 C 6.01 g/m*3 13.3 C 0 km/h
793 19-10-2008 18:05:02 13.1 C 5.93 g/m*3 13.1 C 0 km/h
794 19-10-2008 18:10:02 13 C 5.9 g/m*3 13 C 0 km/h
795 19-10-2008 18:15:02 12.8 C 6.16 g/m*3 12.8 C 0 km/h
796 19-10-2008 18:20:02 12.4 C 6.12 g/m*3 12.4 C 0 km/h
797 19-10-2008 18:25:02 12.1 C 6.11 g/m*3 12.1 C 0 km/h
798 19-10-2008 18:30:02 12 C 6.07 g/m*3 12 C 0 km/h
799 19-10-2008 18:35:03 11.8 C 6.21 g/m*3 11.8 C 0 km/h
800 19-10-2008 18:40:03 11.5 C 6.09 g/m*3 11.5 C 0 km/h
Sensor: Nr:Datum:Temp:Abs-Feuchte:Windchill:Wind:
Aussen-T/F 801 19-10-2008 18:45:02 11.4 C 6.16 g/m*3 11.4 C 0 km/h
802 19-10-2008 18:50:03 11.2 C 6.18 g/m*3 11.2 C 0 km/h
803 19-10-2008 18:55:03 11.1 C 6.14 g/m*3 11.1 C 0 km/h
804 19-10-2008 19:00:03 11 C 6.21 g/m*3 11 C 0 km/h
805 19-10-2008 19:05:02 10.8 C 6.33 g/m*3 10.8 C 0 km/h
806 19-10-2008 19:10:02 10.6 C 6.34 g/m*3 10.6 C 0 km/h
807 19-10-2008 19:15:02 10.4 C 6.36 g/m*3 10.4 C 0 km/h
808 19-10-2008 19:20:02 10.4 C 6.36 g/m*3 10.4 C 0 km/h
809 19-10-2008 19:25:02 10.2 C 6.38 g/m*3 10.2 C 0 km/h
810 19-10-2008 19:30:02 10.1 C 6.43 g/m*3 10.1 C 0 km/h
811 19-10-2008 19:35:02 10.1 C 6.43 g/m*3 10.1 C 0 km/h
812 19-10-2008 19:40:02 10.1 C 6.43 g/m*3 10.1 C 0 km/h
813 19-10-2008 19:45:02 10 C 6.39 g/m*3 10 C 0 km/h
814 19-10-2008 19:50:02 9.9 C 6.44 g/m*3 9.9 C 0 km/h
815 19-10-2008 19:55:02 9.7 C 6.45 g/m*3 9.7 C 0 km/h
816 19-10-2008 20:00:02 9.6 C 6.41 g/m*3 9.6 C 0 km/h
817 19-10-2008 20:05:02 9.6 C 6.5 g/m*3 9.6 C 0 km/h
818 19-10-2008 20:10:02 9.5 C 6.55 g/m*3 9.5 C 0 km/h
819 19-10-2008 20:15:02 9.3 C 6.47 g/m*3 9.3 C 0 km/h
820 19-10-2008 20:20:02 9.3 C 6.56 g/m*3 9.3 C 0 km/h
821 19-10-2008 20:25:02 9.3 C 6.47 g/m*3 9.3 C 0 km/h
822 19-10-2008 20:30:02 9.2 C 6.52 g/m*3 9.2 C 0 km/h
823 19-10-2008 20:35:02 9.1 C 6.48 g/m*3 9.1 C 0 km/h
824 19-10-2008 20:40:02 9 C 6.44 g/m*3 9 C 0 km/h
825 19-10-2008 20:45:02 8.9 C 6.48 g/m*3 8.9 C 0 km/h
Sensor: Nr:Datum:Temp:Abs-Feuchte:Windchill:Wind:
Aussen-T/F 826 19-10-2008 20:50:02 8.8 C 6.44 g/m*3 8.8 C 0 km/h
827 19-10-2008 20:55:02 8.7 C 6.49 g/m*3 8.7 C 0 km/h
828 19-10-2008 21:00:02 8.6 C 6.44 g/m*3 8.6 C 0 km/h
829 19-10-2008 21:05:02 8.5 C 6.4 g/m*3 8.5 C 0 km/h
830 19-10-2008 21:10:02 8.4 C 6.36 g/m*3 8.4 C 0 km/h
831 19-10-2008 21:15:02 8.2 C 6.36 g/m*3 8.2 C 0 km/h
832 19-10-2008 21:20:02 8.1 C 6.32 g/m*3 8.1 C 0 km/h
833 19-10-2008 21:25:02 8.1 C 6.41 g/m*3 8.1 C 0 km/h
834 19-10-2008 21:30:02 8.1 C 6.41 g/m*3 8.1 C 0 km/h
835 19-10-2008 21:35:02 8 C 6.37 g/m*3 8 C 0 km/h
836 19-10-2008 21:40:02 7.9 C 6.41 g/m*3 7.9 C 0 km/h
837 19-10-2008 21:45:02 7.9 C 6.49 g/m*3 7.9 C 0 km/h
838 19-10-2008 21:50:02 7.8 C 6.53 g/m*3 7.8 C 0 km/h
839 19-10-2008 21:55:02 7.6 C 6.44 g/m*3 7.6 C 0 km/h
840 19-10-2008 22:00:02 7.6 C 6.44 g/m*3 7.6 C 0 km/h
841 19-10-2008 22:05:01 7.5 C 6.4 g/m*3 7.5 C 0 km/h
842 19-10-2008 22:10:01 7.3 C 6.32 g/m*3 7.3 C 0 km/h
843 19-10-2008 22:15:02 7.3 C 6.32 g/m*3 7.3 C 0 km/h
844 19-10-2008 22:20:02 7.2 C 6.28 g/m*3 7.2 C 0 km/h
845 19-10-2008 22:25:03 7.1 C 6.24 g/m*3 7.1 C 0 km/h
846 19-10-2008 22:30:03 7.2 C 6.36 g/m*3 7.2 C 0 km/h
847 19-10-2008 22:35:02 7.2 C 6.36 g/m*3 7.2 C 0 km/h
848 19-10-2008 22:40:02 6.9 C 6.31 g/m*3 6.9 C 0 km/h
849 19-10-2008 22:46:02 6.9 C 6.31 g/m*3 6.9 C 0 km/h
850 19-10-2008 22:51:03 6.8 C 6.35 g/m*3 6.8 C 0 km/h
Sensor: Nr:Datum:Temp:Abs-Feuchte:Windchill:Wind:
Aussen-T/F 851 19-10-2008 22:56:03 6.9 C 6.39 g/m*3 6.9 C 0 km/h
852 19-10-2008 23:01:03 6.7 C 6.31 g/m*3 6.7 C 0 km/h
853 19-10-2008 23:06:03 6.7 C 6.31 g/m*3 6.7 C 0 km/h
854 19-10-2008 23:11:03 6.6 C 6.34 g/m*3 6.6 C 0 km/h
855 19-10-2008 23:16:03 6.6 C 6.34 g/m*3 6.6 C 0 km/h
856 19-10-2008 23:21:03 6.5 C 6.3 g/m*3 6.5 C 0 km/h
857 19-10-2008 23:26:03 6.4 C 6.26 g/m*3 6.4 C 0 km/h
858 19-10-2008 23:31:03 6.3 C 6.29 g/m*3 6.3 C 0 km/h
859 19-10-2008 23:36:03 6.2 C 6.25 g/m*3 6.2 C 0 km/h
860 19-10-2008 23:41:03 6.2 C 6.25 g/m*3 6.2 C 0 km/h
861 19-10-2008 23:46:03 6.1 C 6.21 g/m*3 6.1 C 0 km/h
862 19-10-2008 23:51:03 6 C 6.24 g/m*3 6 C 0 km/h
863 19-10-2008 23:56:03 6 C 6.24 g/m*3 6 C 0 km/h
864 20-10-2008 00:01:03 6 C 6.24 g/m*3 6 C 0 km/h
865 20-10-2008 00:06:03 5.9 C 6.27 g/m*3 5.9 C 0 km/h
866 20-10-2008 00:11:03 5.9 C 6.27 g/m*3 5.9 C 0 km/h
867 20-10-2008 00:16:03 5.9 C 6.27 g/m*3 5.9 C 0 km/h
868 20-10-2008 00:21:03 5.9 C 6.27 g/m*3 5.9 C 0 km/h
869 20-10-2008 00:26:04 5.8 C 6.23 g/m*3 5.8 C 0 km/h
870 20-10-2008 00:31:04 5.7 C 6.19 g/m*3 5.7 C 0 km/h
871 20-10-2008 00:36:04 5.6 C 6.15 g/m*3 5.6 C 0 km/h
872 20-10-2008 00:41:04 5.4 C 6.07 g/m*3 5.4 C 0 km/h
873 20-10-2008 00:46:04 5.4 C 6.07 g/m*3 5.4 C 0 km/h
874 20-10-2008 00:51:04 5.4 C 6.07 g/m*3 5.4 C 0 km/h
875 20-10-2008 00:56:04 5.3 C 6.03 g/m*3 5.3 C 0 km/h
Sensor: Nr:Datum:Temp:Abs-Feuchte:Windchill:Wind:
Aussen-T/F 876 20-10-2008 01:01:04 5.2 C 5.99 g/m*3 5.2 C 0 km/h
877 20-10-2008 01:06:04 5.2 C 6.06 g/m*3 5.2 C 0 km/h
878 20-10-2008 01:11:04 5.1 C 6.02 g/m*3 5.1 C 0 km/h
879 20-10-2008 01:16:04 5.1 C 6.02 g/m*3 5.1 C 0 km/h
880 20-10-2008 01:21:04 5.1 C 6.02 g/m*3 5.1 C 0 km/h
881 20-10-2008 01:26:04 5 C 5.98 g/m*3 5 C 0 km/h
882 20-10-2008 01:31:04 5 C 5.98 g/m*3 5 C 0 km/h
883 20-10-2008 01:36:04 4.9 C 6.01 g/m*3 4.9 C 0 km/h
884 20-10-2008 01:41:04 4.8 C 5.97 g/m*3 4.8 C 0 km/h
885 20-10-2008 01:46:04 4.9 C 6.01 g/m*3 4.9 C 0 km/h
886 20-10-2008 01:51:04 4.9 C 6.01 g/m*3 4.9 C 0 km/h
887 20-10-2008 01:56:04 4.9 C 6.01 g/m*3 4.9 C 0 km/h
888 20-10-2008 02:01:05 4.7 C 5.93 g/m*3 4.7 C 0 km/h
889 20-10-2008 02:06:05 4.7 C 5.93 g/m*3 4.7 C 0 km/h
890 20-10-2008 02:11:05 4.6 C 5.89 g/m*3 4.6 C 0 km/h
891 20-10-2008 02:16:05 4.5 C 5.85 g/m*3 4.5 C 0 km/h
892 20-10-2008 02:21:05 4.4 C 5.81 g/m*3 4.4 C 0 km/h
893 20-10-2008 02:26:05 4.3 C 5.77 g/m*3 4.3 C 0 km/h
894 20-10-2008 02:31:05 4.3 C 5.77 g/m*3 4.3 C 0 km/h
895 20-10-2008 02:36:05 4.1 C 5.7 g/m*3 4.1 C 0 km/h
896 20-10-2008 02:41:05 4.1 C 5.7 g/m*3 4.1 C 0 km/h
897 20-10-2008 02:46:05 4.2 C 5.73 g/m*3 4.2 C 0 km/h
898 20-10-2008 02:51:05 4.2 C 5.73 g/m*3 4.2 C 0 km/h
899 20-10-2008 02:56:05 4.2 C 5.73 g/m*3 4.2 C 0 km/h
900 20-10-2008 03:01:05 4 C 5.66 g/m*3 4 C 0 km/h
Sensor: Nr:Datum:Temp:Abs-Feuchte:Windchill:Wind:
Aussen-T/F 901 20-10-2008 03:06:05 4 C 5.66 g/m*3 4 C 0 km/h
902 20-10-2008 03:11:05 4 C 5.66 g/m*3 4 C 0 km/h
903 20-10-2008 03:16:05 4 C 5.72 g/m*3 4 C 0 km/h
904 20-10-2008 03:21:05 4 C 5.72 g/m*3 4 C 0 km/h
905 20-10-2008 03:26:05 3.8 C 5.71 g/m*3 3.8 C 0 km/h
906 20-10-2008 03:31:05 3.8 C 5.71 g/m*3 3.8 C 0 km/h
907 20-10-2008 03:36:06 3.7 C 5.67 g/m*3 3.7 C 0 km/h
908 20-10-2008 03:41:06 3.7 C 5.67 g/m*3 3.7 C 0 km/h
909 20-10-2008 03:46:06 3.7 C 5.67 g/m*3 3.7 C 0 km/h
910 20-10-2008 03:51:06 3.6 C 5.63 g/m*3 3.6 C 0 km/h
911 20-10-2008 03:56:06 3.7 C 5.67 g/m*3 3.7 C 0 km/h
912 20-10-2008 04:01:06 3.7 C 5.67 g/m*3 3.7 C 0 km/h
913 20-10-2008 04:06:06 3.7 C 5.67 g/m*3 3.7 C 0 km/h
914 20-10-2008 04:11:06 3.5 C 5.6 g/m*3 3.5 C 0 km/h
915 20-10-2008 04:16:06 3.4 C 5.56 g/m*3 3.4 C 0 km/h
916 20-10-2008 04:21:06 3.3 C 5.52 g/m*3 3.3 C 0 km/h
917 20-10-2008 04:26:06 3.3 C 5.52 g/m*3 3.3 C 0 km/h
918 20-10-2008 04:31:06 3.2 C 5.48 g/m*3 3.2 C 0 km/h
919 20-10-2008 04:36:06 3.1 C 5.45 g/m*3 3.1 C 0 km/h
920 20-10-2008 04:41:06 3.1 C 5.45 g/m*3 3.1 C 0 km/h
921 20-10-2008 04:46:06 3.2 C 5.48 g/m*3 3.2 C 0 km/h
922 20-10-2008 04:51:06 3.1 C 5.45 g/m*3 3.1 C 0 km/h
923 20-10-2008 04:56:06 3.1 C 5.45 g/m*3 3.1 C 0 km/h
924 20-10-2008 05:01:06 3.1 C 5.45 g/m*3 3.1 C 0 km/h
925 20-10-2008 05:06:06 3 C 5.41 g/m*3 3 C 0 km/h
Sensor: Nr:Datum:Temp:Abs-Feuchte:Windchill:Wind:
Aussen-T/F 926 20-10-2008 05:11:06 3 C 5.41 g/m*3 3 C 0 km/h
927 20-10-2008 05:16:07 3 C 5.41 g/m*3 3 C 0 km/h
928 20-10-2008 05:21:07 3 C 5.41 g/m*3 3 C 0 km/h
929 20-10-2008 05:26:07 3 C 5.41 g/m*3 3 C 0 km/h
930 20-10-2008 05:31:07 3 C 5.41 g/m*3 3 C 0 km/h
931 20-10-2008 05:36:07 2.8 C 5.4 g/m*3 2.8 C 0 km/h
932 20-10-2008 05:41:07 2.8 C 5.4 g/m*3 2.8 C 0 km/h
933 20-10-2008 05:46:07 2.8 C 5.4 g/m*3 2.8 C 0 km/h
934 20-10-2008 05:51:07 2.8 C 5.46 g/m*3 2.8 C 0 km/h
935 20-10-2008 05:56:07 2.7 C 5.42 g/m*3 2.7 C 0 km/h
936 20-10-2008 06:01:07 2.8 C 5.46 g/m*3 2.8 C 0 km/h
937 20-10-2008 06:06:07 2.7 C 5.42 g/m*3 2.7 C 0 km/h
938 20-10-2008 06:11:07 2.7 C 5.42 g/m*3 2.7 C 0 km/h
939 20-10-2008 06:16:07 2.7 C 5.42 g/m*3 2.7 C 0 km/h
940 20-10-2008 06:21:07 2.6 C 5.38 g/m*3 2.6 C 0 km/h
941 20-10-2008 06:26:07 2.7 C 5.42 g/m*3 2.7 C 0 km/h
942 20-10-2008 06:31:07 2.7 C 5.42 g/m*3 2.7 C 0 km/h
943 20-10-2008 06:36:07 2.7 C 5.42 g/m*3 2.7 C 0 km/h
944 20-10-2008 06:41:07 2.6 C 5.38 g/m*3 2.6 C 0 km/h
945 20-10-2008 06:46:07 2.6 C 5.38 g/m*3 2.6 C 0 km/h
946 20-10-2008 06:51:08 2.7 C 5.42 g/m*3 2.7 C 0 km/h
947 20-10-2008 06:56:08 2.7 C 5.42 g/m*3 2.7 C 0 km/h
948 20-10-2008 07:01:02 2.7 C 5.42 g/m*3 2.7 C 0 km/h
949 20-10-2008 07:06:02 2.6 C 5.38 g/m*3 2.6 C 0 km/h
950 20-10-2008 07:11:02 2.6 C 5.38 g/m*3 2.6 C 0 km/h
Sensor: Nr:Datum:Temp:Abs-Feuchte:Windchill:Wind:
Aussen-T/F 951 20-10-2008 07:16:01 2.7 C 5.48 g/m*3 2.7 C 0 km/h
952 20-10-2008 07:21:01 2.7 C 5.48 g/m*3 2.7 C 0 km/h
953 20-10-2008 07:26:01 2.7 C 5.48 g/m*3 2.7 C 0 km/h
954 20-10-2008 07:31:02 2.7 C 5.42 g/m*3 2.7 C 0 km/h
955 20-10-2008 07:36:02 2.7 C 5.42 g/m*3 2.7 C 0 km/h
956 20-10-2008 07:41:02 2.7 C 5.42 g/m*3 2.7 C 0 km/h
957 20-10-2008 07:46:02 2.6 C 5.38 g/m*3 2.6 C 0 km/h
958 20-10-2008 07:51:02 2.6 C 5.38 g/m*3 2.6 C 0 km/h
959 20-10-2008 07:56:02 2.6 C 5.38 g/m*3 2.6 C 0 km/h
960 20-10-2008 08:01:01 2.6 C 5.38 g/m*3 2.6 C 0 km/h
961 20-10-2008 08:06:01 2.7 C 5.42 g/m*3 2.7 C 0 km/h
962 20-10-2008 08:11:01 2.7 C 5.48 g/m*3 2.7 C 0 km/h
963 20-10-2008 08:16:02 2.7 C 5.48 g/m*3 2.7 C 0 km/h
964 20-10-2008 08:21:02 2.6 C 5.38 g/m*3 2.6 C 0 km/h
965 20-10-2008 08:26:02 2.6 C 5.38 g/m*3 2.6 C 0 km/h
966 20-10-2008 08:31:02 2.6 C 5.38 g/m*3 2.6 C 0 km/h
967 20-10-2008 08:36:02 2.6 C 5.38 g/m*3 2.6 C 0 km/h
968 20-10-2008 08:41:02 2.7 C 5.42 g/m*3 2.7 C 0 km/h
969 20-10-2008 08:46:02 2.6 C 5.38 g/m*3 2.6 C 0 km/h
970 20-10-2008 08:51:02 2.6 C 5.38 g/m*3 2.6 C 0 km/h
971 20-10-2008 08:56:02 2.6 C 5.38 g/m*3 2.6 C 0 km/h
972 20-10-2008 09:01:02 2.7 C 5.42 g/m*3 2.7 C 0 km/h
973 20-10-2008 09:06:02 2.7 C 5.42 g/m*3 2.7 C 0 km/h
974 20-10-2008 09:11:02 2.8 C 5.51 g/m*3 2.8 C 0 km/h
975 20-10-2008 09:16:02 2.8 C 5.51 g/m*3 2.8 C 0 km/h
Sensor: Nr:Datum:Temp:Abs-Feuchte:Windchill:Wind:
Aussen-T/F 976 20-10-2008 09:21:02 2.9 C 5.55 g/m*3 2.9 C 0 km/h
977 20-10-2008 09:26:02 3.1 C 5.57 g/m*3 3.1 C 0 km/h
978 20-10-2008 09:31:03 3.3 C 5.64 g/m*3 3.3 C 0 km/h
979 20-10-2008 09:36:03 3.4 C 5.74 g/m*3 3.4 C 0 km/h
980 20-10-2008 09:41:03 3.3 C 5.64 g/m*3 3.3 C 0 km/h
981 20-10-2008 09:46:01 3.2 C 5.6 g/m*3 3.2 C 0 km/h
982 20-10-2008 09:51:01 3.2 C 5.6 g/m*3 3.2 C 0 km/h
983 20-10-2008 09:56:02 3.2 C 5.6 g/m*3 3.2 C 0 km/h
984 20-10-2008 10:01:01 3.3 C 5.64 g/m*3 3.3 C 0 km/h
985 20-10-2008 10:06:01 3.4 C 5.68 g/m*3 3.4 C 0 km/h
986 20-10-2008 10:11:01 3.4 C 5.68 g/m*3 3.4 C 0 km/h
987 20-10-2008 10:16:02 3.4 C 5.68 g/m*3 3.4 C 0 km/h
988 20-10-2008 10:21:02 3.4 C 5.68 g/m*3 3.4 C 0 km/h
989 20-10-2008 10:26:02 3.5 C 5.72 g/m*3 3.5 C 0 km/h
990 20-10-2008 10:31:01 3.6 C 5.76 g/m*3 3.6 C 0 km/h
991 20-10-2008 10:36:01 3.6 C 5.76 g/m*3 3.6 C 0 km/h
992 20-10-2008 10:41:01 3.6 C 5.76 g/m*3 3.6 C 0 km/h
993 20-10-2008 10:46:01 3.8 C 5.83 g/m*3 3.8 C 0 km/h
994 20-10-2008 10:51:01 4 C 5.91 g/m*3 4 C 0 km/h
995 20-10-2008 10:56:01 4.1 C 5.95 g/m*3 4.1 C 0 km/h
996 20-10-2008 11:01:02 4.4 C 6.07 g/m*3 4.4 C 0 km/h
997 20-10-2008 11:06:02 4.7 C 6.26 g/m*3 4.7 C 0 km/h
998 20-10-2008 11:11:02 5.1 C 6.36 g/m*3 5.1 C 0 km/h
999 20-10-2008 11:16:01 5.2 C 6.4 g/m*3 5.2 C 0 km/h
1000 20-10-2008 11:21:01 5.4 C 6.56 g/m*3 5.4 C 0 km/h
Sensor: Nr:Datum:Temp:Abs-Feuchte:Windchill:Wind:
Aussen-T/F 1001 20-10-2008 11:26:01 5.7 C 6.69 g/m*3 5.7 C 0 km/h
1002 20-10-2008 11:31:02 5.8 C 6.73 g/m*3 5.8 C 0 km/h
1003 20-10-2008 11:36:02 6.1 C 6.87 g/m*3 6.1 C 0 km/h
1004 20-10-2008 11:41:02 6.4 C 7 g/m*3 6.4 C 0 km/h
1005 20-10-2008 11:46:03 6.5 C 7.05 g/m*3 6.5 C 0 km/h
1006 20-10-2008 11:51:03 7 C 7.28 g/m*3 7 C 0 km/h
1007 20-10-2008 11:56:03 7.6 C 7.57 g/m*3 7.6 C 0 km/h
1008 20-10-2008 12:01:02 8.2 C 7.87 g/m*3 8.2 C 0 km/h
1009 20-10-2008 12:06:02 8.5 C 8.03 g/m*3 8.5 C 0 km/h
1010 20-10-2008 12:11:02 9 C 8.2 g/m*3 9 C 0 km/h
1011 20-10-2008 12:16:03 9.3 C 8.27 g/m*3 9.3 C 0 km/h
1012 20-10-2008 12:21:03 9.6 C 8.43 g/m*3 9.6 C 0 km/h
1013 20-10-2008 12:26:03 9.7 C 8.39 g/m*3 9.7 C 0 km/h
1014 20-10-2008 12:31:02 10 C 8.36 g/m*3 10 C 0 km/h
1015 20-10-2008 12:36:02 10.3 C 8.33 g/m*3 10.3 C 0 km/h
1016 20-10-2008 12:41:03 10.8 C 8.2 g/m*3 10.8 C 0 km/h
1017 20-10-2008 12:46:02 11.2 C 7.91 g/m*3 11.2 C 0 km/h
1018 20-10-2008 12:51:02 11.4 C 7.8 g/m*3 11.4 C 0 km/h
1019 20-10-2008 12:56:02 11.8 C 7.58 g/m*3 11.8 C 0 km/h
1020 20-10-2008 13:01:01 12.2 C 7.55 g/m*3 12.2 C 0 km/h
1021 20-10-2008 13:06:01 12.7 C 7.46 g/m*3 12.7 C 0 km/h
1022 20-10-2008 13:11:01 12.9 C 7.44 g/m*3 12.9 C 0 km/h
1023 20-10-2008 13:16:02 13.4 C 7.32 g/m*3 13.4 C 0 km/h
1024 20-10-2008 13:21:02 13.6 C 7.41 g/m*3 13.6 C 0 km/h
1025 20-10-2008 13:26:02 13.8 C 7.51 g/m*3 13.8 C 0 km/h
Sensor: Nr:Datum:Temp:Abs-Feuchte:Windchill:Wind:
Aussen-T/F 1026 20-10-2008 13:31:01 14.1 C 7.4 g/m*3 14.1 C 0 km/h
1027 20-10-2008 13:36:01 14.6 C 7.51 g/m*3 14.6 C 0 km/h
1028 20-10-2008 13:41:01 14.8 C 7.47 g/m*3 14.8 C 0 km/h
1029 20-10-2008 13:46:01 15.1 C 7.48 g/m*3 15.1 C 0 km/h
1030 20-10-2008 13:51:01 15.6 C 7.45 g/m*3 15.6 C 0 km/h
1031 20-10-2008 13:56:01 15.8 C 7.67 g/m*3 15.8 C 0 km/h
1032 20-10-2008 14:01:02 16 C 7.49 g/m*3 16 C 0 km/h
1033 20-10-2008 14:06:02 16.4 C 7.54 g/m*3 16.4 C 0 km/h
1034 20-10-2008 14:11:02 16.7 C 7.53 g/m*3 16.7 C 0 km/h
1035 20-10-2008 14:16:02 16.9 C 7.62 g/m*3 16.9 C 0 km/h
1036 20-10-2008 14:21:02 17.3 C 7.51 g/m*3 17.3 C 0 km/h
1037 20-10-2008 14:26:02 17.7 C 7.85 g/m*3 17.7 C 0 km/h
1038 20-10-2008 14:31:02 17.9 C 7.94 g/m*3 17.9 C 0 km/h
1039 20-10-2008 14:36:02 18.2 C 7.62 g/m*3 18.2 C 0 km/h
1040 20-10-2008 14:41:02 18.5 C 7.91 g/m*3 18.5 C 0 km/h
1041 20-10-2008 14:46:02 18.7 C 7.68 g/m*3 18.7 C 0 km/h
1042 20-10-2008 14:51:02 18.9 C 7.61 g/m*3 18.9 C 0 km/h
1043 20-10-2008 14:56:02 19.1 C 7.7 g/m*3 19.1 C 0 km/h
1044 20-10-2008 15:01:01 19.3 C 7.63 g/m*3 19.3 C 0 km/h
1045 20-10-2008 15:06:01 19.4 C 7.67 g/m*3 19.4 C 0 km/h
1046 20-10-2008 15:11:01 19.6 C 7.6 g/m*3 19.6 C 0 km/h
1047 20-10-2008 15:16:01 19.7 C 7.64 g/m*3 19.7 C 0 km/h
1048 20-10-2008 15:21:01 19.6 C 7.43 g/m*3 19.6 C 0 km/h
1049 20-10-2008 15:26:01 19.7 C 7.47 g/m*3 19.7 C 0 km/h
1050 20-10-2008 15:31:01 19.9 C 7.56 g/m*3 19.9 C 0 km/h
Sensor: Nr:Datum:Temp:Abs-Feuchte:Windchill:Wind:
Aussen-T/F 1051 20-10-2008 15:36:01 19.8 C 7.34 g/m*3 19.8 C 0 km/h
1052 20-10-2008 15:41:02 19.8 C 7.52 g/m*3 19.8 C 0 km/h
1053 20-10-2008 15:46:02 19.8 C 7.52 g/m*3 19.8 C 0 km/h
1054 20-10-2008 15:51:02 20 C 7.43 g/m*3 20 C 0 km/h
1055 20-10-2008 15:56:02 20 C 7.43 g/m*3 20 C 0 km/h
1056 20-10-2008 16:01:02 20.1 C 7.47 g/m*3 20.1 C 0 km/h
1057 20-10-2008 16:06:02 20.3 C 7.56 g/m*3 20.3 C 0 km/h
1058 20-10-2008 16:11:02 20.3 C 7.56 g/m*3 20.3 C 0 km/h
1059 20-10-2008 16:16:02 20.2 C 7.52 g/m*3 20.2 C 0 km/h
1060 20-10-2008 16:21:03 20.2 C 7.52 g/m*3 20.2 C 0 km/h
1061 20-10-2008 16:26:03 20.3 C 7.56 g/m*3 20.3 C 0 km/h
1062 20-10-2008 16:31:01 20.3 C 7.56 g/m*3 20.3 C 0 km/h
1063 20-10-2008 16:36:01 20.2 C 7.52 g/m*3 20.2 C 0 km/h
1064 20-10-2008 16:41:01 20.2 C 7.52 g/m*3 20.2 C 0 km/h
1065 20-10-2008 16:46:01 20.3 C 7.74 g/m*3 20.3 C 0 km/h
1066 20-10-2008 16:51:01 20.5 C 8.01 g/m*3 20.5 C 0 km/h
1067 20-10-2008 16:56:01 20.4 C 7.78 g/m*3 20.4 C 0 km/h
1068 20-10-2008 17:01:02 20.4 C 7.61 g/m*3 20.4 C 0 km/h
1069 20-10-2008 17:06:03 20.2 C 7.52 g/m*3 20.2 C 0 km/h
1070 20-10-2008 17:11:03 20.2 C 7.52 g/m*3 20.2 C 0 km/h
1071 20-10-2008 17:16:01 20.1 C 7.47 g/m*3 20.1 C 0 km/h
1072 20-10-2008 17:21:01 20.1 C 7.65 g/m*3 20.1 C 0 km/h
1073 20-10-2008 17:26:01 20.2 C 7.87 g/m*3 20.2 C 0 km/h
1074 20-10-2008 17:31:02 20.2 C 7.69 g/m*3 20.2 C 0 km/h
1075 20-10-2008 17:36:02 20.2 C 7.87 g/m*3 20.2 C 0 km/h
Sensor: Nr:Datum:Temp:Abs-Feuchte:Windchill:Wind:
Aussen-T/F 1076 20-10-2008 17:41:02 20 C 7.6 g/m*3 20 C 0 km/h
1077 20-10-2008 17:46:02 19.9 C 7.73 g/m*3 19.9 C 0 km/h
1078 20-10-2008 17:51:02 19.7 C 7.81 g/m*3 19.7 C 0 km/h
1079 20-10-2008 17:56:02 19.3 C 7.63 g/m*3 19.3 C 0 km/h
1080 20-10-2008 18:01:02 18.9 C 7.78 g/m*3 18.9 C 0 km/h
1081 20-10-2008 18:06:02 18.6 C 7.8 g/m*3 18.6 C 0 km/h
1082 20-10-2008 18:11:02 18.2 C 7.77 g/m*3 18.2 C 0 km/h
1083 20-10-2008 18:16:02 17.8 C 7.89 g/m*3 17.8 C 0 km/h
1084 20-10-2008 18:21:02 17.6 C 7.95 g/m*3 17.6 C 0 km/h
1085 20-10-2008 18:26:02 17.2 C 8.05 g/m*3 17.2 C 0 km/h
1086 20-10-2008 18:31:02 17 C 8.1 g/m*3 17 C 0 km/h
1087 20-10-2008 18:36:02 16.9 C 8.34 g/m*3 16.9 C 0 km/h
1088 20-10-2008 18:41:02 16.7 C 8.38 g/m*3 16.7 C 0 km/h
1089 20-10-2008 18:46:02 16.6 C 8.33 g/m*3 16.6 C 0 km/h
1090 20-10-2008 18:51:02 16.5 C 8.43 g/m*3 16.5 C 0 km/h
1091 20-10-2008 18:56:02 16.3 C 8.46 g/m*3 16.3 C 0 km/h
1092 20-10-2008 19:01:02 16.2 C 8.55 g/m*3 16.2 C 0 km/h
1093 20-10-2008 19:06:02 16 C 8.45 g/m*3 16 C 0 km/h
1094 20-10-2008 19:11:02 16 C 8.58 g/m*3 16 C 0 km/h
1095 20-10-2008 19:16:01 15.8 C 8.62 g/m*3 15.8 C 0 km/h
1096 20-10-2008 19:21:01 15.8 C 8.75 g/m*3 15.8 C 0 km/h
1097 20-10-2008 19:26:01 15.7 C 8.7 g/m*3 15.7 C 0 km/h
1098 20-10-2008 19:31:02 15.6 C 8.78 g/m*3 15.6 C 0 km/h
1099 20-10-2008 19:36:02 15.5 C 8.86 g/m*3 15.5 C 0 km/h
1100 20-10-2008 19:41:02 15.5 C 8.99 g/m*3 15.5 C 0 km/h
Sensor: Nr:Datum:Temp:Abs-Feuchte:Windchill:Wind:
Aussen-T/F 1101 20-10-2008 19:46:03 15.6 C 9.04 g/m*3 15.6 C 0 km/h
1102 20-10-2008 19:51:03 15.7 C 9.1 g/m*3 15.7 C 0 km/h
1103 20-10-2008 19:56:03 15.8 C 9.15 g/m*3 15.8 C 0 km/h
1104 20-10-2008 20:01:02 15.8 C 9.15 g/m*3 15.8 C 0 km/h
1105 20-10-2008 20:06:02 15.8 C 9.15 g/m*3 15.8 C 0 km/h
1106 20-10-2008 20:11:02 15.8 C 9.15 g/m*3 15.8 C 0 km/h
1107 20-10-2008 20:16:03 15.8 C 9.15 g/m*3 15.8 C 0 km/h
1108 20-10-2008 20:21:03 15.5 C 8.99 g/m*3 15.5 C 0 km/h
1109 20-10-2008 20:26:03 15.2 C 8.96 g/m*3 15.2 C 0 km/h
1110 20-10-2008 20:31:02 15.2 C 9.09 g/m*3 15.2 C 0 km/h
1111 20-10-2008 20:36:02 15 C 8.98 g/m*3 15 C 0 km/h
1112 20-10-2008 20:41:02 14.9 C 9.18 g/m*3 14.9 C 0 km/h
1113 20-10-2008 20:46:02 14.8 C 9.12 g/m*3 14.8 C 0 km/h
1114 20-10-2008 20:51:02 14.7 C 9.19 g/m*3 14.7 C 0 km/h
1115 20-10-2008 20:56:02 14.6 C 9.26 g/m*3 14.6 C 0 km/h
1116 20-10-2008 21:01:02 14.6 C 9.39 g/m*3 14.6 C 0 km/h
1117 20-10-2008 21:06:02 14.5 C 9.33 g/m*3 14.5 C 0 km/h
1118 20-10-2008 21:11:02 14.4 C 9.27 g/m*3 14.4 C 0 km/h
1119 20-10-2008 21:16:02 14.4 C 9.39 g/m*3 14.4 C 0 km/h
1120 20-10-2008 21:21:02 14.4 C 9.39 g/m*3 14.4 C 0 km/h
1121 20-10-2008 21:26:02 14.4 C 9.39 g/m*3 14.4 C 0 km/h
1122 20-10-2008 21:31:01 14.2 C 9.4 g/m*3 14.2 C 0 km/h
1123 20-10-2008 21:36:01 14.2 C 9.4 g/m*3 14.2 C 0 km/h
1124 20-10-2008 21:41:01 14 C 9.29 g/m*3 14 C 0 km/h
1125 20-10-2008 21:47:02 13.8 C 9.29 g/m*3 13.8 C 0 km/h
Sensor: Nr:Datum:Temp:Abs-Feuchte:Windchill:Wind:
Aussen-T/F 1126 20-10-2008 21:52:02 13.7 C 9.24 g/m*3 13.7 C 0 km/h
1127 20-10-2008 21:57:02 13.7 C 9.35 g/m*3 13.7 C 0 km/h
1128 20-10-2008 22:02:02 13.6 C 9.3 g/m*3 13.6 C 0 km/h
1129 20-10-2008 22:07:03 13.4 C 9.18 g/m*3 13.4 C 0 km/h
1130 20-10-2008 22:12:03 13.4 C 9.3 g/m*3 13.4 C 0 km/h
1131 20-10-2008 22:17:03 13.3 C 9.24 g/m*3 13.3 C 0 km/h
1132 20-10-2008 22:22:03 13.3 C 9.36 g/m*3 13.3 C 0 km/h
1133 20-10-2008 22:27:03 13.3 C 9.36 g/m*3 13.3 C 0 km/h
1134 20-10-2008 22:32:03 13.3 C 9.36 g/m*3 13.3 C 0 km/h
1135 20-10-2008 22:37:03 13.2 C 9.3 g/m*3 13.2 C 0 km/h
1136 20-10-2008 22:42:03 13.2 C 9.3 g/m*3 13.2 C 0 km/h
1137 20-10-2008 22:47:03 13.1 C 9.36 g/m*3 13.1 C 0 km/h
1138 20-10-2008 22:52:03 13.1 C 9.36 g/m*3 13.1 C 0 km/h
1139 20-10-2008 22:57:03 13 C 9.3 g/m*3 13 C 0 km/h
1140 20-10-2008 23:02:03 13 C 9.3 g/m*3 13 C 0 km/h
1141 20-10-2008 23:07:03 12.9 C 9.35 g/m*3 12.9 C 0 km/h
1142 20-10-2008 23:12:03 13 C 9.41 g/m*3 13 C 0 km/h
1143 20-10-2008 23:17:03 13 C 9.41 g/m*3 13 C 0 km/h
1144 20-10-2008 23:22:03 12.9 C 9.47 g/m*3 12.9 C 0 km/h
1145 20-10-2008 23:27:03 12.8 C 9.41 g/m*3 12.8 C 0 km/h
1146 20-10-2008 23:32:03 12.9 C 9.47 g/m*3 12.9 C 0 km/h
1147 20-10-2008 23:37:03 12.8 C 9.52 g/m*3 12.8 C 0 km/h
1148 20-10-2008 23:42:04 12.9 C 9.58 g/m*3 12.9 C 0 km/h
1149 20-10-2008 23:47:04 12.9 C 9.58 g/m*3 12.9 C 0 km/h
1150 20-10-2008 23:52:04 13 C 9.64 g/m*3 13 C 0 km/h
Sensor: Nr:Datum:Temp:Abs-Feuchte:Windchill:Wind:
Aussen-T/F 1151 20-10-2008 23:57:04 13 C 9.64 g/m*3 13 C 0 km/h
1152 21-10-2008 00:02:04 12.9 C 9.69 g/m*3 12.9 C 0 km/h
1153 21-10-2008 00:07:04 12.9 C 9.81 g/m*3 12.9 C 0 km/h
1154 21-10-2008 00:12:04 13 C 9.75 g/m*3 13 C 0 km/h
1155 21-10-2008 00:17:04 13.1 C 9.81 g/m*3 13.1 C 0 km/h
1156 21-10-2008 00:22:04 13.3 C 9.94 g/m*3 13.3 C 0 km/h
1157 21-10-2008 00:27:04 13.8 C 10.37 g/m*3 13.8 C 0 km/h
1158 21-10-2008 00:32:04 14 C 10.37 g/m*3 14 C 0 km/h
1159 21-10-2008 00:37:04 14.2 C 10.38 g/m*3 14.2 C 0 km/h
1160 21-10-2008 00:42:04 14.6 C 10.51 g/m*3 14.6 C 0 km/h
1161 21-10-2008 00:47:04 15.1 C 10.45 g/m*3 15.1 C 0 km/h
1162 21-10-2008 00:52:04 15.1 C 10.06 g/m*3 15.1 C 0 km/h
1163 21-10-2008 00:57:04 15.1 C 10.06 g/m*3 15.1 C 0 km/h
1164 21-10-2008 01:02:04 15 C 10 g/m*3 15 C 0 km/h
1165 21-10-2008 01:07:04 14.7 C 9.95 g/m*3 14.7 C 0 km/h
1166 21-10-2008 01:12:04 14.7 C 9.95 g/m*3 14.7 C 0 km/h
1167 21-10-2008 01:17:05 14.4 C 9.89 g/m*3 14.4 C 0 km/h
1168 21-10-2008 01:22:05 14.4 C 9.89 g/m*3 14.4 C 0 km/h
1169 21-10-2008 01:27:05 14.1 C 9.71 g/m*3 14.1 C 0 km/h
1170 21-10-2008 01:32:05 13.8 C 9.65 g/m*3 13.8 C 0 km/h
1171 21-10-2008 01:37:05 13.6 C 9.65 g/m*3 13.6 C 0 km/h
1172 21-10-2008 01:42:05 13.6 C 9.65 g/m*3 13.6 C 0 km/h
1173 21-10-2008 01:47:05 13.4 C 9.65 g/m*3 13.4 C 0 km/h
1174 21-10-2008 01:52:05 13.3 C 9.59 g/m*3 13.3 C 0 km/h
1175 21-10-2008 01:57:05 13.2 C 9.64 g/m*3 13.2 C 0 km/h
Sensor: Nr:Datum:Temp:Abs-Feuchte:Windchill:Wind:
Aussen-T/F 1176 21-10-2008 02:02:05 13.1 C 9.59 g/m*3 13.1 C 0 km/h
1177 21-10-2008 02:07:05 13.1 C 9.59 g/m*3 13.1 C 0 km/h
1178 21-10-2008 02:12:05 13.1 C 9.59 g/m*3 13.1 C 0 km/h
1179 21-10-2008 02:17:05 13.1 C 9.7 g/m*3 13.1 C 0 km/h
1180 21-10-2008 02:22:05 13.1 C 9.7 g/m*3 13.1 C 0 km/h
1181 21-10-2008 02:27:05 13.2 C 9.87 g/m*3 13.2 C 0 km/h
1182 21-10-2008 02:32:05 13.2 C 9.87 g/m*3 13.2 C 0 km/h
1183 21-10-2008 02:37:05 13.3 C 10.05 g/m*3 13.3 C 0 km/h
1184 21-10-2008 02:42:05 13.4 C 10.11 g/m*3 13.4 C 0 km/h
1185 21-10-2008 02:47:05 13.4 C 10.11 g/m*3 13.4 C 0 km/h
1186 21-10-2008 02:52:05 13.5 C 10.18 g/m*3 13.5 C 0 km/h
1187 21-10-2008 02:57:06 13.5 C 10.18 g/m*3 13.5 C 0 km/h
1188 21-10-2008 03:02:06 13.2 C 9.87 g/m*3 13.2 C 0 km/h
1189 21-10-2008 03:07:06 13.2 C 9.87 g/m*3 13.2 C 0 km/h
1190 21-10-2008 03:12:06 13.2 C 9.87 g/m*3 13.2 C 0 km/h
1191 21-10-2008 03:17:06 13.2 C 9.87 g/m*3 13.2 C 0 km/h
1192 21-10-2008 03:22:06 13.2 C 9.87 g/m*3 13.2 C 0 km/h
1193 21-10-2008 03:27:06 13.2 C 9.87 g/m*3 13.2 C 0 km/h
1194 21-10-2008 03:32:06 13.1 C 9.81 g/m*3 13.1 C 0 km/h
1195 21-10-2008 03:37:06 13.2 C 9.87 g/m*3 13.2 C 0 km/h
1196 21-10-2008 03:42:06 13.2 C 9.87 g/m*3 13.2 C 0 km/h
1197 21-10-2008 03:47:06 13.6 C 10.24 g/m*3 13.6 C 0 km/h
1198 21-10-2008 03:52:06 13.7 C 10.3 g/m*3 13.7 C 0 km/h
1199 21-10-2008 03:57:06 13.9 C 10.31 g/m*3 13.9 C 0 km/h
1200 21-10-2008 04:02:06 14 C 10.25 g/m*3 14 C 0 km/h
Sensor: Nr:Datum:Temp:Abs-Feuchte:Windchill:Wind:
Aussen-T/F 1201 21-10-2008 04:07:06 13.9 C 10.19 g/m*3 13.9 C 0 km/h
1202 21-10-2008 04:12:06 13.9 C 10.19 g/m*3 13.9 C 0 km/h
1203 21-10-2008 04:17:06 14 C 10.13 g/m*3 14 C 0 km/h
1204 21-10-2008 04:22:06 13.9 C 10.07 g/m*3 13.9 C 0 km/h
1205 21-10-2008 04:27:06 14 C 10.01 g/m*3 14 C 0 km/h
1206 21-10-2008 04:32:07 13.9 C 10.07 g/m*3 13.9 C 0 km/h
1207 21-10-2008 04:37:07 13.8 C 10.01 g/m*3 13.8 C 0 km/h
1208 21-10-2008 04:42:07 13.8 C 10.01 g/m*3 13.8 C 0 km/h
1209 21-10-2008 04:47:07 13.8 C 10.01 g/m*3 13.8 C 0 km/h
1210 21-10-2008 04:52:07 13.9 C 10.07 g/m*3 13.9 C 0 km/h
1211 21-10-2008 04:57:07 13.9 C 10.07 g/m*3 13.9 C 0 km/h
1212 21-10-2008 05:02:07 14.3 C 10.32 g/m*3 14.3 C 0 km/h
1213 21-10-2008 05:07:07 14.2 C 10.26 g/m*3 14.2 C 0 km/h
1214 21-10-2008 05:12:07 14.6 C 10.39 g/m*3 14.6 C 0 km/h
1215 21-10-2008 05:17:07 14.7 C 10.45 g/m*3 14.7 C 0 km/h
1216 21-10-2008 05:22:07 14.8 C 10.51 g/m*3 14.8 C 0 km/h
1217 21-10-2008 05:27:07 15 C 10.51 g/m*3 15 C 0 km/h
1218 21-10-2008 05:32:07 15.1 C 10.32 g/m*3 15.1 C 0 km/h
1219 21-10-2008 05:37:07 15.2 C 10.38 g/m*3 15.2 C 0 km/h
1220 21-10-2008 05:42:07 15.2 C 10.38 g/m*3 15.2 C 0 km/h
1221 21-10-2008 05:47:07 15.4 C 10.38 g/m*3 15.4 C 0 km/h
1222 21-10-2008 05:52:07 15.6 C 10.51 g/m*3 15.6 C 0 km/h
1223 21-10-2008 05:57:07 15.6 C 10.37 g/m*3 15.6 C 0 km/h
1224 21-10-2008 06:02:07 15.7 C 10.44 g/m*3 15.7 C 0 km/h
1225 21-10-2008 06:07:08 15.9 C 10.43 g/m*3 15.9 C 0 km/h
Sensor: Nr:Datum:Temp:Abs-Feuchte:Windchill:Wind:
Aussen-T/F 1226 21-10-2008 06:12:08 16 C 10.22 g/m*3 16 C 0 km/h
1227 21-10-2008 06:17:08 16.1 C 10.14 g/m*3 16.1 C 0 km/h
1228 21-10-2008 06:22:08 16.2 C 10.07 g/m*3 16.2 C 0 km/h
1229 21-10-2008 06:27:08 16.3 C 10.13 g/m*3 16.3 C 0 km/h
1230 21-10-2008 06:32:03 16.4 C 10.05 g/m*3 16.4 C 0 km/h
1231 21-10-2008 06:37:03 16.5 C 10.11 g/m*3 16.5 C 0 km/h
1232 21-10-2008 06:42:03 16.5 C 10.11 g/m*3 16.5 C 0 km/h
1233 21-10-2008 06:47:02 16.7 C 10.09 g/m*3 16.7 C 0 km/h
1234 21-10-2008 06:52:02 16.6 C 10.03 g/m*3 16.6 C 0 km/h
1235 21-10-2008 06:57:02 16.6 C 10.03 g/m*3 16.6 C 0 km/h
1236 21-10-2008 07:02:02 16.6 C 10.03 g/m*3 16.6 C 0 km/h
1237 21-10-2008 07:07:02 16.6 C 10.03 g/m*3 16.6 C 0 km/h
1238 21-10-2008 07:12:02 16.5 C 9.97 g/m*3 16.5 C 0 km/h
1239 21-10-2008 07:17:02 16.5 C 9.97 g/m*3 16.5 C 0 km/h
1240 21-10-2008 07:22:02 16.5 C 9.97 g/m*3 16.5 C 0 km/h
1241 21-10-2008 07:27:02 16.4 C 9.91 g/m*3 16.4 C 0 km/h
1242 21-10-2008 07:32:02 16.4 C 9.91 g/m*3 16.4 C 0 km/h
1243 21-10-2008 07:37:02 16.4 C 10.05 g/m*3 16.4 C 0 km/h
1244 21-10-2008 07:42:03 16.6 C 10.03 g/m*3 16.6 C 0 km/h
1245 21-10-2008 07:47:01 16.9 C 9.92 g/m*3 16.9 C 0 km/h
1246 21-10-2008 07:52:01 17 C 9.84 g/m*3 17 C 0 km/h
1247 21-10-2008 07:57:01 16.9 C 9.92 g/m*3 16.9 C 0 km/h
1248 21-10-2008 08:02:01 16.9 C 9.92 g/m*3 16.9 C 0 km/h
1249 21-10-2008 08:07:01 16.9 C 9.92 g/m*3 16.9 C 0 km/h
1250 21-10-2008 08:12:01 16.9 C 9.78 g/m*3 16.9 C 0 km/h
Sensor: Nr:Datum:Temp:Abs-Feuchte:Windchill:Wind:
Aussen-T/F 1251 21-10-2008 08:17:02 16.9 C 9.64 g/m*3 16.9 C 0 km/h
1252 21-10-2008 08:22:03 17.2 C 9.67 g/m*3 17.2 C 0 km/h
1253 21-10-2008 08:27:03 17.1 C 9.46 g/m*3 17.1 C 0 km/h
1254 21-10-2008 08:32:01 17.2 C 9.37 g/m*3 17.2 C 0 km/h
1255 21-10-2008 08:37:01 17.1 C 9.32 g/m*3 17.1 C 0 km/h
1256 21-10-2008 08:42:01 17.1 C 9.17 g/m*3 17.1 C 0 km/h
1257 21-10-2008 08:47:01 17.1 C 9.17 g/m*3 17.1 C 0 km/h
1258 21-10-2008 08:52:01 17.1 C 9.17 g/m*3 17.1 C 0 km/h
1259 21-10-2008 08:57:01 17.1 C 9.17 g/m*3 17.1 C 0 km/h
1260 21-10-2008 09:02:02 17.2 C 9.08 g/m*3 17.2 C 0 km/h
1261 21-10-2008 09:07:03 17.1 C 9.03 g/m*3 17.1 C 0 km/h
1262 21-10-2008 09:12:03 17.2 C 9.08 g/m*3 17.2 C 0 km/h
1263 21-10-2008 09:17:01 17.1 C 9.03 g/m*3 17.1 C 0 km/h
1264 21-10-2008 09:22:01 17.2 C 9.08 g/m*3 17.2 C 0 km/h
1265 21-10-2008 09:27:01 17.1 C 9.03 g/m*3 17.1 C 0 km/h
1266 21-10-2008 09:32:02 17.2 C 8.93 g/m*3 17.2 C 0 km/h
1267 21-10-2008 09:37:02 17.2 C 8.93 g/m*3 17.2 C 0 km/h
1268 21-10-2008 09:42:02 17.3 C 8.99 g/m*3 17.3 C 0 km/h
1269 21-10-2008 09:47:02 17.3 C 8.84 g/m*3 17.3 C 0 km/h
1270 21-10-2008 09:52:02 17.3 C 8.84 g/m*3 17.3 C 0 km/h
1271 21-10-2008 09:57:02 17.3 C 8.84 g/m*3 17.3 C 0 km/h
1272 21-10-2008 10:02:02 17.3 C 8.84 g/m*3 17.3 C 0 km/h
1273 21-10-2008 10:07:02 17.4 C 8.89 g/m*3 17.4 C 0 km/h
1274 21-10-2008 10:12:02 17.5 C 8.8 g/m*3 17.5 C 0 km/h
1275 21-10-2008 10:17:02 17.5 C 8.8 g/m*3 17.5 C 0 km/h
Sensor: Nr:Datum:Temp:Abs-Feuchte:Windchill:Wind:
Aussen-T/F 1276 21-10-2008 10:22:03 17.5 C 8.8 g/m*3 17.5 C 0 km/h
1277 21-10-2008 10:27:03 17.5 C 8.8 g/m*3 17.5 C 0 km/h
1278 21-10-2008 10:32:01 17.4 C 8.74 g/m*3 17.4 C 0 km/h
1279 21-10-2008 10:37:01 17.5 C 8.65 g/m*3 17.5 C 0 km/h
1280 21-10-2008 10:42:01 17.5 C 8.65 g/m*3 17.5 C 0 km/h
1281 21-10-2008 10:47:01 17.6 C 8.7 g/m*3 17.6 C 0 km/h
1282 21-10-2008 10:52:01 17.6 C 8.7 g/m*3 17.6 C 0 km/h
1283 21-10-2008 10:57:01 17.6 C 8.55 g/m*3 17.6 C 0 km/h
1284 21-10-2008 11:02:02 17.7 C 8.6 g/m*3 17.7 C 0 km/h
1285 21-10-2008 11:07:03 17.7 C 8.6 g/m*3 17.7 C 0 km/h
1286 21-10-2008 11:12:03 17.8 C 8.5 g/m*3 17.8 C 0 km/h
1287 21-10-2008 11:17:01 17.8 C 8.65 g/m*3 17.8 C 0 km/h
1288 21-10-2008 11:22:01 17.9 C 8.7 g/m*3 17.9 C 0 km/h
1289 21-10-2008 11:27:01 18 C 8.6 g/m*3 18 C 0 km/h
1290 21-10-2008 11:32:02 18.1 C 8.34 g/m*3 18.1 C 0 km/h
1291 21-10-2008 11:37:02 18.1 C 8.34 g/m*3 18.1 C 0 km/h
1292 21-10-2008 11:42:02 18.1 C 8.34 g/m*3 18.1 C 0 km/h
1293 21-10-2008 11:47:02 18.1 C 8.34 g/m*3 18.1 C 0 km/h
1294 21-10-2008 11:52:03 18.1 C 8.34 g/m*3 18.1 C 0 km/h
1295 21-10-2008 11:57:03 18.1 C 8.34 g/m*3 18.1 C 0 km/h
1296 21-10-2008 12:02:02 18.3 C 8.44 g/m*3 18.3 C 0 km/h
1297 21-10-2008 12:07:02 18.2 C 8.39 g/m*3 18.2 C 0 km/h
1298 21-10-2008 12:12:02 18.2 C 8.39 g/m*3 18.2 C 0 km/h
1299 21-10-2008 12:17:02 18.1 C 8.5 g/m*3 18.1 C 0 km/h
1300 21-10-2008 12:22:02 17.7 C 8.45 g/m*3 17.7 C 0 km/h
Sensor: Nr:Datum:Temp:Abs-Feuchte:Windchill:Wind:
Aussen-T/F 1301 21-10-2008 12:27:02 16.1 C 7.26 g/m*3 16.1 C 0 km/h
1302 21-10-2008 12:32:02 14.8 C 7.6 g/m*3 14.8 C 0 km/h
1303 21-10-2008 12:37:02 14.1 C 7.65 g/m*3 14.1 C 0 km/h
1304 21-10-2008 12:42:02 13.7 C 7.93 g/m*3 13.7 C 0 km/h
1305 21-10-2008 12:47:02 13.2 C 7.92 g/m*3 13.2 C 0 km/h
1306 21-10-2008 12:52:02 12.6 C 8.19 g/m*3 12.6 C 0 km/h
1307 21-10-2008 12:57:02 12.1 C 8.36 g/m*3 12.1 C 0 km/h
1308 21-10-2008 13:02:02 12.1 C 8.47 g/m*3 12.1 C 0 km/h
1309 21-10-2008 13:07:02 12 C 8.63 g/m*3 12 C 0 km/h
1310 21-10-2008 13:12:02 12 C 8.74 g/m*3 12 C 0 km/h
1311 21-10-2008 13:17:02 12 C 8.74 g/m*3 12 C 0 km/h
1312 21-10-2008 13:22:02 11.8 C 8.74 g/m*3 11.8 C 0 km/h
1313 21-10-2008 13:27:02 11.7 C 8.79 g/m*3 11.7 C 0 km/h
1314 21-10-2008 13:32:03 11.7 C 8.89 g/m*3 11.7 C 0 km/h
1315 21-10-2008 13:37:03 11.6 C 8.94 g/m*3 11.6 C 0 km/h
1316 21-10-2008 13:42:03 11.6 C 8.94 g/m*3 11.6 C 0 km/h
1317 21-10-2008 13:47:02 11.6 C 9.04 g/m*3 11.6 C 0 km/h
1318 21-10-2008 13:52:02 11.7 C 9.2 g/m*3 11.7 C 0 km/h
1319 21-10-2008 13:57:02 11.5 C 9.09 g/m*3 11.5 C 0 km/h
1320 21-10-2008 14:02:02 11.3 C 8.98 g/m*3 11.3 C 0 km/h
1321 21-10-2008 14:07:02 11.4 C 9.03 g/m*3 11.4 C 0 km/h
1322 21-10-2008 14:12:02 11.4 C 9.03 g/m*3 11.4 C 0 km/h
1323 21-10-2008 14:17:01 11.6 C 9.15 g/m*3 11.6 C 0 km/h
1324 21-10-2008 14:22:01 11.6 C 9.15 g/m*3 11.6 C 0 km/h
1325 21-10-2008 14:27:01 11.5 C 9.09 g/m*3 11.5 C 0 km/h
Sensor: Nr:Datum:Temp:Abs-Feuchte:Windchill:Wind:
Aussen-T/F 1326 21-10-2008 14:32:02 11.4 C 9.14 g/m*3 11.4 C 0 km/h
1327 21-10-2008 14:37:02 11.4 C 9.14 g/m*3 11.4 C 0 km/h
1328 21-10-2008 14:42:03 11.4 C 9.14 g/m*3 11.4 C 0 km/h
1329 21-10-2008 14:47:02 11.5 C 9.19 g/m*3 11.5 C 0 km/h
1330 21-10-2008 14:52:02 11.5 C 9.19 g/m*3 11.5 C 0 km/h
1331 21-10-2008 14:57:02 11.5 C 9.19 g/m*3 11.5 C 0 km/h
1332 21-10-2008 15:02:02 11.5 C 9.19 g/m*3 11.5 C 0 km/h
1333 21-10-2008 15:07:02 11.7 C 9.41 g/m*3 11.7 C 0 km/h
1334 21-10-2008 15:12:02 11.7 C 9.41 g/m*3 11.7 C 0 km/h
1335 21-10-2008 15:17:03 11.7 C 9.41 g/m*3 11.7 C 0 km/h
1336 21-10-2008 15:22:03 11.7 C 9.41 g/m*3 11.7 C 0 km/h
1337 21-10-2008 15:27:03 11.7 C 9.31 g/m*3 11.7 C 0 km/h
1338 21-10-2008 15:32:02 11.4 C 9.14 g/m*3 11.4 C 0 km/h
1339 21-10-2008 15:37:02 11.2 C 9.02 g/m*3 11.2 C 0 km/h
1340 21-10-2008 15:42:02 11.3 C 9.08 g/m*3 11.3 C 0 km/h
1341 21-10-2008 15:47:01 11.3 C 9.08 g/m*3 11.3 C 0 km/h
1342 21-10-2008 15:52:01 11.2 C 9.02 g/m*3 11.2 C 0 km/h
1343 21-10-2008 15:57:01 11.2 C 9.02 g/m*3 11.2 C 0 km/h
1344 21-10-2008 16:02:02 11.2 C 9.02 g/m*3 11.2 C 0 km/h
1345 21-10-2008 16:07:02 11.1 C 8.96 g/m*3 11.1 C 0 km/h
1346 21-10-2008 16:12:02 11 C 8.91 g/m*3 11 C 0 km/h
1347 21-10-2008 16:17:01 11.1 C 8.96 g/m*3 11.1 C 0 km/h
1348 21-10-2008 16:22:01 11.3 C 9.18 g/m*3 11.3 C 0 km/h
1349 21-10-2008 16:27:01 11.1 C 9.07 g/m*3 11.1 C 0 km/h
1350 21-10-2008 16:32:02 11 C 9.01 g/m*3 11 C 0 km/h
Sensor: Nr:Datum:Temp:Abs-Feuchte:Windchill:Wind:
Aussen-T/F 1351 21-10-2008 16:37:02 10.9 C 8.95 g/m*3 10.9 C 0 km/h
1352 21-10-2008 16:42:02 10.7 C 8.84 g/m*3 10.7 C 0 km/h
1353 21-10-2008 16:47:02 10.8 C 8.99 g/m*3 10.8 C 0 km/h
1354 21-10-2008 16:52:02 10.9 C 9.05 g/m*3 10.9 C 0 km/h
1355 21-10-2008 16:57:02 10.9 C 9.05 g/m*3 10.9 C 0 km/h
1356 21-10-2008 17:02:02 10.9 C 9.15 g/m*3 10.9 C 0 km/h
1357 21-10-2008 17:07:02 11 C 9.11 g/m*3 11 C 0 km/h
1358 21-10-2008 17:12:02 11.1 C 9.17 g/m*3 11.1 C 0 km/h
1359 21-10-2008 17:17:02 11 C 9.11 g/m*3 11 C 0 km/h
1360 21-10-2008 17:22:02 10.9 C 9.15 g/m*3 10.9 C 0 km/h
1361 21-10-2008 17:27:02 10.9 C 9.15 g/m*3 10.9 C 0 km/h
1362 21-10-2008 17:32:02 11 C 9.11 g/m*3 11 C 0 km/h
1363 21-10-2008 17:37:02 10.9 C 9.15 g/m*3 10.9 C 0 km/h
1364 21-10-2008 17:42:02 10.9 C 9.15 g/m*3 10.9 C 0 km/h
1365 21-10-2008 17:47:02 11 C 9.21 g/m*3 11 C 0 km/h
1366 21-10-2008 17:52:02 10.9 C 9.15 g/m*3 10.9 C 0 km/h
1367 21-10-2008 17:57:02 11 C 9.21 g/m*3 11 C 0 km/h
1368 21-10-2008 18:02:02 10.9 C 9.15 g/m*3 10.9 C 0 km/h
1369 21-10-2008 18:07:02 10.8 C 9.09 g/m*3 10.8 C 0 km/h
1370 21-10-2008 18:12:02 10.6 C 8.98 g/m*3 10.6 C 0 km/h
1371 21-10-2008 18:17:02 10.5 C 8.92 g/m*3 10.5 C 0 km/h
1372 21-10-2008 18:22:02 10.2 C 8.76 g/m*3 10.2 C 0 km/h
1373 21-10-2008 18:27:02 10.2 C 8.76 g/m*3 10.2 C 0 km/h
1374 21-10-2008 18:32:03 10.2 C 8.76 g/m*3 10.2 C 0 km/h
1375 21-10-2008 18:37:03 10.1 C 8.7 g/m*3 10.1 C 0 km/h
Sensor: Nr:Datum:Temp:Abs-Feuchte:Windchill:Wind:
Aussen-T/F 1376 21-10-2008 18:42:03 10.3 C 8.81 g/m*3 10.3 C 0 km/h
1377 21-10-2008 18:47:02 10.3 C 8.81 g/m*3 10.3 C 0 km/h
1378 21-10-2008 18:52:02 10.1 C 8.7 g/m*3 10.1 C 0 km/h
1379 21-10-2008 18:57:02 10 C 8.64 g/m*3 10 C 0 km/h
1380 21-10-2008 19:02:02 10 C 8.64 g/m*3 10 C 0 km/h
1381 21-10-2008 19:07:02 9.9 C 8.78 g/m*3 9.9 C 0 km/h
1382 21-10-2008 19:12:02 9.9 C 8.78 g/m*3 9.9 C 0 km/h
1383 21-10-2008 19:17:02 9.9 C 8.78 g/m*3 9.9 C 0 km/h
1384 21-10-2008 19:22:02 9.9 C 8.78 g/m*3 9.9 C 0 km/h
1385 21-10-2008 19:27:02 9.9 C 8.78 g/m*3 9.9 C 0 km/h
1386 21-10-2008 19:32:02 9.8 C 8.72 g/m*3 9.8 C 0 km/h
1387 21-10-2008 19:37:03 9.9 C 8.78 g/m*3 9.9 C 0 km/h
1388 21-10-2008 19:42:03 9.7 C 8.67 g/m*3 9.7 C 0 km/h
1389 21-10-2008 19:47:01 9.7 C 8.67 g/m*3 9.7 C 0 km/h
1390 21-10-2008 19:52:01 9.6 C 8.61 g/m*3 9.6 C 0 km/h
1391 21-10-2008 19:57:01 9.6 C 8.61 g/m*3 9.6 C 0 km/h
1392 21-10-2008 20:02:01 9.4 C 8.5 g/m*3 9.4 C 0 km/h
1393 21-10-2008 20:07:01 9.4 C 8.5 g/m*3 9.4 C 0 km/h
1394 21-10-2008 20:12:01 9.4 C 8.5 g/m*3 9.4 C 0 km/h
1395 21-10-2008 20:17:02 9.4 C 8.5 g/m*3 9.4 C 0 km/h
1396 21-10-2008 20:22:02 9.5 C 8.56 g/m*3 9.5 C 0 km/h
1397 21-10-2008 20:27:02 9.5 C 8.56 g/m*3 9.5 C 0 km/h
1398 21-10-2008 20:32:01 9.5 C 8.56 g/m*3 9.5 C 0 km/h
1399 21-10-2008 20:37:01 9.5 C 8.56 g/m*3 9.5 C 0 km/h
1400 21-10-2008 20:42:01 9.7 C 8.67 g/m*3 9.7 C 0 km/h
Sensor: Nr:Datum:Temp:Abs-Feuchte:Windchill:Wind:
Aussen-T/F 1401 21-10-2008 20:47:01 9.7 C 8.67 g/m*3 9.7 C 0 km/h
1402 21-10-2008 20:52:01 9.5 C 8.56 g/m*3 9.5 C 0 km/h
1403 21-10-2008 20:57:01 9.7 C 8.67 g/m*3 9.7 C 0 km/h
1404 21-10-2008 21:02:02 9.7 C 8.76 g/m*3 9.7 C 0 km/h
1405 21-10-2008 21:07:03 9.5 C 8.65 g/m*3 9.5 C 0 km/h
1406 21-10-2008 21:12:03 9.7 C 8.76 g/m*3 9.7 C 0 km/h
1407 21-10-2008 21:17:01 9.6 C 8.7 g/m*3 9.6 C 0 km/h
1408 21-10-2008 21:22:01 9.6 C 8.7 g/m*3 9.6 C 0 km/h
1409 21-10-2008 21:27:01 9.6 C 8.7 g/m*3 9.6 C 0 km/h
1410 21-10-2008 21:32:02 9.5 C 8.65 g/m*3 9.5 C 0 km/h
1411 21-10-2008 21:37:02 9.5 C 8.65 g/m*3 9.5 C 0 km/h
1412 21-10-2008 21:42:02 9.3 C 8.54 g/m*3 9.3 C 0 km/h
1413 21-10-2008 21:47:02 9.3 C 8.54 g/m*3 9.3 C 0 km/h
1414 21-10-2008 21:52:02 9.2 C 8.48 g/m*3 9.2 C 0 km/h
1415 21-10-2008 21:57:02 9.1 C 8.43 g/m*3 9.1 C 0 km/h
1416 21-10-2008 22:02:02 9.1 C 8.34 g/m*3 9.1 C 0 km/h
1417 21-10-2008 22:07:02 9.1 C 8.34 g/m*3 9.1 C 0 km/h
1418 21-10-2008 22:12:02 9.1 C 8.34 g/m*3 9.1 C 0 km/h
1419 21-10-2008 22:18:04 9.1 C 8.34 g/m*3 9.1 C 0 km/h
1420 21-10-2008 22:23:04 9.2 C 8.39 g/m*3 9.2 C 0 km/h
1421 21-10-2008 22:28:04 9.2 C 8.39 g/m*3 9.2 C 0 km/h
1422 21-10-2008 22:33:04 9.1 C 8.34 g/m*3 9.1 C 0 km/h
1423 21-10-2008 22:38:04 9 C 8.29 g/m*3 9 C 0 km/h
1424 21-10-2008 22:43:04 9 C 8.29 g/m*3 9 C 0 km/h
1425 21-10-2008 22:48:04 8.9 C 8.32 g/m*3 8.9 C 0 km/h
Sensor: Nr:Datum:Temp:Abs-Feuchte:Windchill:Wind:
Aussen-T/F 1426 21-10-2008 22:53:04 8.8 C 8.27 g/m*3 8.8 C 0 km/h
1427 21-10-2008 22:58:04 8.8 C 8.27 g/m*3 8.8 C 0 km/h
1428 21-10-2008 23:03:04 8.7 C 8.22 g/m*3 8.7 C 0 km/h
1429 21-10-2008 23:08:05 8.7 C 8.22 g/m*3 8.7 C 0 km/h
1430 21-10-2008 23:13:05 8.7 C 8.22 g/m*3 8.7 C 0 km/h
1431 21-10-2008 23:18:05 8.7 C 8.22 g/m*3 8.7 C 0 km/h
1432 21-10-2008 23:23:05 8.7 C 8.22 g/m*3 8.7 C 0 km/h
1433 21-10-2008 23:28:05 8.7 C 8.22 g/m*3 8.7 C 0 km/h
1434 21-10-2008 23:33:05 8.6 C 8.16 g/m*3 8.6 C 0 km/h
1435 21-10-2008 23:38:05 8.7 C 8.22 g/m*3 8.7 C 0 km/h
1436 21-10-2008 23:43:05 8.6 C 8.16 g/m*3 8.6 C 0 km/h
1437 21-10-2008 23:48:05 8.6 C 8.16 g/m*3 8.6 C 0 km/h
1438 21-10-2008 23:53:05 8.7 C 8.22 g/m*3 8.7 C 0 km/h
1439 21-10-2008 23:58:05 8.8 C 8.27 g/m*3 8.8 C 0 km/h
1440 22-10-2008 00:03:05 8.8 C 8.27 g/m*3 8.8 C 0 km/h
1441 22-10-2008 00:08:05 8.7 C 8.22 g/m*3 8.7 C 0 km/h
1442 22-10-2008 00:13:05 8.8 C 8.27 g/m*3 8.8 C 0 km/h
1443 22-10-2008 00:18:05 8.7 C 8.22 g/m*3 8.7 C 0 km/h
1444 22-10-2008 00:23:05 8.7 C 8.22 g/m*3 8.7 C 0 km/h
1445 22-10-2008 00:28:05 8.8 C 8.27 g/m*3 8.8 C 0 km/h
1446 22-10-2008 00:33:05 8.8 C 8.27 g/m*3 8.8 C 0 km/h
1447 22-10-2008 00:38:05 8.8 C 8.27 g/m*3 8.8 C 0 km/h
1448 22-10-2008 00:43:06 8.8 C 8.27 g/m*3 8.8 C 0 km/h
1449 22-10-2008 00:48:06 8.8 C 8.18 g/m*3 8.8 C 0 km/h
1450 22-10-2008 00:53:06 8.8 C 8.27 g/m*3 8.8 C 0 km/h
Sensor: Nr:Datum:Temp:Abs-Feuchte:Windchill:Wind:
Aussen-T/F 1451 22-10-2008 00:58:06 8.8 C 8.18 g/m*3 8.8 C 0 km/h
1452 22-10-2008 01:03:06 8.8 C 8.18 g/m*3 8.8 C 0 km/h
1453 22-10-2008 01:08:06 8.8 C 8.18 g/m*3 8.8 C 0 km/h
1454 22-10-2008 01:13:06 8.8 C 8.18 g/m*3 8.8 C 0 km/h
1455 22-10-2008 01:18:06 8.7 C 8.13 g/m*3 8.7 C 0 km/h
1456 22-10-2008 01:23:06 8.7 C 8.13 g/m*3 8.7 C 0 km/h
1457 22-10-2008 01:28:06 8.7 C 8.13 g/m*3 8.7 C 0 km/h
1458 22-10-2008 01:33:06 8.8 C 8.18 g/m*3 8.8 C 0 km/h
1459 22-10-2008 01:38:06 8.7 C 8.13 g/m*3 8.7 C 0 km/h
1460 22-10-2008 01:43:06 8.7 C 8.13 g/m*3 8.7 C 0 km/h
1461 22-10-2008 01:48:06 8.7 C 8.13 g/m*3 8.7 C 0 km/h
1462 22-10-2008 01:53:06 8.7 C 8.13 g/m*3 8.7 C 0 km/h
1463 22-10-2008 01:58:06 8.7 C 8.13 g/m*3 8.7 C 0 km/h
1464 22-10-2008 02:03:06 8.7 C 8.13 g/m*3 8.7 C 0 km/h
1465 22-10-2008 02:08:06 8.7 C 8.13 g/m*3 8.7 C 0 km/h
1466 22-10-2008 02:13:06 8.7 C 8.13 g/m*3 8.7 C 0 km/h
1467 22-10-2008 02:18:06 8.6 C 8.08 g/m*3 8.6 C 0 km/h
1468 22-10-2008 02:23:07 8.6 C 8.08 g/m*3 8.6 C 0 km/h
1469 22-10-2008 02:28:07 8.6 C 8.08 g/m*3 8.6 C 0 km/h
1470 22-10-2008 02:33:07 8.6 C 8.08 g/m*3 8.6 C 0 km/h
1471 22-10-2008 02:38:07 8.6 C 8.08 g/m*3 8.6 C 0 km/h
1472 22-10-2008 02:43:07 8.6 C 8.16 g/m*3 8.6 C 0 km/h
1473 22-10-2008 02:48:07 8.5 C 8.03 g/m*3 8.5 C 0 km/h
1474 22-10-2008 02:53:07 8.5 C 8.03 g/m*3 8.5 C 0 km/h
1475 22-10-2008 02:58:07 8.5 C 8.03 g/m*3 8.5 C 0 km/h
Sensor: Nr:Datum:Temp:Abs-Feuchte:Windchill:Wind:
Aussen-T/F 1476 22-10-2008 03:03:07 8.5 C 8.03 g/m*3 8.5 C 0 km/h
1477 22-10-2008 03:08:07 8.5 C 8.11 g/m*3 8.5 C 0 km/h
1478 22-10-2008 03:13:07 8.5 C 8.11 g/m*3 8.5 C 0 km/h
1479 22-10-2008 03:18:07 8.5 C 8.11 g/m*3 8.5 C 0 km/h
1480 22-10-2008 03:23:07 8.5 C 8.11 g/m*3 8.5 C 0 km/h
1481 22-10-2008 03:28:07 8.5 C 8.11 g/m*3 8.5 C 0 km/h
1482 22-10-2008 03:33:07 8.5 C 8.11 g/m*3 8.5 C 0 km/h
1483 22-10-2008 03:38:07 8.5 C 8.11 g/m*3 8.5 C 0 km/h
1484 22-10-2008 03:43:07 8.5 C 8.11 g/m*3 8.5 C 0 km/h
1485 22-10-2008 03:48:07 8.5 C 8.11 g/m*3 8.5 C 0 km/h
1486 22-10-2008 03:53:07 8.5 C 8.11 g/m*3 8.5 C 0 km/h
1487 22-10-2008 03:58:08 8.5 C 8.11 g/m*3 8.5 C 0 km/h
1488 22-10-2008 04:03:08 8.5 C 8.11 g/m*3 8.5 C 0 km/h
1489 22-10-2008 04:08:08 8.4 C 8.06 g/m*3 8.4 C 0 km/h
1490 22-10-2008 04:13:08 8.5 C 8.11 g/m*3 8.5 C 0 km/h
1491 22-10-2008 04:18:08 8.4 C 8.06 g/m*3 8.4 C 0 km/h
1492 22-10-2008 04:23:08 8.4 C 8.06 g/m*3 8.4 C 0 km/h
1493 22-10-2008 04:28:08 8.4 C 8.06 g/m*3 8.4 C 0 km/h
1494 22-10-2008 04:33:08 8.4 C 8.06 g/m*3 8.4 C 0 km/h
1495 22-10-2008 04:38:08 8.4 C 8.06 g/m*3 8.4 C 0 km/h
1496 22-10-2008 04:43:08 8.4 C 8.06 g/m*3 8.4 C 0 km/h
1497 22-10-2008 04:48:08 8.4 C 8.06 g/m*3 8.4 C 0 km/h
1498 22-10-2008 04:53:08 8.4 C 8.06 g/m*3 8.4 C 0 km/h
1499 22-10-2008 04:58:08 8.4 C 8.06 g/m*3 8.4 C 0 km/h
1500 22-10-2008 05:03:08 8.3 C 8.01 g/m*3 8.3 C 0 km/h
Sensor: Nr:Datum:Temp:Abs-Feuchte:Windchill:Wind:
Aussen-T/F 1501 22-10-2008 05:08:08 8.3 C 8.01 g/m*3 8.3 C 0 km/h
1502 22-10-2008 05:13:08 8.3 C 8.01 g/m*3 8.3 C 0 km/h
1503 22-10-2008 05:18:08 8.3 C 8.01 g/m*3 8.3 C 0 km/h
1504 22-10-2008 05:23:08 8.3 C 8.01 g/m*3 8.3 C 0 km/h
1505 22-10-2008 05:28:08 8.3 C 8.01 g/m*3 8.3 C 0 km/h
1506 22-10-2008 05:33:08 8.3 C 8.01 g/m*3 8.3 C 0 km/h
1507 22-10-2008 05:38:09 8.2 C 7.96 g/m*3 8.2 C 0 km/h
1508 22-10-2008 05:43:09 8.2 C 7.96 g/m*3 8.2 C 0 km/h
1509 22-10-2008 05:48:09 8.2 C 7.96 g/m*3 8.2 C 0 km/h
1510 22-10-2008 05:53:09 8.2 C 7.96 g/m*3 8.2 C 0 km/h
1511 22-10-2008 05:58:09 8.2 C 7.96 g/m*3 8.2 C 0 km/h
1512 22-10-2008 06:03:09 8.2 C 7.96 g/m*3 8.2 C 0 km/h
1513 22-10-2008 06:08:09 8.1 C 7.9 g/m*3 8.1 C 0 km/h
1514 22-10-2008 06:13:09 8.2 C 7.96 g/m*3 8.2 C 0 km/h
1515 22-10-2008 06:18:09 8.2 C 7.96 g/m*3 8.2 C 0 km/h
1516 22-10-2008 06:23:09 8.2 C 7.96 g/m*3 8.2 C 0 km/h
1517 22-10-2008 06:28:09 8.2 C 7.96 g/m*3 8.2 C 0 km/h
1518 22-10-2008 06:33:09 8.1 C 7.9 g/m*3 8.1 C 0 km/h
1519 22-10-2008 06:38:09 8.1 C 7.9 g/m*3 8.1 C 0 km/h
1520 22-10-2008 06:43:09 8.1 C 7.9 g/m*3 8.1 C 0 km/h
1521 22-10-2008 06:48:02 8.1 C 7.9 g/m*3 8.1 C 0 km/h
1522 22-10-2008 06:53:02 8.1 C 7.9 g/m*3 8.1 C 0 km/h
1523 22-10-2008 06:58:02 8.1 C 7.9 g/m*3 8.1 C 0 km/h
1524 22-10-2008 07:03:02 8.1 C 7.9 g/m*3 8.1 C 0 km/h
1525 22-10-2008 07:08:02 8 C 7.85 g/m*3 8 C 0 km/h
Sensor: Nr:Datum:Temp:Abs-Feuchte:Windchill:Wind:
Aussen-T/F 1526 22-10-2008 07:13:02 8 C 7.85 g/m*3 8 C 0 km/h
1527 22-10-2008 07:18:03 8 C 7.85 g/m*3 8 C 0 km/h
1528 22-10-2008 07:23:03 8 C 7.85 g/m*3 8 C 0 km/h
1529 22-10-2008 07:28:03 8 C 7.85 g/m*3 8 C 0 km/h
1530 22-10-2008 07:33:02 8 C 7.85 g/m*3 8 C 0 km/h
1531 22-10-2008 07:38:02 8 C 7.85 g/m*3 8 C 0 km/h
1532 22-10-2008 07:43:02 8 C 7.85 g/m*3 8 C 0 km/h
1533 22-10-2008 07:48:01 8 C 7.85 g/m*3 8 C 0 km/h
1534 22-10-2008 07:53:01 8 C 7.85 g/m*3 8 C 0 km/h
1535 22-10-2008 07:58:01 8 C 7.85 g/m*3 8 C 0 km/h
1536 22-10-2008 08:03:02 8 C 7.85 g/m*3 8 C 0 km/h
1537 22-10-2008 08:08:02 8 C 7.85 g/m*3 8 C 0 km/h
1538 22-10-2008 08:13:02 8 C 7.85 g/m*3 8 C 0 km/h
1539 22-10-2008 08:18:01 8 C 7.85 g/m*3 8 C 0 km/h
1540 22-10-2008 08:23:01 8 C 7.85 g/m*3 8 C 0 km/h
1541 22-10-2008 08:28:01 8 C 7.85 g/m*3 8 C 0 km/h
1542 22-10-2008 08:33:02 8 C 7.85 g/m*3 8 C 0 km/h
1543 22-10-2008 08:38:02 8.1 C 7.9 g/m*3 8.1 C 0 km/h
1544 22-10-2008 08:43:02 8.1 C 7.9 g/m*3 8.1 C 0 km/h
1545 22-10-2008 08:48:02 8.1 C 7.9 g/m*3 8.1 C 0 km/h
1546 22-10-2008 08:53:02 8.1 C 7.9 g/m*3 8.1 C 0 km/h
1547 22-10-2008 08:58:02 8.1 C 7.9 g/m*3 8.1 C 0 km/h
1548 22-10-2008 09:03:02 8.2 C 7.96 g/m*3 8.2 C 0 km/h
1549 22-10-2008 09:08:02 8.2 C 7.96 g/m*3 8.2 C 0 km/h
1550 22-10-2008 09:13:02 8.2 C 7.96 g/m*3 8.2 C 0 km/h
Sensor: Nr:Datum:Temp:Abs-Feuchte:Windchill:Wind:
Aussen-T/F 1551 22-10-2008 09:18:02 8.3 C 8.01 g/m*3 8.3 C 0 km/h
1552 22-10-2008 09:23:02 8.4 C 8.06 g/m*3 8.4 C 0 km/h
1553 22-10-2008 09:28:02 8.5 C 8.11 g/m*3 8.5 C 0 km/h
1554 22-10-2008 09:33:02 8.5 C 8.11 g/m*3 8.5 C 0 km/h
1555 22-10-2008 09:38:02 8.6 C 8.16 g/m*3 8.6 C 0 km/h
1556 22-10-2008 09:43:02 8.6 C 8.16 g/m*3 8.6 C 0 km/h
1557 22-10-2008 09:48:02 8.7 C 8.22 g/m*3 8.7 C 0 km/h
1558 22-10-2008 09:53:02 8.7 C 8.22 g/m*3 8.7 C 0 km/h
1559 22-10-2008 09:58:02 8.8 C 8.27 g/m*3 8.8 C 0 km/h
1560 22-10-2008 10:03:02 8.7 C 8.22 g/m*3 8.7 C 0 km/h
1561 22-10-2008 10:08:02 8.7 C 8.13 g/m*3 8.7 C 0 km/h
1562 22-10-2008 10:13:02 8.7 C 8.13 g/m*3 8.7 C 0 km/h
1563 22-10-2008 10:18:02 8.7 C 8.13 g/m*3 8.7 C 0 km/h
1564 22-10-2008 10:23:02 8.8 C 8.18 g/m*3 8.8 C 0 km/h
1565 22-10-2008 10:28:02 8.8 C 8.09 g/m*3 8.8 C 0 km/h
1566 22-10-2008 10:33:03 8.8 C 8.09 g/m*3 8.8 C 0 km/h
1567 22-10-2008 10:38:03 8.8 C 8.09 g/m*3 8.8 C 0 km/h
1568 22-10-2008 10:43:03 8.8 C 8.09 g/m*3 8.8 C 0 km/h
1569 22-10-2008 10:48:02 8.8 C 8.01 g/m*3 8.8 C 0 km/h
1570 22-10-2008 10:53:02 8.9 C 8.06 g/m*3 8.9 C 0 km/h
1571 22-10-2008 10:58:02 8.9 C 8.06 g/m*3 8.9 C 0 km/h
1572 22-10-2008 11:03:02 9 C 7.93 g/m*3 9 C 0 km/h
1573 22-10-2008 11:08:02 9.1 C 7.99 g/m*3 9.1 C 0 km/h
1574 22-10-2008 11:13:02 9.2 C 8.04 g/m*3 9.2 C 0 km/h
1575 22-10-2008 11:18:02 9.3 C 8.09 g/m*3 9.3 C 0 km/h
Sensor: Nr:Datum:Temp:Abs-Feuchte:Windchill:Wind:
Aussen-T/F 1576 22-10-2008 11:23:02 9.3 C 8.09 g/m*3 9.3 C 0 km/h
1577 22-10-2008 11:28:02 9.3 C 8 g/m*3 9.3 C 0 km/h
1578 22-10-2008 11:33:02 9.5 C 8.1 g/m*3 9.5 C 0 km/h
1579 22-10-2008 11:38:02 9.7 C 8.2 g/m*3 9.7 C 0 km/h
1580 22-10-2008 11:43:02 9.7 C 8.11 g/m*3 9.7 C 0 km/h
1581 22-10-2008 11:48:02 10 C 8.08 g/m*3 10 C 0 km/h
1582 22-10-2008 11:53:02 10.2 C 8.09 g/m*3 10.2 C 0 km/h
1583 22-10-2008 11:58:02 10.4 C 8.1 g/m*3 10.4 C 0 km/h
1584 22-10-2008 12:03:03 10.5 C 8.05 g/m*3 10.5 C 0 km/h
1585 22-10-2008 12:08:03 10.4 C 7.9 g/m*3 10.4 C 0 km/h
1586 22-10-2008 12:13:03 10.5 C 7.76 g/m*3 10.5 C 0 km/h
1587 22-10-2008 12:18:02 10.5 C 7.66 g/m*3 10.5 C 0 km/h
1588 22-10-2008 12:23:02 10.5 C 7.66 g/m*3 10.5 C 0 km/h
1589 22-10-2008 12:28:03 10.9 C 7.86 g/m*3 10.9 C 0 km/h
1590 22-10-2008 12:33:02 10.9 C 7.66 g/m*3 10.9 C 0 km/h
1591 22-10-2008 12:38:02 11 C 7.61 g/m*3 11 C 0 km/h
1592 22-10-2008 12:43:02 11.1 C 7.66 g/m*3 11.1 C 0 km/h
1593 22-10-2008 12:48:03 11.2 C 7.6 g/m*3 11.2 C 0 km/h
1594 22-10-2008 12:53:03 11.2 C 7.6 g/m*3 11.2 C 0 km/h
1595 22-10-2008 12:58:03 11.3 C 7.45 g/m*3 11.3 C 0 km/h
1596 22-10-2008 13:03:02 11.2 C 7.5 g/m*3 11.2 C 0 km/h
1597 22-10-2008 13:08:02 11.2 C 7.4 g/m*3 11.2 C 0 km/h
1598 22-10-2008 13:13:03 11.4 C 7.6 g/m*3 11.4 C 0 km/h
1599 22-10-2008 13:18:02 11.5 C 7.44 g/m*3 11.5 C 0 km/h
1600 22-10-2008 13:23:02 11.5 C 7.44 g/m*3 11.5 C 0 km/h
Sensor: Nr:Datum:Temp:Abs-Feuchte:Windchill:Wind:
Aussen-T/F 1601 22-10-2008 13:28:02 11.6 C 7.38 g/m*3 11.6 C 0 km/h
1602 22-10-2008 13:33:02 11.7 C 7.32 g/m*3 11.7 C 0 km/h
1603 22-10-2008 13:38:02 12 C 7.35 g/m*3 12 C 0 km/h
1604 22-10-2008 13:43:02 12.2 C 7.34 g/m*3 12.2 C 0 km/h
1605 22-10-2008 13:48:01 12.3 C 7.38 g/m*3 12.3 C 0 km/h
1606 22-10-2008 13:53:01 12.1 C 7.08 g/m*3 12.1 C 0 km/h
1607 22-10-2008 13:58:02 12.1 C 6.97 g/m*3 12.1 C 0 km/h
1608 22-10-2008 14:03:01 12.1 C 6.86 g/m*3 12.1 C 0 km/h
1609 22-10-2008 14:08:01 12.3 C 6.95 g/m*3 12.3 C 0 km/h
1610 22-10-2008 14:13:01 12.4 C 6.99 g/m*3 12.4 C 0 km/h
1611 22-10-2008 14:18:02 12.4 C 6.99 g/m*3 12.4 C 0 km/h
1612 22-10-2008 14:23:02 12.3 C 6.84 g/m*3 12.3 C 0 km/h
1613 22-10-2008 14:28:02 12.2 C 6.58 g/m*3 12.2 C 0 km/h
1614 22-10-2008 14:33:01 12.2 C 6.47 g/m*3 12.2 C 0 km/h
1615 22-10-2008 14:38:01 12.3 C 6.73 g/m*3 12.3 C 0 km/h
1616 22-10-2008 14:43:01 12.4 C 6.77 g/m*3 12.4 C 0 km/h
1617 22-10-2008 14:48:01 12.4 C 6.66 g/m*3 12.4 C 0 km/h
1618 22-10-2008 14:53:01 12.3 C 6.52 g/m*3 12.3 C 0 km/h
1619 22-10-2008 14:58:01 12.4 C 6.66 g/m*3 12.4 C 0 km/h
1620 22-10-2008 15:03:02 12.4 C 6.56 g/m*3 12.4 C 0 km/h
1621 22-10-2008 15:08:02 12.3 C 6.52 g/m*3 12.3 C 0 km/h
1622 22-10-2008 15:13:02 12.2 C 6.47 g/m*3 12.2 C 0 km/h
1623 22-10-2008 15:18:01 12.3 C 6.52 g/m*3 12.3 C 0 km/h
1624 22-10-2008 15:23:01 12.2 C 6.37 g/m*3 12.2 C 0 km/h
1625 22-10-2008 15:28:01 12.3 C 6.41 g/m*3 12.3 C 0 km/h
Sensor: Nr:Datum:Temp:Abs-Feuchte:Windchill:Wind:
Aussen-T/F 1626 22-10-2008 15:33:02 12.2 C 6.47 g/m*3 12.2 C 0 km/h
1627 22-10-2008 15:38:02 12.2 C 6.37 g/m*3 12.2 C 0 km/h
1628 22-10-2008 15:43:02 12.2 C 6.47 g/m*3 12.2 C 0 km/h
1629 22-10-2008 15:48:02 12.2 C 6.47 g/m*3 12.2 C 0 km/h
1630 22-10-2008 15:53:02 12.2 C 6.47 g/m*3 12.2 C 0 km/h
1631 22-10-2008 15:58:02 12.1 C 6.22 g/m*3 12.1 C 0 km/h
1632 22-10-2008 16:03:01 12.1 C 6.11 g/m*3 12.1 C 0 km/h
1633 22-10-2008 16:08:01 12 C 6.07 g/m*3 12 C 0 km/h
1634 22-10-2008 16:13:01 12.1 C 6.11 g/m*3 12.1 C 0 km/h
1635 22-10-2008 16:18:01 11.8 C 6.1 g/m*3 11.8 C 0 km/h
1636 22-10-2008 16:23:01 11.8 C 6.1 g/m*3 11.8 C 0 km/h
1637 22-10-2008 16:28:01 11.7 C 6.07 g/m*3 11.7 C 0 km/h
1638 22-10-2008 16:33:01 11.7 C 6.28 g/m*3 11.7 C 0 km/h
1639 22-10-2008 16:38:01 11.7 C 6.28 g/m*3 11.7 C 0 km/h
1640 22-10-2008 16:43:01 11.7 C 6.28 g/m*3 11.7 C 0 km/h
1641 22-10-2008 16:48:01 11.7 C 6.28 g/m*3 11.7 C 0 km/h
1642 22-10-2008 16:53:01 11.7 C 6.38 g/m*3 11.7 C 0 km/h
1643 22-10-2008 16:58:01 11.7 C 6.38 g/m*3 11.7 C 0 km/h
1644 22-10-2008 17:03:02 11.7 C 6.38 g/m*3 11.7 C 0 km/h
1645 22-10-2008 17:08:02 11.7 C 6.48 g/m*3 11.7 C 0 km/h
1646 22-10-2008 17:13:02 11.6 C 6.34 g/m*3 11.6 C 0 km/h
1647 22-10-2008 17:18:02 11.5 C 6.4 g/m*3 11.5 C 0 km/h
1648 22-10-2008 17:23:02 11.4 C 6.36 g/m*3 11.4 C 0 km/h
1649 22-10-2008 17:28:02 11.3 C 6.32 g/m*3 11.3 C 0 km/h
1650 22-10-2008 17:33:01 11.2 C 6.39 g/m*3 11.2 C 0 km/h
Sensor: Nr:Datum:Temp:Abs-Feuchte:Windchill:Wind:
Aussen-T/F 1651 22-10-2008 17:38:01 11.1 C 6.35 g/m*3 11.1 C 0 km/h
1652 22-10-2008 17:43:01 11.1 C 6.35 g/m*3 11.1 C 0 km/h
1653 22-10-2008 17:48:02 11 C 6.31 g/m*3 11 C 0 km/h
1654 22-10-2008 17:53:02 10.9 C 6.37 g/m*3 10.9 C 0 km/h
1655 22-10-2008 17:58:02 10.8 C 6.42 g/m*3 10.8 C 0 km/h
1656 22-10-2008 18:03:01 10.8 C 6.42 g/m*3 10.8 C 0 km/h
1657 22-10-2008 18:08:01 10.7 C 6.48 g/m*3 10.7 C 0 km/h
1658 22-10-2008 18:13:01 10.6 C 6.54 g/m*3 10.6 C 0 km/h
1659 22-10-2008 18:18:01 10.6 C 6.54 g/m*3 10.6 C 0 km/h
1660 22-10-2008 18:23:01 10.5 C 6.5 g/m*3 10.5 C 0 km/h
1661 22-10-2008 18:28:01 10.4 C 6.55 g/m*3 10.4 C 0 km/h
1662 22-10-2008 18:33:02 10.4 C 6.65 g/m*3 10.4 C 0 km/h
1663 22-10-2008 18:38:02 10.3 C 6.61 g/m*3 10.3 C 0 km/h
1664 22-10-2008 18:43:02 10.2 C 6.57 g/m*3 10.2 C 0 km/h
1665 22-10-2008 18:48:02 10.1 C 6.62 g/m*3 10.1 C 0 km/h
1666 22-10-2008 18:53:02 10.1 C 6.62 g/m*3 10.1 C 0 km/h
1667 22-10-2008 18:58:02 10 C 6.67 g/m*3 10 C 0 km/h
1668 22-10-2008 19:03:01 9.9 C 6.72 g/m*3 9.9 C 0 km/h
1669 22-10-2008 19:08:01 9.9 C 6.72 g/m*3 9.9 C 0 km/h
1670 22-10-2008 19:13:01 9.8 C 6.77 g/m*3 9.8 C 0 km/h
1671 22-10-2008 19:18:02 9.7 C 6.73 g/m*3 9.7 C 0 km/h
1672 22-10-2008 19:23:02 9.7 C 6.73 g/m*3 9.7 C 0 km/h
1673 22-10-2008 19:28:02 9.7 C 6.73 g/m*3 9.7 C 0 km/h
1674 22-10-2008 19:33:02 9.7 C 6.73 g/m*3 9.7 C 0 km/h
1675 22-10-2008 19:38:02 9.6 C 6.69 g/m*3 9.6 C 0 km/h
Sensor: Nr:Datum:Temp:Abs-Feuchte:Windchill:Wind:
Aussen-T/F 1676 22-10-2008 19:43:02 9.6 C 6.69 g/m*3 9.6 C 0 km/h
1677 22-10-2008 19:48:01 9.6 C 6.69 g/m*3 9.6 C 0 km/h
1678 22-10-2008 19:53:01 9.6 C 6.69 g/m*3 9.6 C 0 km/h
1679 22-10-2008 19:58:01 9.6 C 6.69 g/m*3 9.6 C 0 km/h
1680 22-10-2008 20:03:02 9.5 C 6.64 g/m*3 9.5 C 0 km/h
1681 22-10-2008 20:08:02 9.4 C 6.6 g/m*3 9.4 C 0 km/h
1682 22-10-2008 20:13:02 9.3 C 6.65 g/m*3 9.3 C 0 km/h
1683 22-10-2008 20:18:02 9.3 C 6.65 g/m*3 9.3 C 0 km/h
1684 22-10-2008 20:23:02 9.2 C 6.61 g/m*3 9.2 C 0 km/h
1685 22-10-2008 20:28:02 9.1 C 6.65 g/m*3 9.1 C 0 km/h
1686 22-10-2008 20:33:02 9.1 C 6.65 g/m*3 9.1 C 0 km/h
1687 22-10-2008 20:38:02 9 C 6.7 g/m*3 9 C 0 km/h
1688 22-10-2008 20:43:02 9 C 6.79 g/m*3 9 C 0 km/h
1689 22-10-2008 20:48:02 9 C 6.79 g/m*3 9 C 0 km/h
1690 22-10-2008 20:53:02 9 C 6.79 g/m*3 9 C 0 km/h
1691 22-10-2008 20:58:02 9 C 6.79 g/m*3 9 C 0 km/h
1692 22-10-2008 21:03:01 8.9 C 6.83 g/m*3 8.9 C 0 km/h
1693 22-10-2008 21:08:01 8.9 C 6.92 g/m*3 8.9 C 0 km/h
1694 22-10-2008 21:13:01 8.8 C 6.88 g/m*3 8.8 C 0 km/h
1695 22-10-2008 21:18:02 8.7 C 6.83 g/m*3 8.7 C 0 km/h
1696 22-10-2008 21:23:02 8.7 C 6.83 g/m*3 8.7 C 0 km/h
1697 22-10-2008 21:28:02 8.6 C 6.87 g/m*3 8.6 C 0 km/h
1698 22-10-2008 21:33:01 8.4 C 6.79 g/m*3 8.4 C 0 km/h
1699 22-10-2008 21:38:01 8.3 C 6.74 g/m*3 8.3 C 0 km/h
1700 22-10-2008 21:43:01 8.2 C 6.78 g/m*3 8.2 C 0 km/h
Sensor: Nr:Datum:Temp:Abs-Feuchte:Windchill:Wind:
Aussen-T/F 1701 22-10-2008 21:49:03 8 C 6.78 g/m*3 8 C 0 km/h
1702 22-10-2008 21:54:03 8 C 6.78 g/m*3 8 C 0 km/h
1703 22-10-2008 21:59:03 7.9 C 6.9 g/m*3 7.9 C 0 km/h
1704 22-10-2008 22:04:03 7.8 C 6.86 g/m*3 7.8 C 0 km/h
1705 22-10-2008 22:09:03 7.7 C 6.81 g/m*3 7.7 C 0 km/h
1706 22-10-2008 22:14:03 7.7 C 6.81 g/m*3 7.7 C 0 km/h
1707 22-10-2008 22:19:03 7.7 C 6.89 g/m*3 7.7 C 0 km/h
1708 22-10-2008 22:24:03 7.7 C 6.89 g/m*3 7.7 C 0 km/h
1709 22-10-2008 22:29:03 7.7 C 6.97 g/m*3 7.7 C 0 km/h
1710 22-10-2008 22:34:03 7.5 C 6.88 g/m*3 7.5 C 0 km/h
1711 22-10-2008 22:39:03 7.5 C 6.88 g/m*3 7.5 C 0 km/h
1712 22-10-2008 22:44:03 7.5 C 6.88 g/m*3 7.5 C 0 km/h
1713 22-10-2008 22:49:03 7.5 C 6.96 g/m*3 7.5 C 0 km/h
1714 22-10-2008 22:54:03 7.4 C 6.92 g/m*3 7.4 C 0 km/h
1715 22-10-2008 22:59:03 7.4 C 6.92 g/m*3 7.4 C 0 km/h
1716 22-10-2008 23:04:04 7.3 C 6.87 g/m*3 7.3 C 0 km/h
1717 22-10-2008 23:09:04 7.2 C 6.83 g/m*3 7.2 C 0 km/h
1718 22-10-2008 23:14:04 7.2 C 6.91 g/m*3 7.2 C 0 km/h
1719 22-10-2008 23:19:04 7.2 C 6.91 g/m*3 7.2 C 0 km/h
1720 22-10-2008 23:24:04 7.1 C 6.86 g/m*3 7.1 C 0 km/h
1721 22-10-2008 23:29:04 7 C 6.82 g/m*3 7 C 0 km/h
1722 22-10-2008 23:34:04 6.9 C 6.85 g/m*3 6.9 C 0 km/h
1723 22-10-2008 23:39:04 6.8 C 6.81 g/m*3 6.8 C 0 km/h
1724 22-10-2008 23:44:04 6.8 C 6.81 g/m*3 6.8 C 0 km/h
1725 22-10-2008 23:49:04 6.8 C 6.88 g/m*3 6.8 C 0 km/h
Sensor: Nr:Datum:Temp:Abs-Feuchte:Windchill:Wind:
Aussen-T/F 1726 22-10-2008 23:54:04 6.8 C 6.88 g/m*3 6.8 C 0 km/h
1727 22-10-2008 23:59:04 6.8 C 6.96 g/m*3 6.8 C 0 km/h
1728 23-10-2008 00:04:04 6.6 C 6.87 g/m*3 6.6 C 0 km/h
1729 23-10-2008 00:09:04 6.6 C 6.87 g/m*3 6.6 C 0 km/h
1730 23-10-2008 00:14:04 6.6 C 6.87 g/m*3 6.6 C 0 km/h
1731 23-10-2008 00:19:04 6.5 C 6.82 g/m*3 6.5 C 0 km/h
1732 23-10-2008 00:24:04 6.5 C 6.9 g/m*3 6.5 C 0 km/h
1733 23-10-2008 00:29:04 6.3 C 6.81 g/m*3 6.3 C 0 km/h
1734 23-10-2008 00:34:04 6.3 C 6.81 g/m*3 6.3 C 0 km/h
1735 23-10-2008 00:39:04 6.3 C 6.81 g/m*3 6.3 C 0 km/h
1736 23-10-2008 00:44:04 6.2 C 6.77 g/m*3 6.2 C 0 km/h
1737 23-10-2008 00:49:05 6.2 C 6.77 g/m*3 6.2 C 0 km/h
1738 23-10-2008 00:54:05 6.1 C 6.72 g/m*3 6.1 C 0 km/h
1739 23-10-2008 00:59:05 6.1 C 6.72 g/m*3 6.1 C 0 km/h
1740 23-10-2008 01:04:05 6.1 C 6.72 g/m*3 6.1 C 0 km/h
1741 23-10-2008 01:09:05 6 C 6.75 g/m*3 6 C 0 km/h
1742 23-10-2008 01:14:05 6 C 6.75 g/m*3 6 C 0 km/h
1743 23-10-2008 01:19:05 6 C 6.75 g/m*3 6 C 0 km/h
1744 23-10-2008 01:24:05 5.9 C 6.78 g/m*3 5.9 C 0 km/h
1745 23-10-2008 01:29:05 5.8 C 6.73 g/m*3 5.8 C 0 km/h
1746 23-10-2008 01:34:05 5.9 C 6.78 g/m*3 5.9 C 0 km/h
1747 23-10-2008 01:39:05 5.9 C 6.85 g/m*3 5.9 C 0 km/h
1748 23-10-2008 01:44:05 6 C 6.82 g/m*3 6 C 0 km/h
1749 23-10-2008 01:49:05 6 C 6.82 g/m*3 6 C 0 km/h
1750 23-10-2008 01:54:05 5.8 C 6.81 g/m*3 5.8 C 0 km/h
Sensor: Nr:Datum:Temp:Abs-Feuchte:Windchill:Wind:
Aussen-T/F 1751 23-10-2008 01:59:05 5.8 C 6.81 g/m*3 5.8 C 0 km/h
1752 23-10-2008 02:04:05 5.9 C 6.85 g/m*3 5.9 C 0 km/h
1753 23-10-2008 02:09:05 5.8 C 6.81 g/m*3 5.8 C 0 km/h
1754 23-10-2008 02:14:05 5.9 C 6.85 g/m*3 5.9 C 0 km/h
1755 23-10-2008 02:19:05 5.9 C 6.85 g/m*3 5.9 C 0 km/h
1756 23-10-2008 02:24:05 6 C 6.82 g/m*3 6 C 0 km/h
1757 23-10-2008 02:29:05 6 C 6.82 g/m*3 6 C 0 km/h
1758 23-10-2008 02:34:06 6.1 C 6.87 g/m*3 6.1 C 0 km/h
1759 23-10-2008 02:39:06 6.4 C 7.08 g/m*3 6.4 C 0 km/h
1760 23-10-2008 02:44:06 6.5 C 7.12 g/m*3 6.5 C 0 km/h
1761 23-10-2008 02:49:06 6.7 C 7.22 g/m*3 6.7 C 0 km/h
1762 23-10-2008 02:54:06 6.7 C 7.22 g/m*3 6.7 C 0 km/h
1763 23-10-2008 02:59:06 6.8 C 7.27 g/m*3 6.8 C 0 km/h
1764 23-10-2008 03:04:06 6.8 C 7.27 g/m*3 6.8 C 0 km/h
1765 23-10-2008 03:09:06 6.9 C 7.31 g/m*3 6.9 C 0 km/h
1766 23-10-2008 03:14:06 6.9 C 7.31 g/m*3 6.9 C 0 km/h
1767 23-10-2008 03:19:06 7 C 7.28 g/m*3 7 C 0 km/h
1768 23-10-2008 03:24:06 7 C 7.28 g/m*3 7 C 0 km/h
1769 23-10-2008 03:29:06 7 C 7.28 g/m*3 7 C 0 km/h
1770 23-10-2008 03:34:06 7 C 7.28 g/m*3 7 C 0 km/h
1771 23-10-2008 03:39:06 7 C 7.28 g/m*3 7 C 0 km/h
1772 23-10-2008 03:44:06 6.9 C 7.24 g/m*3 6.9 C 0 km/h
1773 23-10-2008 03:49:06 7 C 7.21 g/m*3 7 C 0 km/h
1774 23-10-2008 03:54:06 7 C 7.21 g/m*3 7 C 0 km/h
1775 23-10-2008 03:59:06 7 C 7.21 g/m*3 7 C 0 km/h
Sensor: Nr:Datum:Temp:Abs-Feuchte:Windchill:Wind:
Aussen-T/F 1776 23-10-2008 04:04:06 7 C 7.21 g/m*3 7 C 0 km/h
1777 23-10-2008 04:09:06 7.1 C 7.25 g/m*3 7.1 C 0 km/h
1778 23-10-2008 04:14:07 7.3 C 7.27 g/m*3 7.3 C 0 km/h
1779 23-10-2008 04:19:07 7.3 C 7.35 g/m*3 7.3 C 0 km/h
1780 23-10-2008 04:24:07 7.2 C 7.3 g/m*3 7.2 C 0 km/h
1781 23-10-2008 04:29:07 7.3 C 7.27 g/m*3 7.3 C 0 km/h
1782 23-10-2008 04:34:07 7.3 C 7.27 g/m*3 7.3 C 0 km/h
1783 23-10-2008 04:39:07 7.3 C 7.27 g/m*3 7.3 C 0 km/h
1784 23-10-2008 04:44:07 7.3 C 7.27 g/m*3 7.3 C 0 km/h
1785 23-10-2008 04:49:07 7.3 C 7.27 g/m*3 7.3 C 0 km/h
1786 23-10-2008 04:54:07 7.3 C 7.27 g/m*3 7.3 C 0 km/h
1787 23-10-2008 04:59:07 7.4 C 7.24 g/m*3 7.4 C 0 km/h
1788 23-10-2008 05:04:07 7.3 C 7.19 g/m*3 7.3 C 0 km/h
1789 23-10-2008 05:09:07 7.3 C 7.19 g/m*3 7.3 C 0 km/h
1790 23-10-2008 05:14:07 7.3 C 7.11 g/m*3 7.3 C 0 km/h
1791 23-10-2008 05:19:07 7.3 C 7.11 g/m*3 7.3 C 0 km/h
1792 23-10-2008 05:24:07 7.3 C 7.11 g/m*3 7.3 C 0 km/h
1793 23-10-2008 05:29:07 7.3 C 7.03 g/m*3 7.3 C 0 km/h
1794 23-10-2008 05:34:07 7.3 C 6.95 g/m*3 7.3 C 0 km/h
1795 23-10-2008 05:39:07 7.4 C 6.92 g/m*3 7.4 C 0 km/h
1796 23-10-2008 05:44:07 7.4 C 6.92 g/m*3 7.4 C 0 km/h
1797 23-10-2008 05:49:07 7.4 C 6.84 g/m*3 7.4 C 0 km/h
1798 23-10-2008 05:54:08 7.4 C 6.84 g/m*3 7.4 C 0 km/h
1799 23-10-2008 05:59:08 7.4 C 6.76 g/m*3 7.4 C 0 km/h
1800 23-10-2008 06:04:08 7.4 C 6.76 g/m*3 7.4 C 0 km/h
Sensor: Nr:Datum:Temp:Abs-Feuchte:Windchill:Wind:
Aussen-T/F 1801 23-10-2008 06:09:08 7.5 C 6.8 g/m*3 7.5 C 0 km/h
1802 23-10-2008 06:14:08 7.5 C 6.8 g/m*3 7.5 C 0 km/h
1803 23-10-2008 06:19:08 7.5 C 6.8 g/m*3 7.5 C 0 km/h
1804 23-10-2008 06:24:08 7.5 C 6.72 g/m*3 7.5 C 0 km/h
1805 23-10-2008 06:29:08 7.5 C 6.72 g/m*3 7.5 C 0 km/h
1806 23-10-2008 06:34:08 7.5 C 6.72 g/m*3 7.5 C 0 km/h
1807 23-10-2008 06:39:08 7.4 C 6.68 g/m*3 7.4 C 0 km/h
1808 23-10-2008 06:44:08 7.4 C 6.68 g/m*3 7.4 C 0 km/h
1809 23-10-2008 06:49:08 7.4 C 6.68 g/m*3 7.4 C 0 km/h
1810 23-10-2008 06:54:08 7.4 C 6.68 g/m*3 7.4 C 0 km/h
1811 23-10-2008 06:59:08 7.4 C 6.68 g/m*3 7.4 C 0 km/h
1812 23-10-2008 07:04:02 7.4 C 6.68 g/m*3 7.4 C 0 km/h
1813 23-10-2008 07:09:02 7.4 C 6.68 g/m*3 7.4 C 0 km/h
1814 23-10-2008 07:14:02 7.4 C 6.76 g/m*3 7.4 C 0 km/h
1815 23-10-2008 07:19:03 7.4 C 6.76 g/m*3 7.4 C 0 km/h
1816 23-10-2008 07:24:03 7.4 C 6.76 g/m*3 7.4 C 0 km/h
1817 23-10-2008 07:29:03 7.4 C 6.76 g/m*3 7.4 C 0 km/h
1818 23-10-2008 07:34:02 7.4 C 6.76 g/m*3 7.4 C 0 km/h
1819 23-10-2008 07:39:02 7.4 C 6.76 g/m*3 7.4 C 0 km/h
1820 23-10-2008 07:44:02 7.4 C 6.76 g/m*3 7.4 C 0 km/h
1821 23-10-2008 07:49:01 7.4 C 6.76 g/m*3 7.4 C 0 km/h
1822 23-10-2008 07:54:01 7.4 C 6.76 g/m*3 7.4 C 0 km/h
1823 23-10-2008 07:59:01 7.4 C 6.76 g/m*3 7.4 C 0 km/h
1824 23-10-2008 08:04:02 7.4 C 6.76 g/m*3 7.4 C 0 km/h
1825 23-10-2008 08:09:02 7.4 C 6.76 g/m*3 7.4 C 0 km/h
Sensor: Nr:Datum:Temp:Abs-Feuchte:Windchill:Wind:
Aussen-T/F 1826 23-10-2008 08:14:02 7.4 C 6.76 g/m*3 7.4 C 0 km/h
1827 23-10-2008 08:19:01 7.4 C 6.76 g/m*3 7.4 C 0 km/h
1828 23-10-2008 08:24:01 7.3 C 6.72 g/m*3 7.3 C 0 km/h
1829 23-10-2008 08:29:01 7.4 C 6.76 g/m*3 7.4 C 0 km/h
1830 23-10-2008 08:34:01 7.4 C 6.76 g/m*3 7.4 C 0 km/h
1831 23-10-2008 08:39:01 7.4 C 6.76 g/m*3 7.4 C 0 km/h
1832 23-10-2008 08:44:01 7.4 C 6.76 g/m*3 7.4 C 0 km/h
1833 23-10-2008 08:49:02 7.5 C 6.8 g/m*3 7.5 C 0 km/h
1834 23-10-2008 08:54:02 7.5 C 6.88 g/m*3 7.5 C 0 km/h
1835 23-10-2008 08:59:02 7.6 C 6.85 g/m*3 7.6 C 0 km/h
1836 23-10-2008 09:04:01 7.7 C 6.81 g/m*3 7.7 C 0 km/h
1837 23-10-2008 09:09:01 7.8 C 6.77 g/m*3 7.8 C 0 km/h
1838 23-10-2008 09:14:01 7.8 C 6.77 g/m*3 7.8 C 0 km/h
1839 23-10-2008 09:19:01 7.9 C 6.74 g/m*3 7.9 C 0 km/h
1840 23-10-2008 09:24:01 8 C 6.53 g/m*3 8 C 0 km/h
1841 23-10-2008 09:29:01 8 C 6.45 g/m*3 8 C 0 km/h
1842 23-10-2008 09:34:01 8.1 C 6.41 g/m*3 8.1 C 0 km/h
1843 23-10-2008 09:39:01 8.1 C 6.41 g/m*3 8.1 C 0 km/h
1844 23-10-2008 09:44:01 8.2 C 6.45 g/m*3 8.2 C 0 km/h
1845 23-10-2008 09:49:03 8.3 C 6.49 g/m*3 8.3 C 0 km/h
1846 23-10-2008 09:54:03 8.3 C 6.32 g/m*3 8.3 C 0 km/h
1847 23-10-2008 09:59:03 8.4 C 6.36 g/m*3 8.4 C 0 km/h
1848 23-10-2008 10:04:02 8.4 C 6.36 g/m*3 8.4 C 0 km/h
1849 23-10-2008 10:09:02 8.5 C 6.32 g/m*3 8.5 C 0 km/h
1850 23-10-2008 10:14:02 8.6 C 6.36 g/m*3 8.6 C 0 km/h
Sensor: Nr:Datum:Temp:Abs-Feuchte:Windchill:Wind:
Aussen-T/F 1851 23-10-2008 10:19:02 8.7 C 6.4 g/m*3 8.7 C 0 km/h
1852 23-10-2008 10:24:02 8.7 C 6.31 g/m*3 8.7 C 0 km/h
1853 23-10-2008 10:29:02 8.7 C 6.23 g/m*3 8.7 C 0 km/h
1854 23-10-2008 10:34:02 8.8 C 6.27 g/m*3 8.8 C 0 km/h
1855 23-10-2008 10:39:02 8.9 C 6.22 g/m*3 8.9 C 0 km/h
1856 23-10-2008 10:44:02 9.1 C 6.21 g/m*3 9.1 C 0 km/h
1857 23-10-2008 10:49:02 9.1 C 6.3 g/m*3 9.1 C 0 km/h
1858 23-10-2008 10:54:03 9.2 C 6.34 g/m*3 9.2 C 0 km/h
1859 23-10-2008 10:59:03 9.2 C 6.25 g/m*3 9.2 C 0 km/h
1860 23-10-2008 11:04:01 9.3 C 6.2 g/m*3 9.3 C 0 km/h
1861 23-10-2008 11:09:01 9.2 C 6.16 g/m*3 9.2 C 0 km/h
1862 23-10-2008 11:14:01 9.4 C 6.24 g/m*3 9.4 C 0 km/h
1863 23-10-2008 11:19:02 9.4 C 6.15 g/m*3 9.4 C 0 km/h
1864 23-10-2008 11:24:02 9.6 C 6.14 g/m*3 9.6 C 0 km/h
1865 23-10-2008 11:29:02 9.5 C 6.1 g/m*3 9.5 C 0 km/h
1866 23-10-2008 11:34:01 9.4 C 6.06 g/m*3 9.4 C 0 km/h
1867 23-10-2008 11:39:01 9.4 C 6.06 g/m*3 9.4 C 0 km/h
1868 23-10-2008 11:44:01 9.4 C 6.06 g/m*3 9.4 C 0 km/h
1869 23-10-2008 11:49:02 9.3 C 6.11 g/m*3 9.3 C 0 km/h
1870 23-10-2008 11:54:02 9.3 C 6.11 g/m*3 9.3 C 0 km/h
1871 23-10-2008 11:59:02 9.6 C 6.32 g/m*3 9.6 C 0 km/h
1872 23-10-2008 12:04:02 9.8 C 6.31 g/m*3 9.8 C 0 km/h
1873 23-10-2008 12:09:02 10.2 C 6.38 g/m*3 10.2 C 0 km/h
1874 23-10-2008 12:14:02 10.3 C 6.32 g/m*3 10.3 C 0 km/h
1875 23-10-2008 12:19:02 10.4 C 6.17 g/m*3 10.4 C 0 km/h
Sensor: Nr:Datum:Temp:Abs-Feuchte:Windchill:Wind:
Aussen-T/F 1876 23-10-2008 12:24:02 10.5 C 6.11 g/m*3 10.5 C 0 km/h
1877 23-10-2008 12:29:02 10.6 C 6.25 g/m*3 10.6 C 0 km/h
1878 23-10-2008 12:34:02 10.7 C 6.29 g/m*3 10.7 C 0 km/h
1879 23-10-2008 12:39:02 10.9 C 6.27 g/m*3 10.9 C 0 km/h
1880 23-10-2008 12:44:02 10.9 C 6.27 g/m*3 10.9 C 0 km/h
1881 23-10-2008 12:49:02 11.1 C 6.14 g/m*3 11.1 C 0 km/h
1882 23-10-2008 12:54:02 11.3 C 6.43 g/m*3 11.3 C 0 km/h
1883 23-10-2008 12:59:02 11.5 C 6.4 g/m*3 11.5 C 0 km/h
1884 23-10-2008 13:04:01 11.6 C 6.44 g/m*3 11.6 C 0 km/h
1885 23-10-2008 13:09:01 11.9 C 6.46 g/m*3 11.9 C 0 km/h
1886 23-10-2008 13:14:01 12.2 C 6.37 g/m*3 12.2 C 0 km/h
1887 23-10-2008 13:19:01 12.3 C 6.19 g/m*3 12.3 C 0 km/h
1888 23-10-2008 13:24:01 12.3 C 5.97 g/m*3 12.3 C 0 km/h
1889 23-10-2008 13:29:01 12.5 C 6.16 g/m*3 12.5 C 0 km/h
1890 23-10-2008 13:34:02 12.6 C 6.08 g/m*3 12.6 C 0 km/h
1891 23-10-2008 13:39:03 12.8 C 6.05 g/m*3 12.8 C 0 km/h
1892 23-10-2008 13:44:03 12.9 C 5.86 g/m*3 12.9 C 0 km/h
1893 23-10-2008 13:49:02 12.9 C 5.86 g/m*3 12.9 C 0 km/h
1894 23-10-2008 13:54:02 13 C 5.9 g/m*3 13 C 0 km/h
1895 23-10-2008 13:59:02 13.2 C 5.97 g/m*3 13.2 C 0 km/h
1896 23-10-2008 14:04:02 13.2 C 5.97 g/m*3 13.2 C 0 km/h
1897 23-10-2008 14:09:02 13.3 C 6.01 g/m*3 13.3 C 0 km/h
1898 23-10-2008 14:14:02 13.2 C 5.86 g/m*3 13.2 C 0 km/h
1899 23-10-2008 14:19:02 13.3 C 5.89 g/m*3 13.3 C 0 km/h
1900 23-10-2008 14:24:02 13.6 C 6.12 g/m*3 13.6 C 0 km/h
Sensor: Nr:Datum:Temp:Abs-Feuchte:Windchill:Wind:
Aussen-T/F 1901 23-10-2008 14:29:02 14.1 C 6.07 g/m*3 14.1 C 0 km/h
1902 23-10-2008 14:34:02 14.2 C 5.62 g/m*3 14.2 C 0 km/h
1903 23-10-2008 14:39:02 14.2 C 5.62 g/m*3 14.2 C 0 km/h
1904 23-10-2008 14:44:02 14 C 5.43 g/m*3 14 C 0 km/h
1905 23-10-2008 14:49:02 14.3 C 5.65 g/m*3 14.3 C 0 km/h
1906 23-10-2008 14:54:02 14.6 C 5.63 g/m*3 14.6 C 0 km/h
1907 23-10-2008 14:59:02 14.7 C 5.54 g/m*3 14.7 C 0 km/h
1908 23-10-2008 15:04:02 14.9 C 5.48 g/m*3 14.9 C 0 km/h
1909 23-10-2008 15:09:02 15.2 C 5.45 g/m*3 15.2 C 0 km/h
1910 23-10-2008 15:14:02 15.4 C 5.39 g/m*3 15.4 C 0 km/h
1911 23-10-2008 15:19:02 15.8 C 5.65 g/m*3 15.8 C 0 km/h
1912 23-10-2008 15:24:02 16 C 5.31 g/m*3 16 C 0 km/h
1913 23-10-2008 15:29:02 15.9 C 5.01 g/m*3 15.9 C 0 km/h
1914 23-10-2008 15:34:02 15.8 C 4.98 g/m*3 15.8 C 0 km/h
1915 23-10-2008 15:39:02 16.1 C 5.35 g/m*3 16.1 C 0 km/h
1916 23-10-2008 15:44:02 16.2 C 5.38 g/m*3 16.2 C 0 km/h
1917 23-10-2008 15:49:02 16 C 5.04 g/m*3 16 C 0 km/h
1918 23-10-2008 15:54:02 15.9 C 5.15 g/m*3 15.9 C 0 km/h
1919 23-10-2008 15:59:02 15.6 C 5.05 g/m*3 15.6 C 0 km/h
1920 23-10-2008 16:04:01 15.4 C 4.86 g/m*3 15.4 C 0 km/h
1921 23-10-2008 16:09:01 15.2 C 5.19 g/m*3 15.2 C 0 km/h
1922 23-10-2008 16:14:01 15.2 C 5.19 g/m*3 15.2 C 0 km/h
1923 23-10-2008 16:19:02 15.1 C 5.16 g/m*3 15.1 C 0 km/h
1924 23-10-2008 16:24:02 14.9 C 5.23 g/m*3 14.9 C 0 km/h
1925 23-10-2008 16:29:02 15.1 C 5.16 g/m*3 15.1 C 0 km/h
Sensor: Nr:Datum:Temp:Abs-Feuchte:Windchill:Wind:
Aussen-T/F 1926 23-10-2008 16:34:02 15.1 C 5.03 g/m*3 15.1 C 0 km/h
1927 23-10-2008 16:39:02 15.3 C 5.22 g/m*3 15.3 C 0 km/h
1928 23-10-2008 16:44:02 15.4 C 5.39 g/m*3 15.4 C 0 km/h
1929 23-10-2008 16:49:02 15.5 C 5.29 g/m*3 15.5 C 0 km/h
1930 23-10-2008 16:54:02 15.7 C 5.35 g/m*3 15.7 C 0 km/h
1931 23-10-2008 16:59:02 15.9 C 5.42 g/m*3 15.9 C 0 km/h
1932 23-10-2008 17:04:02 15.9 C 5.55 g/m*3 15.9 C 0 km/h
1933 23-10-2008 17:09:02 15.9 C 5.55 g/m*3 15.9 C 0 km/h
1934 23-10-2008 17:14:02 15.8 C 5.38 g/m*3 15.8 C 0 km/h
1935 23-10-2008 17:19:02 15.7 C 6.02 g/m*3 15.7 C 0 km/h
1936 23-10-2008 17:24:02 15.5 C 5.95 g/m*3 15.5 C 0 km/h
1937 23-10-2008 17:29:02 15.2 C 5.71 g/m*3 15.2 C 0 km/h
1938 23-10-2008 17:34:01 14.9 C 5.99 g/m*3 14.9 C 0 km/h
1939 23-10-2008 17:39:01 14.7 C 6.04 g/m*3 14.7 C 0 km/h
1940 23-10-2008 17:44:01 14.2 C 5.74 g/m*3 14.2 C 0 km/h
1941 23-10-2008 17:49:02 13.9 C 5.75 g/m*3 13.9 C 0 km/h
1942 23-10-2008 17:54:02 13.3 C 5.55 g/m*3 13.3 C 0 km/h
1943 23-10-2008 17:59:02 13.2 C 5.63 g/m*3 13.2 C 0 km/h
1944 23-10-2008 18:04:02 12.6 C 5.53 g/m*3 12.6 C 0 km/h
1945 23-10-2008 18:09:02 11.9 C 5.61 g/m*3 11.9 C 0 km/h
1946 23-10-2008 18:14:02 11.8 C 5.68 g/m*3 11.8 C 0 km/h
1947 23-10-2008 18:19:01 11.3 C 5.51 g/m*3 11.3 C 0 km/h
1948 23-10-2008 18:24:01 11.1 C 5.54 g/m*3 11.1 C 0 km/h
1949 23-10-2008 18:29:01 10.8 C 5.63 g/m*3 10.8 C 0 km/h
1950 23-10-2008 18:34:02 10.5 C 5.72 g/m*3 10.5 C 0 km/h
Sensor: Nr:Datum:Temp:Abs-Feuchte:Windchill:Wind:
Aussen-T/F 1951 23-10-2008 18:39:02 10.2 C 5.71 g/m*3 10.2 C 0 km/h
1952 23-10-2008 18:44:02 10.1 C 5.67 g/m*3 10.1 C 0 km/h
1953 23-10-2008 18:49:02 10 C 5.73 g/m*3 10 C 0 km/h
1954 23-10-2008 18:54:02 9.7 C 5.72 g/m*3 9.7 C 0 km/h
1955 23-10-2008 18:59:03 9.5 C 5.73 g/m*3 9.5 C 0 km/h
1956 23-10-2008 19:04:02 9.5 C 5.73 g/m*3 9.5 C 0 km/h
1957 23-10-2008 19:09:02 9.3 C 5.75 g/m*3 9.3 C 0 km/h
1958 23-10-2008 19:14:02 9.3 C 5.75 g/m*3 9.3 C 0 km/h
1959 23-10-2008 19:19:02 9.2 C 5.8 g/m*3 9.2 C 0 km/h
1960 23-10-2008 19:24:02 9.1 C 5.77 g/m*3 9.1 C 0 km/h
1961 23-10-2008 19:29:02 9.1 C 5.86 g/m*3 9.1 C 0 km/h
1962 23-10-2008 19:34:02 9 C 5.82 g/m*3 9 C 0 km/h
1963 23-10-2008 19:39:02 9 C 5.91 g/m*3 9 C 0 km/h
1964 23-10-2008 19:44:02 8.9 C 5.96 g/m*3 8.9 C 0 km/h
1965 23-10-2008 19:49:02 8.8 C 5.92 g/m*3 8.8 C 0 km/h
1966 23-10-2008 19:54:02 8.8 C 5.92 g/m*3 8.8 C 0 km/h
1967 23-10-2008 19:59:02 8.7 C 5.97 g/m*3 8.7 C 0 km/h
1968 23-10-2008 20:04:02 8.7 C 5.97 g/m*3 8.7 C 0 km/h
1969 23-10-2008 20:09:02 8.6 C 5.93 g/m*3 8.6 C 0 km/h
1970 23-10-2008 20:14:02 8.6 C 5.93 g/m*3 8.6 C 0 km/h
1971 23-10-2008 20:19:02 8.5 C 5.98 g/m*3 8.5 C 0 km/h
1972 23-10-2008 20:24:02 8.5 C 5.98 g/m*3 8.5 C 0 km/h
1973 23-10-2008 20:29:02 8.4 C 5.94 g/m*3 8.4 C 0 km/h
1974 23-10-2008 20:34:03 8.4 C 5.94 g/m*3 8.4 C 0 km/h
1975 23-10-2008 20:39:03 8.3 C 5.9 g/m*3 8.3 C 0 km/h
Sensor: Nr:Datum:Temp:Abs-Feuchte:Windchill:Wind:
Aussen-T/F 1976 23-10-2008 20:44:03 8.2 C 5.95 g/m*3 8.2 C 0 km/h
1977 23-10-2008 20:49:02 8.2 C 5.95 g/m*3 8.2 C 0 km/h
1978 23-10-2008 20:54:02 8.1 C 5.99 g/m*3 8.1 C 0 km/h
1979 23-10-2008 20:59:02 8.1 C 5.99 g/m*3 8.1 C 0 km/h
1980 23-10-2008 21:04:02 8 C 5.95 g/m*3 8 C 0 km/h
1981 23-10-2008 21:09:02 7.9 C 6 g/m*3 7.9 C 0 km/h
1982 23-10-2008 21:14:02 7.9 C 6 g/m*3 7.9 C 0 km/h
1983 23-10-2008 21:19:02 7.8 C 6.04 g/m*3 7.8 C 0 km/h
1984 23-10-2008 21:24:02 7.7 C 6 g/m*3 7.7 C 0 km/h
1985 23-10-2008 21:29:02 7.6 C 6.04 g/m*3 7.6 C 0 km/h
1986 23-10-2008 21:34:02 7.6 C 6.04 g/m*3 7.6 C 0 km/h
1987 23-10-2008 21:39:02 7.5 C 6 g/m*3 7.5 C 0 km/h
1988 23-10-2008 21:44:03 7.6 C 6.04 g/m*3 7.6 C 0 km/h
1989 23-10-2008 21:49:01 7.5 C 6 g/m*3 7.5 C 0 km/h
1990 23-10-2008 21:54:01 7.4 C 5.96 g/m*3 7.4 C 0 km/h
1991 23-10-2008 21:59:01 7.5 C 6 g/m*3 7.5 C 0 km/h
1992 23-10-2008 22:04:01 7.5 C 6 g/m*3 7.5 C 0 km/h
1993 23-10-2008 22:09:01 7.5 C 6 g/m*3 7.5 C 0 km/h
1994 23-10-2008 22:14:01 7.3 C 5.93 g/m*3 7.3 C 0 km/h
1995 23-10-2008 22:20:02 7.2 C 5.89 g/m*3 7.2 C 0 km/h
1996 23-10-2008 22:25:02 7.2 C 5.97 g/m*3 7.2 C 0 km/h
1997 23-10-2008 22:30:02 7.2 C 6.04 g/m*3 7.2 C 0 km/h
1998 23-10-2008 22:35:02 7 C 5.97 g/m*3 7 C 0 km/h
1999 23-10-2008 22:40:02 7 C 5.97 g/m*3 7 C 0 km/h
2000 23-10-2008 22:45:02 6.9 C 6 g/m*3 6.9 C 0 km/h
Sensor: Nr:Datum:Temp:Abs-Feuchte:Windchill:Wind:
Aussen-T/F 2001 23-10-2008 22:50:02 6.8 C 6.04 g/m*3 6.8 C 0 km/h
2002 23-10-2008 22:55:02 6.7 C 6 g/m*3 6.7 C 0 km/h
2003 23-10-2008 23:00:02 6.6 C 5.96 g/m*3 6.6 C 0 km/h
2004 23-10-2008 23:05:02 6.5 C 6 g/m*3 6.5 C 0 km/h
2005 23-10-2008 23:10:02 6.6 C 6.04 g/m*3 6.6 C 0 km/h
2006 23-10-2008 23:15:02 6.5 C 6 g/m*3 6.5 C 0 km/h
2007 23-10-2008 23:20:02 6.4 C 5.96 g/m*3 6.4 C 0 km/h
2008 23-10-2008 23:25:02 6.4 C 5.96 g/m*3 6.4 C 0 km/h
2009 23-10-2008 23:30:02 6.3 C 6 g/m*3 6.3 C 0 km/h
2010 23-10-2008 23:35:02 6.1 C 5.92 g/m*3 6.1 C 0 km/h
2011 23-10-2008 23:40:02 6.1 C 5.92 g/m*3 6.1 C 0 km/h
2012 23-10-2008 23:45:03 6 C 5.88 g/m*3 6 C 0 km/h
2013 23-10-2008 23:50:03 5.9 C 5.91 g/m*3 5.9 C 0 km/h
2014 23-10-2008 23:55:03 5.8 C 5.95 g/m*3 5.8 C 0 km/h
2015 24-10-2008 00:00:03 5.8 C 5.95 g/m*3 5.8 C 0 km/h
2016 24-10-2008 00:05:03 5.7 C 5.91 g/m*3 5.7 C 0 km/h
2017 24-10-2008 00:10:03 5.6 C 5.87 g/m*3 5.6 C 0 km/h
2018 24-10-2008 00:15:03 5.6 C 5.87 g/m*3 5.6 C 0 km/h
2019 24-10-2008 00:20:03 5.4 C 5.79 g/m*3 5.4 C 0 km/h
2020 24-10-2008 00:25:03 5.4 C 5.79 g/m*3 5.4 C 0 km/h
2021 24-10-2008 00:30:03 5.3 C 5.82 g/m*3 5.3 C 0 km/h
2022 24-10-2008 00:35:03 5.2 C 5.78 g/m*3 5.2 C 0 km/h
2023 24-10-2008 00:40:03 5.1 C 5.75 g/m*3 5.1 C 0 km/h
2024 24-10-2008 00:45:03 5.1 C 5.75 g/m*3 5.1 C 0 km/h
2025 24-10-2008 00:50:03 5.1 C 5.75 g/m*3 5.1 C 0 km/h
Sensor: Nr:Datum:Temp:Abs-Feuchte:Windchill:Wind:
Aussen-T/F 2026 24-10-2008 00:55:03 5 C 5.78 g/m*3 5 C 0 km/h
2027 24-10-2008 01:00:03 4.9 C 5.81 g/m*3 4.9 C 0 km/h
2028 24-10-2008 01:05:03 4.9 C 5.81 g/m*3 4.9 C 0 km/h
2029 24-10-2008 01:10:03 4.9 C 5.81 g/m*3 4.9 C 0 km/h
2030 24-10-2008 01:15:03 4.7 C 5.73 g/m*3 4.7 C 0 km/h
2031 24-10-2008 01:20:03 4.7 C 5.73 g/m*3 4.7 C 0 km/h
2032 24-10-2008 01:25:04 4.6 C 5.69 g/m*3 4.6 C 0 km/h
2033 24-10-2008 01:30:04 4.6 C 5.76 g/m*3 4.6 C 0 km/h
2034 24-10-2008 01:35:04 4.5 C 5.72 g/m*3 4.5 C 0 km/h
2035 24-10-2008 01:40:04 4.5 C 5.72 g/m*3 4.5 C 0 km/h
2036 24-10-2008 01:45:04 4.5 C 5.72 g/m*3 4.5 C 0 km/h
2037 24-10-2008 01:50:04 4.5 C 5.72 g/m*3 4.5 C 0 km/h
2038 24-10-2008 01:55:04 4.5 C 5.72 g/m*3 4.5 C 0 km/h
2039 24-10-2008 02:00:04 4.4 C 5.68 g/m*3 4.4 C 0 km/h
2040 24-10-2008 02:05:04 4.3 C 5.64 g/m*3 4.3 C 0 km/h
2041 24-10-2008 02:10:04 4.3 C 5.64 g/m*3 4.3 C 0 km/h
2042 24-10-2008 02:15:04 4.3 C 5.64 g/m*3 4.3 C 0 km/h
2043 24-10-2008 02:20:04 4.2 C 5.61 g/m*3 4.2 C 0 km/h
2044 24-10-2008 02:25:04 4.1 C 5.57 g/m*3 4.1 C 0 km/h
2045 24-10-2008 02:30:04 4.1 C 5.63 g/m*3 4.1 C 0 km/h
2046 24-10-2008 02:35:04 4 C 5.59 g/m*3 4 C 0 km/h
2047 24-10-2008 02:40:04 3.9 C 5.56 g/m*3 3.9 C 0 km/h
2048 24-10-2008 02:45:04 3.8 C 5.52 g/m*3 3.8 C 0 km/h
2049 24-10-2008 02:50:04 3.8 C 5.58 g/m*3 3.8 C 0 km/h
2050 24-10-2008 02:55:04 3.8 C 5.58 g/m*3 3.8 C 0 km/h
Sensor: Nr:Datum:Temp:Abs-Feuchte:Windchill:Wind:
Aussen-T/F 2051 24-10-2008 03:00:05 3.8 C 5.58 g/m*3 3.8 C 0 km/h
2052 24-10-2008 03:05:05 3.8 C 5.58 g/m*3 3.8 C 0 km/h
2053 24-10-2008 03:10:05 3.6 C 5.51 g/m*3 3.6 C 0 km/h
2054 24-10-2008 03:15:05 3.5 C 5.53 g/m*3 3.5 C 0 km/h
2055 24-10-2008 03:20:05 3.6 C 5.51 g/m*3 3.6 C 0 km/h
2056 24-10-2008 03:25:05 3.6 C 5.51 g/m*3 3.6 C 0 km/h
2057 24-10-2008 03:30:05 3.7 C 5.61 g/m*3 3.7 C 0 km/h
2058 24-10-2008 03:35:05 3.7 C 5.61 g/m*3 3.7 C 0 km/h
2059 24-10-2008 03:40:05 3.7 C 5.61 g/m*3 3.7 C 0 km/h
2060 24-10-2008 03:45:05 3.8 C 5.65 g/m*3 3.8 C 0 km/h
2061 24-10-2008 03:50:05 3.8 C 5.71 g/m*3 3.8 C 0 km/h
2062 24-10-2008 03:55:05 3.8 C 5.71 g/m*3 3.8 C 0 km/h
2063 24-10-2008 04:00:05 3.9 C 5.75 g/m*3 3.9 C 0 km/h
2064 24-10-2008 04:05:05 3.9 C 5.75 g/m*3 3.9 C 0 km/h
2065 24-10-2008 04:10:05 4 C 5.72 g/m*3 4 C 0 km/h
2066 24-10-2008 04:15:05 4 C 5.79 g/m*3 4 C 0 km/h
2067 24-10-2008 04:20:05 4.1 C 5.82 g/m*3 4.1 C 0 km/h
2068 24-10-2008 04:25:05 4.1 C 5.82 g/m*3 4.1 C 0 km/h
2069 24-10-2008 04:30:05 4 C 5.79 g/m*3 4 C 0 km/h
2070 24-10-2008 04:35:06 4 C 5.72 g/m*3 4 C 0 km/h
2071 24-10-2008 04:40:06 4 C 5.72 g/m*3 4 C 0 km/h
2072 24-10-2008 04:45:06 4 C 5.72 g/m*3 4 C 0 km/h
2073 24-10-2008 04:50:06 3.9 C 5.75 g/m*3 3.9 C 0 km/h
2074 24-10-2008 04:55:06 3.8 C 5.71 g/m*3 3.8 C 0 km/h
2075 24-10-2008 05:00:06 3.8 C 5.71 g/m*3 3.8 C 0 km/h
Sensor: Nr:Datum:Temp:Abs-Feuchte:Windchill:Wind:
Aussen-T/F 2076 24-10-2008 05:05:06 3.8 C 5.71 g/m*3 3.8 C 0 km/h
2077 24-10-2008 05:10:06 3.7 C 5.67 g/m*3 3.7 C 0 km/h
2078 24-10-2008 05:15:06 3.6 C 5.63 g/m*3 3.6 C 0 km/h
2079 24-10-2008 05:20:06 3.5 C 5.6 g/m*3 3.5 C 0 km/h
2080 24-10-2008 05:25:06 3.5 C 5.6 g/m*3 3.5 C 0 km/h
2081 24-10-2008 05:30:06 3.5 C 5.6 g/m*3 3.5 C 0 km/h
2082 24-10-2008 05:35:06 3.5 C 5.6 g/m*3 3.5 C 0 km/h
2083 24-10-2008 05:40:06 3.4 C 5.56 g/m*3 3.4 C 0 km/h
2084 24-10-2008 05:45:06 3.4 C 5.56 g/m*3 3.4 C 0 km/h
2085 24-10-2008 05:50:06 3.4 C 5.56 g/m*3 3.4 C 0 km/h
2086 24-10-2008 05:55:06 3.4 C 5.56 g/m*3 3.4 C 0 km/h
2087 24-10-2008 06:00:06 3.3 C 5.52 g/m*3 3.3 C 0 km/h
2088 24-10-2008 06:05:06 3.2 C 5.48 g/m*3 3.2 C 0 km/h
2089 24-10-2008 06:10:07 3.3 C 5.52 g/m*3 3.3 C 0 km/h
2090 24-10-2008 06:15:07 3.3 C 5.52 g/m*3 3.3 C 0 km/h
2091 24-10-2008 06:20:07 3.3 C 5.52 g/m*3 3.3 C 0 km/h
2092 24-10-2008 06:25:07 3.2 C 5.48 g/m*3 3.2 C 0 km/h
2093 24-10-2008 06:30:07 3.2 C 5.48 g/m*3 3.2 C 0 km/h
2094 24-10-2008 06:35:07 3.1 C 5.45 g/m*3 3.1 C 0 km/h
2095 24-10-2008 06:40:07 3.1 C 5.39 g/m*3 3.1 C 0 km/h
2096 24-10-2008 06:45:07 3.1 C 5.39 g/m*3 3.1 C 0 km/h
2097 24-10-2008 06:50:07 3 C 5.35 g/m*3 3 C 0 km/h
2098 24-10-2008 06:55:07 3 C 5.35 g/m*3 3 C 0 km/h
2099 24-10-2008 07:00:07 3 C 5.35 g/m*3 3 C 0 km/h
2100 24-10-2008 07:05:02 3 C 5.35 g/m*3 3 C 0 km/h
Sensor: Nr:Datum:Temp:Abs-Feuchte:Windchill:Wind:
Aussen-T/F 2101 24-10-2008 07:10:02 3 C 5.35 g/m*3 3 C 0 km/h
2102 24-10-2008 07:15:02 3 C 5.35 g/m*3 3 C 0 km/h
2103 24-10-2008 07:20:03 3 C 5.35 g/m*3 3 C 0 km/h
2104 24-10-2008 07:25:03 3.1 C 5.39 g/m*3 3.1 C 0 km/h
2105 24-10-2008 07:30:03 3.1 C 5.39 g/m*3 3.1 C 0 km/h
2106 24-10-2008 07:35:02 3.2 C 5.42 g/m*3 3.2 C 0 km/h
2107 24-10-2008 07:40:02 3.1 C 5.39 g/m*3 3.1 C 0 km/h
2108 24-10-2008 07:45:02 3 C 5.35 g/m*3 3 C 0 km/h
2109 24-10-2008 07:50:02 2.9 C 5.37 g/m*3 2.9 C 0 km/h
2110 24-10-2008 07:55:02 2.9 C 5.37 g/m*3 2.9 C 0 km/h
2111 24-10-2008 08:00:02 3 C 5.35 g/m*3 3 C 0 km/h
2112 24-10-2008 08:05:03 2.9 C 5.37 g/m*3 2.9 C 0 km/h
2113 24-10-2008 08:10:03 2.9 C 5.37 g/m*3 2.9 C 0 km/h
2114 24-10-2008 08:15:02 2.9 C 5.43 g/m*3 2.9 C 0 km/h
2115 24-10-2008 08:20:02 2.8 C 5.4 g/m*3 2.8 C 0 km/h
2116 24-10-2008 08:25:02 2.7 C 5.36 g/m*3 2.7 C 0 km/h
2117 24-10-2008 08:30:02 2.7 C 5.36 g/m*3 2.7 C 0 km/h
2118 24-10-2008 08:35:03 2.8 C 5.46 g/m*3 2.8 C 0 km/h
2119 24-10-2008 08:40:03 3 C 5.47 g/m*3 3 C 0 km/h
2120 24-10-2008 08:45:02 3.1 C 5.57 g/m*3 3.1 C 0 km/h
2121 24-10-2008 08:50:02 3.3 C 5.64 g/m*3 3.3 C 0 km/h
2122 24-10-2008 08:55:02 3.5 C 5.72 g/m*3 3.5 C 0 km/h
2123 24-10-2008 09:00:02 3.5 C 5.66 g/m*3 3.5 C 0 km/h
2124 24-10-2008 09:05:02 3.4 C 5.62 g/m*3 3.4 C 0 km/h
2125 24-10-2008 09:10:02 3.5 C 5.66 g/m*3 3.5 C 0 km/h
Sensor: Nr:Datum:Temp:Abs-Feuchte:Windchill:Wind:
Aussen-T/F 2126 24-10-2008 09:15:02 3.8 C 5.77 g/m*3 3.8 C 0 km/h
2127 24-10-2008 09:20:02 4 C 5.79 g/m*3 4 C 0 km/h
2128 24-10-2008 09:25:02 4.3 C 5.9 g/m*3 4.3 C 0 km/h
2129 24-10-2008 09:30:02 4.4 C 5.88 g/m*3 4.4 C 0 km/h
2130 24-10-2008 09:35:02 4.4 C 5.81 g/m*3 4.4 C 0 km/h
2131 24-10-2008 09:40:02 4.3 C 5.71 g/m*3 4.3 C 0 km/h
2132 24-10-2008 09:45:02 4.4 C 5.75 g/m*3 4.4 C 0 km/h
2133 24-10-2008 09:50:02 4.5 C 5.78 g/m*3 4.5 C 0 km/h
2134 24-10-2008 09:55:02 4.5 C 5.72 g/m*3 4.5 C 0 km/h
2135 24-10-2008 10:00:02 4.6 C 5.76 g/m*3 4.6 C 0 km/h
2136 24-10-2008 10:05:01 4.6 C 5.76 g/m*3 4.6 C 0 km/h
2137 24-10-2008 10:10:01 4.7 C 5.73 g/m*3 4.7 C 0 km/h
2138 24-10-2008 10:15:02 4.8 C 5.77 g/m*3 4.8 C 0 km/h
2139 24-10-2008 10:20:02 4.8 C 5.77 g/m*3 4.8 C 0 km/h
2140 24-10-2008 10:25:02 5.1 C 5.75 g/m*3 5.1 C 0 km/h
2141 24-10-2008 10:30:02 5.4 C 5.79 g/m*3 5.4 C 0 km/h
2142 24-10-2008 10:35:01 5.7 C 5.91 g/m*3 5.7 C 0 km/h
2143 24-10-2008 10:40:01 6 C 5.88 g/m*3 6 C 0 km/h
2144 24-10-2008 10:45:02 6 C 5.81 g/m*3 6 C 0 km/h
2145 24-10-2008 10:50:02 5.7 C 5.69 g/m*3 5.7 C 0 km/h
2146 24-10-2008 10:55:02 5.6 C 5.66 g/m*3 5.6 C 0 km/h
2147 24-10-2008 11:00:02 5.7 C 5.69 g/m*3 5.7 C 0 km/h
2148 24-10-2008 11:05:02 5.5 C 5.62 g/m*3 5.5 C 0 km/h
2149 24-10-2008 11:10:02 5.6 C 5.73 g/m*3 5.6 C 0 km/h
2150 24-10-2008 11:15:02 5.6 C 5.8 g/m*3 5.6 C 0 km/h
Sensor: Nr:Datum:Temp:Abs-Feuchte:Windchill:Wind:
Aussen-T/F 2151 24-10-2008 11:20:02 5.6 C 5.8 g/m*3 5.6 C 0 km/h
2152 24-10-2008 11:25:02 5.8 C 5.95 g/m*3 5.8 C 0 km/h
2153 24-10-2008 11:30:02 5.8 C 5.95 g/m*3 5.8 C 0 km/h
2154 24-10-2008 11:35:01 6.2 C 6.03 g/m*3 6.2 C 0 km/h
2155 24-10-2008 11:40:01 6.3 C 6.07 g/m*3 6.3 C 0 km/h
2156 24-10-2008 11:45:02 6.4 C 6.11 g/m*3 6.4 C 0 km/h
2157 24-10-2008 11:50:02 6.5 C 6.15 g/m*3 6.5 C 0 km/h
2158 24-10-2008 11:55:02 6.5 C 6.15 g/m*3 6.5 C 0 km/h
2159 24-10-2008 12:00:02 6.6 C 6.19 g/m*3 6.6 C 0 km/h
2160 24-10-2008 12:05:02 6.8 C 6.27 g/m*3 6.8 C 0 km/h
2161 24-10-2008 12:10:02 6.9 C 6.31 g/m*3 6.9 C 0 km/h
2162 24-10-2008 12:15:01 7.1 C 6.24 g/m*3 7.1 C 0 km/h
2163 24-10-2008 12:20:01 7.3 C 6.32 g/m*3 7.3 C 0 km/h
2164 24-10-2008 12:25:01 7.8 C 6.53 g/m*3 7.8 C 0 km/h
2165 24-10-2008 12:30:01 8.3 C 6.57 g/m*3 8.3 C 0 km/h
2166 24-10-2008 12:35:02 8.7 C 6.4 g/m*3 8.7 C 0 km/h
2167 24-10-2008 12:40:02 9 C 6.44 g/m*3 9 C 0 km/h
2168 24-10-2008 12:45:02 9.2 C 6.34 g/m*3 9.2 C 0 km/h
2169 24-10-2008 12:50:02 9.7 C 6.45 g/m*3 9.7 C 0 km/h
2170 24-10-2008 12:55:03 9.9 C 6.44 g/m*3 9.9 C 0 km/h
2171 24-10-2008 13:00:03 10.3 C 6.32 g/m*3 10.3 C 0 km/h
2172 24-10-2008 13:05:02 10.3 C 6.13 g/m*3 10.3 C 0 km/h
2173 24-10-2008 13:10:02 10.4 C 6.17 g/m*3 10.4 C 0 km/h
2174 24-10-2008 13:15:02 10.7 C 6.19 g/m*3 10.7 C 0 km/h
2175 24-10-2008 13:20:02 10.8 C 6.13 g/m*3 10.8 C 0 km/h
Sensor: Nr:Datum:Temp:Abs-Feuchte:Windchill:Wind:
Aussen-T/F 2176 24-10-2008 13:25:02 10.9 C 6.17 g/m*3 10.9 C 0 km/h
2177 24-10-2008 13:30:02 11.1 C 6.04 g/m*3 11.1 C 0 km/h
2178 24-10-2008 13:35:02 11.4 C 5.95 g/m*3 11.4 C 0 km/h
2179 24-10-2008 13:40:02 11.7 C 5.86 g/m*3 11.7 C 0 km/h
2180 24-10-2008 13:45:02 11.7 C 5.75 g/m*3 11.7 C 0 km/h
2181 24-10-2008 13:50:02 12.1 C 5.68 g/m*3 12.1 C 0 km/h
2182 24-10-2008 13:55:02 12.2 C 5.83 g/m*3 12.2 C 0 km/h
2183 24-10-2008 14:00:02 12.4 C 5.79 g/m*3 12.4 C 0 km/h
2184 24-10-2008 14:05:02 12.5 C 5.61 g/m*3 12.5 C 0 km/h
2185 24-10-2008 14:10:02 12.6 C 5.53 g/m*3 12.6 C 0 km/h
2186 24-10-2008 14:15:02 12.6 C 5.53 g/m*3 12.6 C 0 km/h
2187 24-10-2008 14:20:02 12.8 C 5.6 g/m*3 12.8 C 0 km/h
2188 24-10-2008 14:25:02 13.2 C 5.51 g/m*3 13.2 C 0 km/h
2189 24-10-2008 14:30:02 13.1 C 5.48 g/m*3 13.1 C 0 km/h
2190 24-10-2008 14:35:02 13.1 C 5.48 g/m*3 13.1 C 0 km/h
2191 24-10-2008 14:40:02 13.2 C 5.51 g/m*3 13.2 C 0 km/h
2192 24-10-2008 14:45:02 12.9 C 5.52 g/m*3 12.9 C 0 km/h
2193 24-10-2008 14:50:02 12.8 C 5.49 g/m*3 12.8 C 0 km/h
2194 24-10-2008 14:55:02 13 C 5.56 g/m*3 13 C 0 km/h
2195 24-10-2008 15:00:02 13 C 5.56 g/m*3 13 C 0 km/h
2196 24-10-2008 15:05:02 13 C 5.44 g/m*3 13 C 0 km/h
2197 24-10-2008 15:10:02 13 C 5.44 g/m*3 13 C 0 km/h
2198 24-10-2008 15:15:02 13.1 C 5.36 g/m*3 13.1 C 0 km/h
2199 24-10-2008 15:20:02 13.1 C 5.36 g/m*3 13.1 C 0 km/h
2200 24-10-2008 15:25:02 13 C 5.22 g/m*3 13 C 0 km/h
Sensor: Nr:Datum:Temp:Abs-Feuchte:Windchill:Wind:
Aussen-T/F 2201 24-10-2008 15:30:02 13.2 C 5.4 g/m*3 13.2 C 0 km/h
2202 24-10-2008 15:35:02 13.5 C 5.38 g/m*3 13.5 C 0 km/h
2203 24-10-2008 15:40:03 13.9 C 5.51 g/m*3 13.9 C 0 km/h
2204 24-10-2008 15:45:02 13.7 C 5.33 g/m*3 13.7 C 0 km/h
2205 24-10-2008 15:50:02 13.3 C 5.31 g/m*3 13.3 C 0 km/h
2206 24-10-2008 15:55:02 13 C 5.33 g/m*3 13 C 0 km/h
2207 24-10-2008 16:00:02 13.1 C 5.48 g/m*3 13.1 C 0 km/h
2208 24-10-2008 16:05:02 13 C 5.44 g/m*3 13 C 0 km/h
2209 24-10-2008 16:10:02 13 C 5.44 g/m*3 13 C 0 km/h
2210 24-10-2008 16:15:02 13.1 C 5.59 g/m*3 13.1 C 0 km/h
2211 24-10-2008 16:20:03 13.1 C 5.59 g/m*3 13.1 C 0 km/h
2212 24-10-2008 16:25:03 13.1 C 5.48 g/m*3 13.1 C 0 km/h
2213 24-10-2008 16:30:03 13.2 C 5.51 g/m*3 13.2 C 0 km/h
2214 24-10-2008 16:35:02 13.3 C 5.55 g/m*3 13.3 C 0 km/h
2215 24-10-2008 16:40:02 13.1 C 5.36 g/m*3 13.1 C 0 km/h
2216 24-10-2008 16:45:02 12.9 C 5.41 g/m*3 12.9 C 0 km/h
2217 24-10-2008 16:50:03 12.8 C 5.71 g/m*3 12.8 C 0 km/h
2218 24-10-2008 16:55:03 12.7 C 5.68 g/m*3 12.7 C 0 km/h
2219 24-10-2008 17:00:03 12.7 C 5.9 g/m*3 12.7 C 0 km/h
2220 24-10-2008 17:05:01 12.5 C 5.83 g/m*3 12.5 C 0 km/h
2221 24-10-2008 17:10:01 12.4 C 6.01 g/m*3 12.4 C 0 km/h
2222 24-10-2008 17:15:02 12.3 C 5.97 g/m*3 12.3 C 0 km/h
2223 24-10-2008 17:20:02 12.1 C 5.9 g/m*3 12.1 C 0 km/h
2224 24-10-2008 17:25:02 11.8 C 6.1 g/m*3 11.8 C 0 km/h
2225 24-10-2008 17:30:02 11.6 C 6.03 g/m*3 11.6 C 0 km/h
Sensor: Nr:Datum:Temp:Abs-Feuchte:Windchill:Wind:
Aussen-T/F 2226 24-10-2008 17:35:02 11.5 C 5.99 g/m*3 11.5 C 0 km/h
2227 24-10-2008 17:40:02 11.3 C 6.02 g/m*3 11.3 C 0 km/h
2228 24-10-2008 17:45:02 11.2 C 5.98 g/m*3 11.2 C 0 km/h
2229 24-10-2008 17:50:02 11.1 C 5.94 g/m*3 11.1 C 0 km/h
2230 24-10-2008 17:55:03 11 C 6.01 g/m*3 11 C 0 km/h
2231 24-10-2008 18:00:03 10.8 C 6.03 g/m*3 10.8 C 0 km/h
2232 24-10-2008 18:05:02 10.8 C 6.13 g/m*3 10.8 C 0 km/h
2233 24-10-2008 18:10:02 10.7 C 6.09 g/m*3 10.7 C 0 km/h
2234 24-10-2008 18:15:02 10.7 C 5.99 g/m*3 10.7 C 0 km/h
2235 24-10-2008 18:20:02 10.6 C 6.05 g/m*3 10.6 C 0 km/h
2236 24-10-2008 18:25:02 10.6 C 6.15 g/m*3 10.6 C 0 km/h
2237 24-10-2008 18:30:02 10.5 C 6.11 g/m*3 10.5 C 0 km/h
2238 24-10-2008 18:35:02 10.5 C 6.11 g/m*3 10.5 C 0 km/h
2239 24-10-2008 18:40:02 10.5 C 6.11 g/m*3 10.5 C 0 km/h
2240 24-10-2008 18:45:02 10.5 C 6.21 g/m*3 10.5 C 0 km/h
2241 24-10-2008 18:50:02 10.5 C 6.21 g/m*3 10.5 C 0 km/h
2242 24-10-2008 18:55:02 10.5 C 6.21 g/m*3 10.5 C 0 km/h
2243 24-10-2008 19:00:02 10.4 C 6.26 g/m*3 10.4 C 0 km/h
2244 24-10-2008 19:05:02 10.4 C 6.26 g/m*3 10.4 C 0 km/h
2245 24-10-2008 19:10:02 10.4 C 6.26 g/m*3 10.4 C 0 km/h
2246 24-10-2008 19:15:02 10.4 C 6.26 g/m*3 10.4 C 0 km/h
2247 24-10-2008 19:20:02 10.4 C 6.36 g/m*3 10.4 C 0 km/h
2248 24-10-2008 19:25:02 10.4 C 6.36 g/m*3 10.4 C 0 km/h
2249 24-10-2008 19:30:02 10.3 C 6.42 g/m*3 10.3 C 0 km/h
2250 24-10-2008 19:35:02 10.2 C 6.47 g/m*3 10.2 C 0 km/h
Sensor: Nr:Datum:Temp:Abs-Feuchte:Windchill:Wind:
Aussen-T/F 2251 24-10-2008 19:40:02 10.1 C 6.52 g/m*3 10.1 C 0 km/h
2252 24-10-2008 19:45:02 10 C 6.58 g/m*3 10 C 0 km/h
2253 24-10-2008 19:50:02 10 C 6.77 g/m*3 10 C 0 km/h
2254 24-10-2008 19:55:02 9.9 C 6.91 g/m*3 9.9 C 0 km/h
2255 24-10-2008 20:00:02 9.8 C 6.87 g/m*3 9.8 C 0 km/h
2256 24-10-2008 20:05:02 9.8 C 6.96 g/m*3 9.8 C 0 km/h
2257 24-10-2008 20:10:02 9.9 C 7.1 g/m*3 9.9 C 0 km/h
2258 24-10-2008 20:15:01 9.9 C 7.1 g/m*3 9.9 C 0 km/h
2259 24-10-2008 20:20:01 9.9 C 7.1 g/m*3 9.9 C 0 km/h
2260 24-10-2008 20:25:01 10 C 7.14 g/m*3 10 C 0 km/h
2261 24-10-2008 20:30:01 10 C 7.14 g/m*3 10 C 0 km/h
2262 24-10-2008 20:35:02 10 C 7.05 g/m*3 10 C 0 km/h
2263 24-10-2008 20:40:02 10 C 6.95 g/m*3 10 C 0 km/h
2264 24-10-2008 20:45:02 10 C 7.05 g/m*3 10 C 0 km/h
2265 24-10-2008 20:50:02 10 C 7.05 g/m*3 10 C 0 km/h
2266 24-10-2008 20:55:03 10 C 6.95 g/m*3 10 C 0 km/h
2267 24-10-2008 21:00:03 10 C 6.95 g/m*3 10 C 0 km/h
2268 24-10-2008 21:05:02 10 C 6.86 g/m*3 10 C 0 km/h
2269 24-10-2008 21:10:02 10 C 6.86 g/m*3 10 C 0 km/h
2270 24-10-2008 21:15:02 9.9 C 6.91 g/m*3 9.9 C 0 km/h
2271 24-10-2008 21:20:02 9.9 C 6.91 g/m*3 9.9 C 0 km/h
2272 24-10-2008 21:25:02 9.9 C 6.91 g/m*3 9.9 C 0 km/h
2273 24-10-2008 21:30:02 9.8 C 6.87 g/m*3 9.8 C 0 km/h
2274 24-10-2008 21:35:02 9.7 C 6.82 g/m*3 9.7 C 0 km/h
2275 24-10-2008 21:40:02 9.7 C 6.82 g/m*3 9.7 C 0 km/h
Sensor: Nr:Datum:Temp:Abs-Feuchte:Windchill:Wind:
Aussen-T/F 2276 24-10-2008 21:45:02 9.6 C 6.78 g/m*3 9.6 C 0 km/h
2277 24-10-2008 21:50:02 9.5 C 6.74 g/m*3 9.5 C 0 km/h
2278 24-10-2008 21:55:02 9.5 C 6.74 g/m*3 9.5 C 0 km/h
2279 24-10-2008 22:00:02 9.5 C 6.74 g/m*3 9.5 C 0 km/h
2280 24-10-2008 22:05:03 9.5 C 6.74 g/m*3 9.5 C 0 km/h
2281 24-10-2008 22:10:03 9.5 C 6.74 g/m*3 9.5 C 0 km/h
2282 24-10-2008 22:15:02 9.5 C 6.74 g/m*3 9.5 C 0 km/h
2283 24-10-2008 22:20:02 9.5 C 6.74 g/m*3 9.5 C 0 km/h
2284 24-10-2008 22:25:02 9.5 C 6.74 g/m*3 9.5 C 0 km/h
2285 24-10-2008 22:30:02 9.5 C 6.74 g/m*3 9.5 C 0 km/h
2286 24-10-2008 22:35:03 9.3 C 6.65 g/m*3 9.3 C 0 km/h
2287 24-10-2008 22:40:03 9.3 C 6.65 g/m*3 9.3 C 0 km/h
2288 24-10-2008 22:46:03 9.3 C 6.65 g/m*3 9.3 C 0 km/h
2289 24-10-2008 22:51:03 9.2 C 6.7 g/m*3 9.2 C 0 km/h
2290 24-10-2008 22:56:03 9.1 C 6.65 g/m*3 9.1 C 0 km/h
2291 24-10-2008 23:01:03 9 C 6.61 g/m*3 9 C 0 km/h
2292 24-10-2008 23:06:03 8.8 C 6.61 g/m*3 8.8 C 0 km/h
2293 24-10-2008 23:11:03 8.7 C 6.66 g/m*3 8.7 C 0 km/h
2294 24-10-2008 23:16:03 8.6 C 6.7 g/m*3 8.6 C 0 km/h
2295 24-10-2008 23:21:03 8.6 C 6.7 g/m*3 8.6 C 0 km/h
2296 24-10-2008 23:26:04 8.6 C 6.7 g/m*3 8.6 C 0 km/h
2297 24-10-2008 23:31:04 8.6 C 6.79 g/m*3 8.6 C 0 km/h
2298 24-10-2008 23:36:04 8.7 C 6.83 g/m*3 8.7 C 0 km/h
2299 24-10-2008 23:41:04 8.8 C 6.88 g/m*3 8.8 C 0 km/h
2300 24-10-2008 23:46:04 8.9 C 6.92 g/m*3 8.9 C 0 km/h
Sensor: Nr:Datum:Temp:Abs-Feuchte:Windchill:Wind:
Aussen-T/F 2301 24-10-2008 23:51:04 8.9 C 6.92 g/m*3 8.9 C 0 km/h
2302 24-10-2008 23:56:04 8.9 C 6.92 g/m*3 8.9 C 0 km/h
2303 25-10-2008 00:01:04 9 C 6.88 g/m*3 9 C 0 km/h
2304 25-10-2008 00:06:04 9 C 6.88 g/m*3 9 C 0 km/h
2305 25-10-2008 00:11:04 9 C 6.88 g/m*3 9 C 0 km/h
2306 25-10-2008 00:16:04 9.1 C 6.92 g/m*3 9.1 C 0 km/h
2307 25-10-2008 00:21:04 9.1 C 6.92 g/m*3 9.1 C 0 km/h
2308 25-10-2008 00:26:04 9.2 C 6.97 g/m*3 9.2 C 0 km/h
2309 25-10-2008 00:31:04 9.2 C 6.97 g/m*3 9.2 C 0 km/h
2310 25-10-2008 00:36:04 9.2 C 6.97 g/m*3 9.2 C 0 km/h
2311 25-10-2008 00:41:04 9.2 C 6.97 g/m*3 9.2 C 0 km/h
2312 25-10-2008 00:46:04 9.3 C 7.01 g/m*3 9.3 C 0 km/h
2313 25-10-2008 00:51:04 9.5 C 7.01 g/m*3 9.5 C 0 km/h
2314 25-10-2008 00:56:04 9.7 C 7.1 g/m*3 9.7 C 0 km/h
2315 25-10-2008 01:01:04 9.7 C 7.01 g/m*3 9.7 C 0 km/h
2316 25-10-2008 01:06:05 9.7 C 6.91 g/m*3 9.7 C 0 km/h
2317 25-10-2008 01:11:05 9.7 C 6.91 g/m*3 9.7 C 0 km/h
2318 25-10-2008 01:16:05 9.7 C 6.91 g/m*3 9.7 C 0 km/h
2319 25-10-2008 01:21:05 9.8 C 6.96 g/m*3 9.8 C 0 km/h
2320 25-10-2008 01:26:05 9.8 C 6.87 g/m*3 9.8 C 0 km/h
2321 25-10-2008 01:31:05 9.9 C 6.91 g/m*3 9.9 C 0 km/h
2322 25-10-2008 01:36:05 9.9 C 6.91 g/m*3 9.9 C 0 km/h
2323 25-10-2008 01:41:05 10 C 6.86 g/m*3 10 C 0 km/h
2324 25-10-2008 01:46:05 10 C 6.86 g/m*3 10 C 0 km/h
2325 25-10-2008 01:51:05 10 C 6.86 g/m*3 10 C 0 km/h
Sensor: Nr:Datum:Temp:Abs-Feuchte:Windchill:Wind:
Aussen-T/F 2326 25-10-2008 01:56:05 10.1 C 6.9 g/m*3 10.1 C 0 km/h
2327 25-10-2008 02:01:05 10.1 C 6.9 g/m*3 10.1 C 0 km/h
2328 25-10-2008 02:06:05 10 C 6.86 g/m*3 10 C 0 km/h
2329 25-10-2008 02:11:05 10 C 6.86 g/m*3 10 C 0 km/h
2330 25-10-2008 02:16:05 10 C 6.95 g/m*3 10 C 0 km/h
2331 25-10-2008 02:21:05 9.9 C 7 g/m*3 9.9 C 0 km/h
2332 25-10-2008 02:26:05 9.9 C 7 g/m*3 9.9 C 0 km/h
2333 25-10-2008 02:31:05 9.9 C 7 g/m*3 9.9 C 0 km/h
2334 25-10-2008 02:36:05 10 C 6.95 g/m*3 10 C 0 km/h
2335 25-10-2008 02:41:05 10 C 6.95 g/m*3 10 C 0 km/h
2336 25-10-2008 02:46:05 10 C 6.95 g/m*3 10 C 0 km/h
2337 25-10-2008 02:51:06 10 C 6.95 g/m*3 10 C 0 km/h
2338 25-10-2008 02:56:06 10 C 6.95 g/m*3 10 C 0 km/h
2339 25-10-2008 03:01:06 10 C 6.95 g/m*3 10 C 0 km/h
2340 25-10-2008 03:06:06 10 C 6.95 g/m*3 10 C 0 km/h
2341 25-10-2008 03:11:06 10 C 6.95 g/m*3 10 C 0 km/h
2342 25-10-2008 03:16:06 9.9 C 7.1 g/m*3 9.9 C 0 km/h
2343 25-10-2008 03:21:06 9.9 C 7.19 g/m*3 9.9 C 0 km/h
2344 25-10-2008 03:26:06 9.9 C 7.19 g/m*3 9.9 C 0 km/h
2345 25-10-2008 03:31:06 9.9 C 7.19 g/m*3 9.9 C 0 km/h
2346 25-10-2008 03:36:06 9.9 C 7.19 g/m*3 9.9 C 0 km/h
2347 25-10-2008 03:41:06 9.9 C 7.19 g/m*3 9.9 C 0 km/h
2348 25-10-2008 03:46:06 9.9 C 7.19 g/m*3 9.9 C 0 km/h
2349 25-10-2008 03:51:06 9.9 C 7.19 g/m*3 9.9 C 0 km/h
2350 25-10-2008 03:56:06 9.9 C 7.19 g/m*3 9.9 C 0 km/h
Sensor: Nr:Datum:Temp:Abs-Feuchte:Windchill:Wind:
Aussen-T/F 2351 25-10-2008 04:01:06 9.9 C 7.19 g/m*3 9.9 C 0 km/h
2352 25-10-2008 04:06:06 9.9 C 7.19 g/m*3 9.9 C 0 km/h
2353 25-10-2008 04:11:06 9.9 C 7.28 g/m*3 9.9 C 0 km/h
2354 25-10-2008 04:16:06 9.9 C 7.28 g/m*3 9.9 C 0 km/h
2355 25-10-2008 04:21:06 9.9 C 7.28 g/m*3 9.9 C 0 km/h
2356 25-10-2008 04:26:06 9.9 C 7.28 g/m*3 9.9 C 0 km/h
2357 25-10-2008 04:31:07 10 C 7.14 g/m*3 10 C 0 km/h
2358 25-10-2008 04:36:07 9.9 C 7.28 g/m*3 9.9 C 0 km/h
2359 25-10-2008 04:41:07 10 C 7.14 g/m*3 10 C 0 km/h
2360 25-10-2008 04:46:07 10 C 7.14 g/m*3 10 C 0 km/h
2361 25-10-2008 04:51:07 10 C 7.14 g/m*3 10 C 0 km/h
2362 25-10-2008 04:56:07 10 C 7.14 g/m*3 10 C 0 km/h
2363 25-10-2008 05:01:07 10 C 7.14 g/m*3 10 C 0 km/h
2364 25-10-2008 05:06:07 9.9 C 7.28 g/m*3 9.9 C 0 km/h
2365 25-10-2008 05:11:07 9.9 C 7.28 g/m*3 9.9 C 0 km/h
2366 25-10-2008 05:16:07 9.9 C 7.28 g/m*3 9.9 C 0 km/h
2367 25-10-2008 05:21:07 10 C 7.24 g/m*3 10 C 0 km/h
2368 25-10-2008 05:26:07 9.9 C 7.28 g/m*3 9.9 C 0 km/h
2369 25-10-2008 05:31:07 9.9 C 7.28 g/m*3 9.9 C 0 km/h
2370 25-10-2008 05:36:07 9.9 C 7.28 g/m*3 9.9 C 0 km/h
2371 25-10-2008 05:41:07 9.9 C 7.28 g/m*3 9.9 C 0 km/h
2372 25-10-2008 05:46:07 9.9 C 7.28 g/m*3 9.9 C 0 km/h
2373 25-10-2008 05:51:07 9.9 C 7.28 g/m*3 9.9 C 0 km/h
2374 25-10-2008 05:56:07 9.9 C 7.28 g/m*3 9.9 C 0 km/h
2375 25-10-2008 06:01:07 9.9 C 7.28 g/m*3 9.9 C 0 km/h
Sensor: Nr:Datum:Temp:Abs-Feuchte:Windchill:Wind:
Aussen-T/F 2376 25-10-2008 06:06:07 9.9 C 7.38 g/m*3 9.9 C 0 km/h
2377 25-10-2008 06:11:07 9.9 C 7.38 g/m*3 9.9 C 0 km/h
2378 25-10-2008 06:16:08 9.8 C 7.42 g/m*3 9.8 C 0 km/h
2379 25-10-2008 06:21:08 9.7 C 7.38 g/m*3 9.7 C 0 km/h
2380 25-10-2008 06:26:08 9.7 C 7.56 g/m*3 9.7 C 0 km/h
2381 25-10-2008 06:31:08 9.7 C 7.56 g/m*3 9.7 C 0 km/h
2382 25-10-2008 06:36:08 9.7 C 7.65 g/m*3 9.7 C 0 km/h
2383 25-10-2008 06:41:08 9.7 C 7.65 g/m*3 9.7 C 0 km/h
2384 25-10-2008 06:46:08 9.6 C 7.6 g/m*3 9.6 C 0 km/h
2385 25-10-2008 06:51:08 9.6 C 7.69 g/m*3 9.6 C 0 km/h
2386 25-10-2008 06:56:08 9.5 C 7.74 g/m*3 9.5 C 0 km/h
2387 25-10-2008 07:01:08 9.5 C 7.74 g/m*3 9.5 C 0 km/h
2388 25-10-2008 07:06:08 9.5 C 7.74 g/m*3 9.5 C 0 km/h
2389 25-10-2008 07:11:08 9.6 C 7.79 g/m*3 9.6 C 0 km/h
2390 25-10-2008 07:16:08 9.6 C 7.79 g/m*3 9.6 C 0 km/h
2391 25-10-2008 07:21:08 9.6 C 7.79 g/m*3 9.6 C 0 km/h
2392 25-10-2008 07:26:08 9.6 C 7.79 g/m*3 9.6 C 0 km/h
2393 25-10-2008 07:31:08 9.6 C 7.79 g/m*3 9.6 C 0 km/h
2394 25-10-2008 07:36:08 9.6 C 7.79 g/m*3 9.6 C 0 km/h
2395 25-10-2008 07:41:08 9.6 C 7.79 g/m*3 9.6 C 0 km/h
2396 25-10-2008 07:46:08 9.6 C 7.79 g/m*3 9.6 C 0 km/h
2397 25-10-2008 07:51:08 9.6 C 7.79 g/m*3 9.6 C 0 km/h
2398 25-10-2008 07:56:08 9.6 C 7.79 g/m*3 9.6 C 0 km/h
2399 25-10-2008 08:01:09 9.6 C 7.69 g/m*3 9.6 C 0 km/h
2400 25-10-2008 08:06:09 9.7 C 7.74 g/m*3 9.7 C 0 km/h
Sensor: Nr:Datum:Temp:Abs-Feuchte:Windchill:Wind:
Aussen-T/F 2401 25-10-2008 08:11:09 9.7 C 7.74 g/m*3 9.7 C 0 km/h
2402 25-10-2008 08:16:09 9.7 C 7.74 g/m*3 9.7 C 0 km/h
2403 25-10-2008 08:21:09 9.7 C 7.74 g/m*3 9.7 C 0 km/h
2404 25-10-2008 08:26:09 9.8 C 7.79 g/m*3 9.8 C 0 km/h
2405 25-10-2008 08:31:09 9.8 C 7.79 g/m*3 9.8 C 0 km/h
2406 25-10-2008 08:36:09 9.8 C 7.79 g/m*3 9.8 C 0 km/h
2407 25-10-2008 08:41:09 9.9 C 7.84 g/m*3 9.9 C 0 km/h
2408 25-10-2008 08:46:09 9.9 C 7.84 g/m*3 9.9 C 0 km/h
2409 25-10-2008 08:51:09 9.9 C 7.84 g/m*3 9.9 C 0 km/h
2410 25-10-2008 08:56:09 10 C 7.71 g/m*3 10 C 0 km/h
2411 25-10-2008 09:01:03 10 C 7.71 g/m*3 10 C 0 km/h
2412 25-10-2008 09:06:03 10.1 C 7.75 g/m*3 10.1 C 0 km/h
2413 25-10-2008 09:11:03 10.1 C 7.75 g/m*3 10.1 C 0 km/h
2414 25-10-2008 09:22:03 10.3 C 7.76 g/m*3 10.3 C 0 km/h
2415 25-10-2008 09:47:02 10.7 C 7.86 g/m*3 10.7 C 0 km/h
2416 25-10-2008 10:12:02 11.1 C 7.76 g/m*3 11.1 C 0 km/h
2417 25-10-2008 10:37:02 11.6 C 7.8 g/m*3 11.6 C 0 km/h
2418 25-10-2008 11:02:02 12 C 7.67 g/m*3 12 C 0 km/h
2419 25-10-2008 11:27:02 12.3 C 7.82 g/m*3 12.3 C 0 km/h
2420 25-10-2008 11:52:01 12.4 C 7.76 g/m*3 12.4 C 0 km/h
2421 25-10-2008 12:17:01 12.7 C 8.01 g/m*3 12.7 C 0 km/h
2422 25-10-2008 12:42:02 14 C 7.84 g/m*3 14 C 0 km/h
2423 25-10-2008 13:07:02 14.8 C 7.73 g/m*3 14.8 C 0 km/h
2424 25-10-2008 13:32:02 14.5 C 7.59 g/m*3 14.5 C 0 km/h
2425 25-10-2008 13:57:02 14.7 C 7.43 g/m*3 14.7 C 0 km/h
Sensor: Nr:Datum:Temp:Abs-Feuchte:Windchill:Wind:
Aussen-T/F 2426 25-10-2008 14:22:02 14.9 C 7.65 g/m*3 14.9 C 0 km/h
2427 25-10-2008 14:47:01 15.4 C 7.36 g/m*3 15.4 C 0 km/h
2428 25-10-2008 15:12:02 15.3 C 7.31 g/m*3 15.3 C 0 km/h
2429 25-10-2008 15:37:02 15.2 C 7.53 g/m*3 15.2 C 0 km/h
2430 25-10-2008 16:02:02 16.8 C 7.72 g/m*3 16.8 C 0 km/h
2431 25-10-2008 16:27:02 17.3 C 7.22 g/m*3 17.3 C 0 km/h
2432 25-10-2008 16:52:02 17 C 7.23 g/m*3 17 C 0 km/h
2433 25-10-2008 17:17:02 16.8 C 7.43 g/m*3 16.8 C 0 km/h
2434 25-10-2008 17:42:02 15.5 C 7.4 g/m*3 15.5 C 0 km/h
2435 25-10-2008 18:07:02 13.7 C 7.46 g/m*3 13.7 C 0 km/h
2436 25-10-2008 18:32:02 12.5 C 7.7 g/m*3 12.5 C 0 km/h
2437 25-10-2008 18:57:02 12.3 C 7.93 g/m*3 12.3 C 0 km/h
2438 25-10-2008 19:22:02 12.5 C 7.92 g/m*3 12.5 C 0 km/h
2439 25-10-2008 19:47:01 11.9 C 7.84 g/m*3 11.9 C 0 km/h
2440 25-10-2008 20:12:02 11.6 C 7.69 g/m*3 11.6 C 0 km/h
2441 25-10-2008 20:37:02 11.1 C 7.45 g/m*3 11.1 C 0 km/h
2442 25-10-2008 21:02:02 10.4 C 7.42 g/m*3 10.4 C 0 km/h
2443 25-10-2008 21:27:02 9.9 C 7.47 g/m*3 9.9 C 0 km/h
2444 25-10-2008 21:52:02 9.5 C 7.37 g/m*3 9.5 C 0 km/h
2445 25-10-2008 22:31:02 9.2 C 7.32 g/m*3 9.2 C 0 km/h
2446 25-10-2008 22:56:02 8.7 C 7.26 g/m*3 8.7 C 0 km/h
2447 25-10-2008 23:21:02 8.3 C 7.08 g/m*3 8.3 C 0 km/h
2448 25-10-2008 23:46:02 8 C 7.03 g/m*3 8 C 0 km/h
2449 26-10-2008 00:11:02 7.6 C 7.01 g/m*3 7.6 C 0 km/h
2450 26-10-2008 00:36:02 7.4 C 6.92 g/m*3 7.4 C 0 km/h
Sensor: Nr:Datum:Temp:Abs-Feuchte:Windchill:Wind:
Aussen-T/F 2451 26-10-2008 01:01:02 7.1 C 6.79 g/m*3 7.1 C 0 km/h
2452 26-10-2008 01:26:02 7 C 6.82 g/m*3 7 C 0 km/h
2453 26-10-2008 01:51:02 6.8 C 6.81 g/m*3 6.8 C 0 km/h
2454 26-10-2008 02:16:02 6.6 C 6.72 g/m*3 6.6 C 0 km/h
2455 26-10-2008 02:41:03 6.4 C 6.63 g/m*3 6.4 C 0 km/h
2456 26-10-2008 03:06:03 6.2 C 6.62 g/m*3 6.2 C 0 km/h
2457 26-10-2008 03:31:03 6 C 6.53 g/m*3 6 C 0 km/h
2458 26-10-2008 03:56:03 5.8 C 6.52 g/m*3 5.8 C 0 km/h
2459 26-10-2008 04:11:03 5.8 C 6.59 g/m*3 5.8 C 0 km/h
2460 26-10-2008 04:21:03 5.7 C 6.48 g/m*3 5.7 C 0 km/h
2461 26-10-2008 04:36:03 5.7 C 6.55 g/m*3 5.7 C 0 km/h
2462 26-10-2008 04:46:03 5.9 C 6.63 g/m*3 5.9 C 0 km/h
2463 26-10-2008 05:01:03 5.8 C 6.66 g/m*3 5.8 C 0 km/h
2464 26-10-2008 05:26:03 5.6 C 6.5 g/m*3 5.6 C 0 km/h
2465 26-10-2008 05:51:03 5.4 C 6.42 g/m*3 5.4 C 0 km/h
2466 26-10-2008 06:16:03 5.7 C 6.62 g/m*3 5.7 C 0 km/h
2467 26-10-2008 06:41:03 6.4 C 6.93 g/m*3 6.4 C 0 km/h
2468 26-10-2008 07:06:03 6.8 C 6.96 g/m*3 6.8 C 0 km/h
2469 26-10-2008 07:31:03 6.8 C 6.81 g/m*3 6.8 C 0 km/h
2470 26-10-2008 07:56:03 6.7 C 6.76 g/m*3 6.7 C 0 km/h
2471 26-10-2008 08:21:03 6.5 C 6.67 g/m*3 6.5 C 0 km/h
2472 26-10-2008 08:46:03 6.6 C 6.72 g/m*3 6.6 C 0 km/h
2473 26-10-2008 09:11:03 7.7 C 7.22 g/m*3 7.7 C 0 km/h
2474 26-10-2008 09:36:03 8.5 C 7.43 g/m*3 8.5 C 0 km/h
2475 26-10-2008 10:01:03 9.4 C 7.69 g/m*3 9.4 C 0 km/h
Sensor: Nr:Datum:Temp:Abs-Feuchte:Windchill:Wind:
Aussen-T/F 2476 26-10-2008 10:26:04 10.9 C 7.16 g/m*3 10.9 C 0 km/h
2477 26-10-2008 10:51:04 11.8 C 7.05 g/m*3 11.8 C 0 km/h
2478 26-10-2008 11:16:04 12.3 C 6.62 g/m*3 12.3 C 0 km/h
2479 26-10-2008 11:41:04 12.7 C 6.57 g/m*3 12.7 C 0 km/h
2480 26-10-2008 12:06:04 13.5 C 6.2 g/m*3 13.5 C 0 km/h
2481 26-10-2008 12:31:04 13.9 C 6.11 g/m*3 13.9 C 0 km/h
2482 26-10-2008 12:56:04 15.6 C 5.59 g/m*3 15.6 C 0 km/h
2483 26-10-2008 13:21:04 16.8 C 5.15 g/m*3 16.8 C 0 km/h
2484 26-10-2008 13:46:04 16 C 5.04 g/m*3 16 C 0 km/h
2485 26-10-2008 14:11:04 15.6 C 4.92 g/m*3 15.6 C 0 km/h
2486 26-10-2008 14:36:04 15.2 C 4.8 g/m*3 15.2 C 0 km/h
2487 26-10-2008 15:01:04 15.1 C 4.9 g/m*3 15.1 C 0 km/h
2488 26-10-2008 15:26:04 15.2 C 4.8 g/m*3 15.2 C 0 km/h
2489 26-10-2008 15:51:04 15.2 C 4.93 g/m*3 15.2 C 0 km/h
2490 26-10-2008 16:16:04 15.1 C 5.03 g/m*3 15.1 C 0 km/h
2491 26-10-2008 16:41:04 14.7 C 5.16 g/m*3 14.7 C 0 km/h
2492 26-10-2008 17:06:04 14.3 C 5.28 g/m*3 14.3 C 0 km/h
2493 26-10-2008 17:31:04 14.5 C 5.1 g/m*3 14.5 C 0 km/h
2494 26-10-2008 17:56:04 14.5 C 5.1 g/m*3 14.5 C 0 km/h
2495 26-10-2008 18:21:04 14.5 C 4.97 g/m*3 14.5 C 0 km/h
2496 26-10-2008 18:46:05 14.3 C 5.04 g/m*3 14.3 C 0 km/h
2497 26-10-2008 19:11:05 14.1 C 5.1 g/m*3 14.1 C 0 km/h
2498 26-10-2008 19:36:05 14.1 C 5.1 g/m*3 14.1 C 0 km/h
2499 26-10-2008 20:01:05 14 C 5.31 g/m*3 14 C 0 km/h
2500 26-10-2008 20:26:05 13.7 C 5.57 g/m*3 13.7 C 0 km/h
Sensor: Nr:Datum:Temp:Abs-Feuchte:Windchill:Wind:
Aussen-T/F 2501 26-10-2008 20:51:05 13.7 C 5.92 g/m*3 13.7 C 0 km/h
2502 26-10-2008 21:16:05 13.6 C 6 g/m*3 13.6 C 0 km/h
2503 26-10-2008 21:41:05 13.6 C 6.36 g/m*3 13.6 C 0 km/h
2504 26-10-2008 22:06:05 13.5 C 6.43 g/m*3 13.5 C 0 km/h
2505 26-10-2008 22:31:05 13.5 C 6.55 g/m*3 13.5 C 0 km/h
2506 26-10-2008 22:56:05 13.4 C 6.63 g/m*3 13.4 C 0 km/h
2507 26-10-2008 23:21:05 13.5 C 6.78 g/m*3 13.5 C 0 km/h
2508 26-10-2008 23:46:05 13.2 C 6.89 g/m*3 13.2 C 0 km/h
2509 27-10-2008 00:11:05 13.2 C 6.89 g/m*3 13.2 C 0 km/h
2510 27-10-2008 00:36:05 13.2 C 7 g/m*3 13.2 C 0 km/h
2511 27-10-2008 01:01:05 12 C 7.89 g/m*3 12 C 0 km/h
2512 27-10-2008 01:26:05 11.4 C 8.31 g/m*3 11.4 C 0 km/h
2513 27-10-2008 01:51:05 11 C 8.41 g/m*3 11 C 0 km/h
2514 27-10-2008 02:16:05 11 C 8.51 g/m*3 11 C 0 km/h
2515 27-10-2008 02:41:05 11.2 C 8.41 g/m*3 11.2 C 0 km/h
2516 27-10-2008 03:06:05 11.1 C 8.36 g/m*3 11.1 C 0 km/h
2517 27-10-2008 03:31:06 10.9 C 8.55 g/m*3 10.9 C 0 km/h
2518 27-10-2008 03:56:06 10.9 C 8.65 g/m*3 10.9 C 0 km/h
2519 27-10-2008 04:21:06 10.7 C 8.74 g/m*3 10.7 C 0 km/h
2520 27-10-2008 04:46:06 10.6 C 8.78 g/m*3 10.6 C 0 km/h
2521 27-10-2008 05:11:06 10.5 C 8.83 g/m*3 10.5 C 0 km/h
2522 27-10-2008 05:36:06 10.5 C 8.92 g/m*3 10.5 C 0 km/h
2523 27-10-2008 06:01:06 10.4 C 8.87 g/m*3 10.4 C 0 km/h
2524 27-10-2008 06:26:06 10.3 C 8.81 g/m*3 10.3 C 0 km/h
2525 27-10-2008 06:51:06 10.2 C 8.76 g/m*3 10.2 C 0 km/h
Sensor: Nr:Datum:Temp:Abs-Feuchte:Windchill:Wind:
Aussen-T/F 2526 27-10-2008 07:16:06 10.2 C 8.85 g/m*3 10.2 C 0 km/h
2527 27-10-2008 07:41:06 10.1 C 8.79 g/m*3 10.1 C 0 km/h
2528 27-10-2008 08:06:06 10.1 C 8.79 g/m*3 10.1 C 0 km/h
2529 27-10-2008 08:31:06 10.2 C 8.95 g/m*3 10.2 C 0 km/h
2530 27-10-2008 08:56:06 10.3 C 9 g/m*3 10.3 C 0 km/h
2531 27-10-2008 09:21:06 10.4 C 9.06 g/m*3 10.4 C 0 km/h
2532 27-10-2008 09:46:06 10.4 C 9.06 g/m*3 10.4 C 0 km/h
2533 27-10-2008 10:11:06 10.4 C 9.06 g/m*3 10.4 C 0 km/h
2534 27-10-2008 10:36:06 10.6 C 9.17 g/m*3 10.6 C 0 km/h
2535 27-10-2008 11:01:06 9.5 C 8.56 g/m*3 9.5 C 0 km/h
2536 27-10-2008 11:26:06 9.5 C 8.56 g/m*3 9.5 C 0 km/h
2537 27-10-2008 11:51:07 10.1 C 8.79 g/m*3 10.1 C 0 km/h
2538 27-10-2008 12:16:07 10.2 C 8.85 g/m*3 10.2 C 0 km/h
2539 27-10-2008 12:41:07 10.5 C 9.02 g/m*3 10.5 C 0 km/h
2540 27-10-2008 13:06:07 10.4 C 8.67 g/m*3 10.4 C 0 km/h
2541 27-10-2008 13:31:07 10.4 C 8.58 g/m*3 10.4 C 0 km/h
2542 27-10-2008 13:56:07 10.7 C 8.15 g/m*3 10.7 C 0 km/h
2543 27-10-2008 14:21:07 11.9 C 8.37 g/m*3 11.9 C 0 km/h
2544 27-10-2008 14:46:07 12 C 7.99 g/m*3 12 C 0 km/h
2545 27-10-2008 15:11:07 14 C 8.81 g/m*3 14 C 0 km/h
2546 27-10-2008 15:36:07 13.5 C 7.49 g/m*3 13.5 C 0 km/h
2547 27-10-2008 16:01:07 13.4 C 7.32 g/m*3 13.4 C 0 km/h
2548 27-10-2008 16:26:07 11.5 C 7.13 g/m*3 11.5 C 0 km/h
2549 27-10-2008 16:51:07 11.2 C 7.3 g/m*3 11.2 C 0 km/h
2550 27-10-2008 17:16:07 10.7 C 7.46 g/m*3 10.7 C 0 km/h
Sensor: Nr:Datum:Temp:Abs-Feuchte:Windchill:Wind:
Aussen-T/F 2551 27-10-2008 17:41:07 10.2 C 6.66 g/m*3 10.2 C 0 km/h
2552 27-10-2008 18:06:07 9.8 C 6.77 g/m*3 9.8 C 0 km/h
2553 27-10-2008 18:31:07 9.9 C 6.82 g/m*3 9.9 C 0 km/h
2554 27-10-2008 18:56:07 9.5 C 6.92 g/m*3 9.5 C 0 km/h
2555 27-10-2008 19:21:07 8.8 C 6.88 g/m*3 8.8 C 0 km/h
2556 27-10-2008 19:46:07 9.1 C 7.01 g/m*3 9.1 C 0 km/h
2557 27-10-2008 20:11:08 8.8 C 7.05 g/m*3 8.8 C 0 km/h
2558 27-10-2008 20:36:08 8.4 C 6.87 g/m*3 8.4 C 0 km/h
2559 27-10-2008 21:01:08 8.1 C 6.82 g/m*3 8.1 C 0 km/h
2560 27-10-2008 21:26:08 7.9 C 6.82 g/m*3 7.9 C 0 km/h
2561 27-10-2008 21:51:08 7.1 C 6.55 g/m*3 7.1 C 0 km/h
2562 27-10-2008 22:16:08 7.3 C 6.79 g/m*3 7.3 C 0 km/h
2563 27-10-2008 22:41:08 7.2 C 6.67 g/m*3 7.2 C 0 km/h
2564 27-10-2008 23:06:08 6.8 C 6.65 g/m*3 6.8 C 0 km/h
2565 27-10-2008 23:31:08 6.3 C 6.51 g/m*3 6.3 C 0 km/h
2566 27-10-2008 23:56:08 6.1 C 6.5 g/m*3 6.1 C 0 km/h
2567 28-10-2008 00:21:08 5.8 C 6.45 g/m*3 5.8 C 0 km/h
2568 28-10-2008 00:46:08 6.1 C 6.58 g/m*3 6.1 C 0 km/h
2569 28-10-2008 01:11:08 6.1 C 6.65 g/m*3 6.1 C 0 km/h
2570 28-10-2008 01:36:08 5.8 C 6.52 g/m*3 5.8 C 0 km/h
2571 28-10-2008 02:01:08 6 C 6.6 g/m*3 6 C 0 km/h
2572 28-10-2008 02:26:08 6.3 C 6.81 g/m*3 6.3 C 0 km/h
2573 28-10-2008 02:51:08 6.4 C 6.78 g/m*3 6.4 C 0 km/h
2574 28-10-2008 03:16:08 6.4 C 6.78 g/m*3 6.4 C 0 km/h
2575 28-10-2008 03:41:08 6.6 C 6.87 g/m*3 6.6 C 0 km/h
Sensor: Nr:Datum:Temp:Abs-Feuchte:Windchill:Wind:
Aussen-T/F 2576 28-10-2008 04:06:08 6.5 C 6.82 g/m*3 6.5 C 0 km/h
2577 28-10-2008 04:31:08 6.5 C 6.82 g/m*3 6.5 C 0 km/h
2578 28-10-2008 04:56:09 6.5 C 6.9 g/m*3 6.5 C 0 km/h
2579 28-10-2008 05:21:09 6.5 C 6.9 g/m*3 6.5 C 0 km/h
2580 28-10-2008 05:46:09 6.4 C 6.93 g/m*3 6.4 C 0 km/h
2581 28-10-2008 06:11:09 6.3 C 6.88 g/m*3 6.3 C 0 km/h
2582 28-10-2008 06:36:09 6.5 C 6.97 g/m*3 6.5 C 0 km/h
2583 28-10-2008 07:01:09 6.2 C 6.84 g/m*3 6.2 C 0 km/h
2584 28-10-2008 07:26:09 6 C 6.75 g/m*3 6 C 0 km/h
2585 28-10-2008 07:51:09 6 C 6.75 g/m*3 6 C 0 km/h
2586 28-10-2008 08:16:09 6.2 C 6.91 g/m*3 6.2 C 0 km/h
2587 28-10-2008 08:41:09 6.6 C 7.1 g/m*3 6.6 C 0 km/h
2588 28-10-2008 09:06:09 7 C 7.21 g/m*3 7 C 0 km/h
2589 28-10-2008 09:31:09 7.3 C 7.19 g/m*3 7.3 C 0 km/h
2590 28-10-2008 09:56:09 7.8 C 6.94 g/m*3 7.8 C 0 km/h
2591 28-10-2008 10:21:09 7.9 C 6.65 g/m*3 7.9 C 0 km/h
2592 28-10-2008 10:46:09 8.5 C 6.92 g/m*3 8.5 C 0 km/h
2593 28-10-2008 11:11:09 9.2 C 6.88 g/m*3 9.2 C 0 km/h
2594 28-10-2008 11:36:09 10.1 C 6.71 g/m*3 10.1 C 0 km/h
2595 28-10-2008 12:01:09 10.5 C 6.3 g/m*3 10.5 C 0 km/h
2596 28-10-2008 12:26:09 10.5 C 5.82 g/m*3 10.5 C 0 km/h
2597 28-10-2008 12:51:09 10.3 C 4.98 g/m*3 10.3 C 0 km/h
2598 28-10-2008 13:16:10 10.6 C 5.37 g/m*3 10.6 C 0 km/h
2599 28-10-2008 13:41:10 10.5 C 5.43 g/m*3 10.5 C 0 km/h
2600 28-10-2008 14:06:10 10.1 C 5.3 g/m*3 10.1 C 0 km/h
Sensor: Nr:Datum:Temp:Abs-Feuchte:Windchill:Wind:
Aussen-T/F 2601 28-10-2008 14:31:10 10.2 C 5.33 g/m*3 10.2 C 0 km/h
2602 28-10-2008 14:56:10 10.4 C 5.4 g/m*3 10.4 C 0 km/h
2603 28-10-2008 15:21:10 10.2 C 5.23 g/m*3 10.2 C 0 km/h
2604 28-10-2008 15:46:10 9.8 C 5.38 g/m*3 9.8 C 0 km/h
2605 28-10-2008 16:11:10 9 C 5.73 g/m*3 9 C 0 km/h
2606 28-10-2008 16:36:10 8.4 C 6.19 g/m*3 8.4 C 0 km/h
2607 28-10-2008 17:01:10 7.8 C 6.12 g/m*3 7.8 C 0 km/h
2608 28-10-2008 17:26:10 7 C 5.97 g/m*3 7 C 0 km/h
2609 28-10-2008 17:51:10 6.5 C 5.92 g/m*3 6.5 C 0 km/h
2610 28-10-2008 18:16:10 6.2 C 5.96 g/m*3 6.2 C 0 km/h
2611 28-10-2008 18:41:10 5.5 C 5.76 g/m*3 5.5 C 0 km/h
2612 28-10-2008 19:06:10 5.4 C 5.72 g/m*3 5.4 C 0 km/h
2613 28-10-2008 19:31:10 5.2 C 5.78 g/m*3 5.2 C 0 km/h
2614 28-10-2008 19:56:10 5 C 5.71 g/m*3 5 C 0 km/h
2615 28-10-2008 20:21:10 4.9 C 5.81 g/m*3 4.9 C 0 km/h
2616 28-10-2008 20:46:10 4.7 C 5.73 g/m*3 4.7 C 0 km/h
2617 28-10-2008 21:11:10 4.4 C 5.62 g/m*3 4.4 C 0 km/h
2618 28-10-2008 21:36:10 4.2 C 5.61 g/m*3 4.2 C 0 km/h
2619 28-10-2008 22:01:11 3.9 C 5.49 g/m*3 3.9 C 0 km/h
2620 28-10-2008 22:26:11 3.8 C 5.58 g/m*3 3.8 C 0 km/h
2621 28-10-2008 22:51:11 3.6 C 5.51 g/m*3 3.6 C 0 km/h
2622 28-10-2008 23:16:11 3.4 C 5.44 g/m*3 3.4 C 0 km/h
2623 28-10-2008 23:41:11 3.2 C 5.36 g/m*3 3.2 C 0 km/h
2624 29-10-2008 00:06:11 3.2 C 5.42 g/m*3 3.2 C 0 km/h
2625 29-10-2008 00:31:11 3.1 C 5.39 g/m*3 3.1 C 0 km/h
Sensor: Nr:Datum:Temp:Abs-Feuchte:Windchill:Wind:
Aussen-T/F 2626 29-10-2008 00:56:11 2.8 C 5.34 g/m*3 2.8 C 0 km/h
2627 29-10-2008 01:21:11 2.8 C 5.4 g/m*3 2.8 C 0 km/h
2628 29-10-2008 01:46:11 2.9 C 5.43 g/m*3 2.9 C 0 km/h
2629 29-10-2008 02:11:11 3 C 5.47 g/m*3 3 C 0 km/h
2630 29-10-2008 02:36:11 2.9 C 5.49 g/m*3 2.9 C 0 km/h
2631 29-10-2008 03:01:11 3.1 C 5.51 g/m*3 3.1 C 0 km/h
2632 29-10-2008 03:26:11 3.4 C 5.68 g/m*3 3.4 C 0 km/h
2633 29-10-2008 03:51:11 3.6 C 5.76 g/m*3 3.6 C 0 km/h
2634 29-10-2008 04:16:11 3.6 C 5.69 g/m*3 3.6 C 0 km/h
2635 29-10-2008 04:41:11 3.4 C 5.62 g/m*3 3.4 C 0 km/h
2636 29-10-2008 05:06:11 3.5 C 5.66 g/m*3 3.5 C 0 km/h
2637 29-10-2008 05:31:11 3.7 C 5.73 g/m*3 3.7 C 0 km/h
2638 29-10-2008 05:56:11 3.7 C 5.73 g/m*3 3.7 C 0 km/h
2639 29-10-2008 06:21:11 3.7 C 5.73 g/m*3 3.7 C 0 km/h
2640 29-10-2008 06:46:12 3.7 C 5.67 g/m*3 3.7 C 0 km/h
2641 29-10-2008 07:11:12 3.7 C 5.67 g/m*3 3.7 C 0 km/h
2642 29-10-2008 07:36:12 3.6 C 5.63 g/m*3 3.6 C 0 km/h
2643 29-10-2008 08:01:12 3.6 C 5.63 g/m*3 3.6 C 0 km/h
2644 29-10-2008 08:26:12 3.9 C 5.75 g/m*3 3.9 C 0 km/h
2645 29-10-2008 08:51:12 3.9 C 5.68 g/m*3 3.9 C 0 km/h
2646 29-10-2008 09:16:12 4.4 C 5.75 g/m*3 4.4 C 0 km/h
2647 29-10-2008 09:41:12 4.6 C 5.69 g/m*3 4.6 C 0 km/h
2648 29-10-2008 10:06:12 5 C 5.57 g/m*3 5 C 0 km/h
2649 29-10-2008 10:31:12 5.6 C 5.66 g/m*3 5.6 C 0 km/h
2650 29-10-2008 10:56:12 5.6 C 5.59 g/m*3 5.6 C 0 km/h
Sensor: Nr:Datum:Temp:Abs-Feuchte:Windchill:Wind:
Aussen-T/F 2651 29-10-2008 11:21:12 6.5 C 5.77 g/m*3 6.5 C 0 km/h
2652 29-10-2008 11:46:12 7.2 C 5.65 g/m*3 7.2 C 0 km/h
2653 29-10-2008 12:11:12 7.1 C 5.54 g/m*3 7.1 C 0 km/h
2654 29-10-2008 12:36:12 7.5 C 5.76 g/m*3 7.5 C 0 km/h
2655 29-10-2008 13:01:12 8 C 5.37 g/m*3 8 C 0 km/h
2656 29-10-2008 13:26:12 8.4 C 5.51 g/m*3 8.4 C 0 km/h
2657 29-10-2008 13:51:12 9.2 C 5.63 g/m*3 9.2 C 0 km/h
2658 29-10-2008 14:16:12 9.1 C 5.41 g/m*3 9.1 C 0 km/h
2659 29-10-2008 14:41:12 10.2 C 5.42 g/m*3 10.2 C 0 km/h
2660 29-10-2008 15:06:13 10.7 C 5.11 g/m*3 10.7 C 0 km/h
2661 29-10-2008 15:31:13 9.8 C 5.1 g/m*3 9.8 C 0 km/h
2662 29-10-2008 15:56:13 9.4 C 5.34 g/m*3 9.4 C 0 km/h
2663 29-10-2008 16:21:13 8.4 C 5.34 g/m*3 8.4 C 0 km/h
2664 29-10-2008 16:46:13 7.9 C 5.5 g/m*3 7.9 C 0 km/h
2665 29-10-2008 17:11:13 7.1 C 5.38 g/m*3 7.1 C 0 km/h
2666 29-10-2008 17:36:13 6.7 C 5.47 g/m*3 6.7 C 0 km/h
2667 29-10-2008 18:01:13 6.4 C 5.59 g/m*3 6.4 C 0 km/h
2668 29-10-2008 18:26:13 6.2 C 5.52 g/m*3 6.2 C 0 km/h
2669 29-10-2008 18:51:13 6 C 5.52 g/m*3 6 C 0 km/h
2670 29-10-2008 19:16:13 5.9 C 5.62 g/m*3 5.9 C 0 km/h
2671 29-10-2008 19:41:13 5.9 C 5.7 g/m*3 5.9 C 0 km/h
2672 29-10-2008 20:06:13 5.8 C 5.66 g/m*3 5.8 C 0 km/h
2673 29-10-2008 20:31:13 5.4 C 5.58 g/m*3 5.4 C 0 km/h
2674 29-10-2008 20:56:13 5.1 C 5.54 g/m*3 5.1 C 0 km/h
2675 29-10-2008 21:21:13 5.3 C 5.54 g/m*3 5.3 C 0 km/h
Sensor: Nr:Datum:Temp:Abs-Feuchte:Windchill:Wind:
Aussen-T/F 2676 29-10-2008 21:46:13 5.1 C 5.47 g/m*3 5.1 C 0 km/h
2677 29-10-2008 22:11:13 5.2 C 5.51 g/m*3 5.2 C 0 km/h
2678 29-10-2008 22:36:13 5.2 C 5.58 g/m*3 5.2 C 0 km/h
2679 29-10-2008 23:01:13 5.2 C 5.65 g/m*3 5.2 C 0 km/h
2680 29-10-2008 23:26:13 5.2 C 5.65 g/m*3 5.2 C 0 km/h
2681 29-10-2008 23:51:14 5 C 5.64 g/m*3 5 C 0 km/h
2682 30-10-2008 00:16:14 5 C 5.71 g/m*3 5 C 0 km/h
2683 30-10-2008 00:41:14 4.9 C 5.74 g/m*3 4.9 C 0 km/h
2684 30-10-2008 01:06:14 4.7 C 5.73 g/m*3 4.7 C 0 km/h
2685 30-10-2008 01:31:14 4.8 C 5.83 g/m*3 4.8 C 0 km/h
2686 30-10-2008 01:56:14 4.8 C 5.83 g/m*3 4.8 C 0 km/h
2687 30-10-2008 02:21:14 5 C 5.84 g/m*3 5 C 0 km/h
2688 30-10-2008 02:46:14 4.8 C 5.83 g/m*3 4.8 C 0 km/h
2689 30-10-2008 03:11:14 4.8 C 5.9 g/m*3 4.8 C 0 km/h
2690 30-10-2008 03:36:14 4.7 C 5.93 g/m*3 4.7 C 0 km/h
2691 30-10-2008 04:01:14 4.7 C 6 g/m*3 4.7 C 0 km/h
2692 30-10-2008 04:26:14 4.5 C 5.98 g/m*3 4.5 C 0 km/h
2693 30-10-2008 04:51:14 4.5 C 5.98 g/m*3 4.5 C 0 km/h
2694 30-10-2008 05:16:14 4.5 C 6.05 g/m*3 4.5 C 0 km/h
2695 30-10-2008 05:41:14 4.5 C 6.05 g/m*3 4.5 C 0 km/h
2696 30-10-2008 06:06:14 4.2 C 5.93 g/m*3 4.2 C 0 km/h
2697 30-10-2008 06:31:14 4.2 C 5.93 g/m*3 4.2 C 0 km/h
2698 30-10-2008 06:56:14 4.1 C 5.89 g/m*3 4.1 C 0 km/h
2699 30-10-2008 07:21:14 3.9 C 5.87 g/m*3 3.9 C 0 km/h
2700 30-10-2008 07:46:14 3.9 C 5.94 g/m*3 3.9 C 0 km/h
Sensor: Nr:Datum:Temp:Abs-Feuchte:Windchill:Wind:
Aussen-T/F 2701 30-10-2008 08:11:15 4 C 5.98 g/m*3 4 C 0 km/h
2702 30-10-2008 08:36:15 4.2 C 6.06 g/m*3 4.2 C 0 km/h
2703 30-10-2008 09:01:15 4.6 C 6.22 g/m*3 4.6 C 0 km/h
2704 30-10-2008 09:26:15 4.8 C 6.3 g/m*3 4.8 C 0 km/h
2705 30-10-2008 09:51:15 4.8 C 6.24 g/m*3 4.8 C 0 km/h
2706 30-10-2008 10:16:15 4.7 C 6 g/m*3 4.7 C 0 km/h
2707 30-10-2008 10:41:15 4.7 C 5.93 g/m*3 4.7 C 0 km/h
2708 30-10-2008 11:06:15 5.1 C 6.02 g/m*3 5.1 C 0 km/h
2709 30-10-2008 11:31:15 5.3 C 6.1 g/m*3 5.3 C 0 km/h
2710 30-10-2008 11:56:15 5.8 C 6.23 g/m*3 5.8 C 0 km/h
2711 30-10-2008 12:21:15 5.7 C 6.05 g/m*3 5.7 C 0 km/h
2712 30-10-2008 12:46:15 5.6 C 6.08 g/m*3 5.6 C 0 km/h
2713 30-10-2008 13:11:15 5.7 C 6.12 g/m*3 5.7 C 0 km/h
2714 30-10-2008 13:36:15 5.3 C 5.82 g/m*3 5.3 C 0 km/h
2715 30-10-2008 14:01:15 5.7 C 6.05 g/m*3 5.7 C 0 km/h
2716 30-10-2008 14:26:15 5.6 C 6.08 g/m*3 5.6 C 0 km/h
2717 30-10-2008 14:51:15 5.4 C 6 g/m*3 5.4 C 0 km/h
2718 30-10-2008 15:16:15 5.8 C 6.16 g/m*3 5.8 C 0 km/h
2719 30-10-2008 15:41:15 5.7 C 6.05 g/m*3 5.7 C 0 km/h
2720 30-10-2008 16:06:15 5.7 C 6.12 g/m*3 5.7 C 0 km/h
2721 30-10-2008 16:31:15 5.7 C 6.19 g/m*3 5.7 C 0 km/h
2722 30-10-2008 16:56:16 5.4 C 6.07 g/m*3 5.4 C 0 km/h
2723 30-10-2008 17:21:16 4.8 C 5.9 g/m*3 4.8 C 0 km/h
2724 30-10-2008 17:46:16 4.7 C 5.86 g/m*3 4.7 C 0 km/h
2725 30-10-2008 18:11:16 4.8 C 5.97 g/m*3 4.8 C 0 km/h
Sensor: Nr:Datum:Temp:Abs-Feuchte:Windchill:Wind:
Aussen-T/F 2726 30-10-2008 18:36:16 4.6 C 5.89 g/m*3 4.6 C 0 km/h
2727 30-10-2008 19:01:16 4.6 C 6.02 g/m*3 4.6 C 0 km/h
2728 30-10-2008 19:26:16 4.6 C 6.02 g/m*3 4.6 C 0 km/h
2729 30-10-2008 19:51:16 4.6 C 6.09 g/m*3 4.6 C 0 km/h
2730 30-10-2008 20:16:16 4.4 C 6.01 g/m*3 4.4 C 0 km/h
2731 30-10-2008 20:41:16 4.5 C 6.11 g/m*3 4.5 C 0 km/h
2732 30-10-2008 21:06:16 4.4 C 6.07 g/m*3 4.4 C 0 km/h
2733 30-10-2008 21:31:16 4.3 C 6.03 g/m*3 4.3 C 0 km/h
2734 30-10-2008 21:56:16 4.3 C 6.03 g/m*3 4.3 C 0 km/h
2735 30-10-2008 22:21:16 4.3 C 6.1 g/m*3 4.3 C 0 km/h
2736 30-10-2008 22:46:16 4.3 C 6.1 g/m*3 4.3 C 0 km/h
2737 30-10-2008 23:11:16 4.1 C 6.02 g/m*3 4.1 C 0 km/h
2738 30-10-2008 23:36:16 3.9 C 5.94 g/m*3 3.9 C 0 km/h
2739 31-10-2008 00:01:16 3.8 C 5.96 g/m*3 3.8 C 0 km/h
2740 31-10-2008 00:26:16 3.7 C 5.92 g/m*3 3.7 C 0 km/h
2741 31-10-2008 00:51:16 3.4 C 5.8 g/m*3 3.4 C 0 km/h
2742 31-10-2008 01:16:16 3.2 C 5.72 g/m*3 3.2 C 0 km/h
2743 31-10-2008 01:41:17 2.8 C 5.57 g/m*3 2.8 C 0 km/h
2744 31-10-2008 02:06:17 2.7 C 5.54 g/m*3 2.7 C 0 km/h
2745 31-10-2008 02:31:17 2.9 C 5.61 g/m*3 2.9 C 0 km/h
2746 31-10-2008 02:56:17 3.2 C 5.72 g/m*3 3.2 C 0 km/h
2747 31-10-2008 03:21:17 3.1 C 5.69 g/m*3 3.1 C 0 km/h
2748 31-10-2008 03:46:17 3 C 5.65 g/m*3 3 C 0 km/h
2749 31-10-2008 04:11:17 3.1 C 5.69 g/m*3 3.1 C 0 km/h
2750 31-10-2008 04:36:17 3.2 C 5.72 g/m*3 3.2 C 0 km/h
Sensor: Nr:Datum:Temp:Abs-Feuchte:Windchill:Wind:
Aussen-T/F 2751 31-10-2008 05:01:17 3.3 C 5.76 g/m*3 3.3 C 0 km/h
2752 31-10-2008 05:26:17 3.6 C 5.88 g/m*3 3.6 C 0 km/h
2753 31-10-2008 05:51:17 3.7 C 5.92 g/m*3 3.7 C 0 km/h
2754 31-10-2008 06:16:17 3.8 C 5.96 g/m*3 3.8 C 0 km/h
2755 31-10-2008 06:41:17 4 C 6.04 g/m*3 4 C 0 km/h
2756 31-10-2008 07:06:17 4 C 6.04 g/m*3 4 C 0 km/h
2757 31-10-2008 07:31:17 4 C 6.04 g/m*3 4 C 0 km/h
2758 31-10-2008 07:56:17 4.1 C 6.08 g/m*3 4.1 C 0 km/h
2759 31-10-2008 08:21:17 4.3 C 6.16 g/m*3 4.3 C 0 km/h
2760 31-10-2008 08:46:17 4.5 C 6.24 g/m*3 4.5 C 0 km/h
2761 31-10-2008 09:11:17 4.9 C 6.41 g/m*3 4.9 C 0 km/h
2762 31-10-2008 09:36:17 5.4 C 6.63 g/m*3 5.4 C 0 km/h
2763 31-10-2008 10:01:17 5.8 C 6.81 g/m*3 5.8 C 0 km/h
2764 31-10-2008 10:26:18 6.3 C 6.74 g/m*3 6.3 C 0 km/h
2765 31-10-2008 10:51:18 6.5 C 6.6 g/m*3 6.5 C 0 km/h
2766 31-10-2008 11:16:18 7.1 C 6.55 g/m*3 7.1 C 0 km/h
2767 31-10-2008 11:41:18 7 C 6.51 g/m*3 7 C 0 km/h
2768 31-10-2008 12:06:18 7 C 6.66 g/m*3 7 C 0 km/h
2769 31-10-2008 12:31:18 7.8 C 7.02 g/m*3 7.8 C 0 km/h
2770 31-10-2008 12:56:18 8 C 6.7 g/m*3 8 C 0 km/h
2771 31-10-2008 13:21:18 8 C 6.7 g/m*3 8 C 0 km/h
2772 31-10-2008 13:46:18 8.8 C 6.7 g/m*3 8.8 C 0 km/h
2773 31-10-2008 14:11:18 9.5 C 6.74 g/m*3 9.5 C 0 km/h
2774 31-10-2008 14:36:18 10 C 6.77 g/m*3 10 C 0 km/h
2775 31-10-2008 15:01:18 11.2 C 6.99 g/m*3 11.2 C 0 km/h
Sensor: Nr:Datum:Temp:Abs-Feuchte:Windchill:Wind:
Aussen-T/F 2776 31-10-2008 15:26:18 11.1 C 6.35 g/m*3 11.1 C 0 km/h
2777 31-10-2008 15:51:18 10.2 C 6.38 g/m*3 10.2 C 0 km/h
2778 31-10-2008 16:16:18 9.6 C 6.5 g/m*3 9.6 C 0 km/h
2779 31-10-2008 16:41:18 8.9 C 6.48 g/m*3 8.9 C 0 km/h
2780 31-10-2008 17:06:18 8.4 C 6.53 g/m*3 8.4 C 0 km/h
2781 31-10-2008 17:31:18 8.1 C 6.32 g/m*3 8.1 C 0 km/h
2782 31-10-2008 17:56:18 7.9 C 6.32 g/m*3 7.9 C 0 km/h
2783 31-10-2008 18:21:18 7.3 C 6.32 g/m*3 7.3 C 0 km/h
2784 31-10-2008 18:46:19 6.8 C 6.42 g/m*3 6.8 C 0 km/h
2785 31-10-2008 19:11:19 7 C 6.51 g/m*3 7 C 0 km/h
2786 31-10-2008 19:36:19 6.8 C 6.5 g/m*3 6.8 C 0 km/h
2787 31-10-2008 20:01:19 6.7 C 6.53 g/m*3 6.7 C 0 km/h
2788 31-10-2008 20:26:19 6.5 C 6.52 g/m*3 6.5 C 0 km/h
2789 31-10-2008 20:51:19 6.4 C 6.56 g/m*3 6.4 C 0 km/h
2790 31-10-2008 21:16:19 6.2 C 6.47 g/m*3 6.2 C 0 km/h
2791 31-10-2008 21:41:19 6.2 C 6.55 g/m*3 6.2 C 0 km/h
2792 31-10-2008 22:06:19 6.2 C 6.55 g/m*3 6.2 C 0 km/h
2793 31-10-2008 22:31:19 6.2 C 6.55 g/m*3 6.2 C 0 km/h
2794 31-10-2008 22:56:19 6.3 C 6.66 g/m*3 6.3 C 0 km/h
2795 31-10-2008 23:21:19 6.5 C 6.75 g/m*3 6.5 C 0 km/h
2796 31-10-2008 23:46:19 6.5 C 6.67 g/m*3 6.5 C 0 km/h
2797 01-11-2008 00:11:19 6.4 C 6.63 g/m*3 6.4 C 0 km/h
2798 01-11-2008 00:36:19 6.3 C 6.66 g/m*3 6.3 C 0 km/h
2799 01-11-2008 01:01:19 6.4 C 6.71 g/m*3 6.4 C 0 km/h
2800 01-11-2008 01:26:19 6.4 C 6.78 g/m*3 6.4 C 0 km/h
Sensor: Nr:Datum:Temp:Abs-Feuchte:Windchill:Wind:
Aussen-T/F 2801 01-11-2008 01:51:19 6.4 C 6.85 g/m*3 6.4 C 0 km/h
2802 01-11-2008 02:16:19 6.3 C 6.81 g/m*3 6.3 C 0 km/h
2803 01-11-2008 02:41:19 6.2 C 6.84 g/m*3 6.2 C 0 km/h
2804 01-11-2008 03:06:19 6.2 C 6.91 g/m*3 6.2 C 0 km/h
2805 01-11-2008 03:31:20 6 C 6.82 g/m*3 6 C 0 km/h
2806 01-11-2008 03:56:20 5.9 C 6.85 g/m*3 5.9 C 0 km/h
2807 01-11-2008 04:21:20 6 C 6.9 g/m*3 6 C 0 km/h
2808 01-11-2008 04:46:20 5.9 C 6.85 g/m*3 5.9 C 0 km/h
2809 01-11-2008 05:11:20 6 C 6.9 g/m*3 6 C 0 km/h
2810 01-11-2008 05:36:20 6 C 6.9 g/m*3 6 C 0 km/h
2811 01-11-2008 06:01:20 5.9 C 6.85 g/m*3 5.9 C 0 km/h
2812 01-11-2008 06:26:20 5.9 C 6.85 g/m*3 5.9 C 0 km/h
2813 01-11-2008 06:51:20 5.7 C 6.76 g/m*3 5.7 C 0 km/h
2814 01-11-2008 07:16:20 5.5 C 6.67 g/m*3 5.5 C 0 km/h
2815 01-11-2008 07:41:20 5.3 C 6.58 g/m*3 5.3 C 0 km/h
2816 01-11-2008 08:06:20 5.6 C 6.72 g/m*3 5.6 C 0 km/h
2817 01-11-2008 08:31:20 5.9 C 6.85 g/m*3 5.9 C 0 km/h
2818 01-11-2008 08:56:20 6.5 C 7.12 g/m*3 6.5 C 0 km/h
2819 01-11-2008 09:21:20 7.1 C 7.41 g/m*3 7.1 C 0 km/h
2820 01-11-2008 09:46:20 7.4 C 7.55 g/m*3 7.4 C 0 km/h
2821 01-11-2008 10:11:20 7.9 C 7.56 g/m*3 7.9 C 0 km/h
2822 01-11-2008 10:36:20 8.2 C 7.2 g/m*3 8.2 C 0 km/h
2823 01-11-2008 11:01:20 8.5 C 7.09 g/m*3 8.5 C 0 km/h
2824 01-11-2008 11:26:20 8.7 C 7.01 g/m*3 8.7 C 0 km/h
2825 01-11-2008 11:51:20 9.3 C 6.74 g/m*3 9.3 C 0 km/h
Sensor: Nr:Datum:Temp:Abs-Feuchte:Windchill:Wind:
Aussen-T/F 2826 01-11-2008 12:16:21 9.6 C 6.78 g/m*3 9.6 C 0 km/h
2827 01-11-2008 12:41:21 10 C 6.58 g/m*3 10 C 0 km/h
2828 01-11-2008 13:06:21 10 C 6.58 g/m*3 10 C 0 km/h
2829 01-11-2008 13:31:21 10.3 C 6.7 g/m*3 10.3 C 0 km/h
2830 01-11-2008 13:56:21 10.3 C 6.8 g/m*3 10.3 C 0 km/h
2831 01-11-2008 14:21:21 10.4 C 6.84 g/m*3 10.4 C 0 km/h
2832 01-11-2008 14:46:21 10.5 C 6.89 g/m*3 10.5 C 0 km/h
2833 01-11-2008 15:11:21 10.8 C 6.92 g/m*3 10.8 C 0 km/h
2834 01-11-2008 15:36:21 10.5 C 7.18 g/m*3 10.5 C 0 km/h
2835 01-11-2008 16:01:21 10.1 C 7.28 g/m*3 10.1 C 0 km/h
2836 01-11-2008 16:26:21 9.8 C 7.52 g/m*3 9.8 C 0 km/h
2837 01-11-2008 16:51:21 9.5 C 7.55 g/m*3 9.5 C 0 km/h
2838 01-11-2008 17:16:21 9.4 C 7.6 g/m*3 9.4 C 0 km/h
2839 01-11-2008 17:41:21 9.5 C 7.74 g/m*3 9.5 C 0 km/h
2840 01-11-2008 18:06:21 9.4 C 7.69 g/m*3 9.4 C 0 km/h
2841 01-11-2008 18:31:21 9.2 C 7.59 g/m*3 9.2 C 0 km/h
2842 01-11-2008 18:56:21 9.2 C 7.68 g/m*3 9.2 C 0 km/h
2843 01-11-2008 19:21:21 9.2 C 7.68 g/m*3 9.2 C 0 km/h
2844 01-11-2008 19:46:21 9.2 C 7.68 g/m*3 9.2 C 0 km/h
2845 01-11-2008 20:11:21 9 C 7.41 g/m*3 9 C 0 km/h
2846 01-11-2008 20:36:22 8.9 C 7.53 g/m*3 8.9 C 0 km/h
2847 01-11-2008 21:01:22 8.7 C 7.52 g/m*3 8.7 C 0 km/h
2848 01-11-2008 21:26:22 8.4 C 7.38 g/m*3 8.4 C 0 km/h
2849 01-11-2008 21:51:22 8.3 C 7.42 g/m*3 8.3 C 0 km/h
2850 01-11-2008 22:16:22 8.6 C 7.65 g/m*3 8.6 C 0 km/h
Sensor: Nr:Datum:Temp:Abs-Feuchte:Windchill:Wind:
Aussen-T/F 2851 01-11-2008 22:41:22 8.6 C 7.73 g/m*3 8.6 C 0 km/h
2852 01-11-2008 23:06:22 8.5 C 7.68 g/m*3 8.5 C 0 km/h
2853 01-11-2008 23:31:22 8.4 C 7.63 g/m*3 8.4 C 0 km/h
2854 01-11-2008 23:56:22 8.4 C 7.72 g/m*3 8.4 C 0 km/h
2855 02-11-2008 00:21:22 8.5 C 7.77 g/m*3 8.5 C 0 km/h
2856 02-11-2008 00:46:22 8.5 C 7.85 g/m*3 8.5 C 0 km/h
2857 02-11-2008 01:11:22 9.6 C 7.79 g/m*3 9.6 C 0 km/h
2858 02-11-2008 01:36:22 9.8 C 7.42 g/m*3 9.8 C 0 km/h
2859 02-11-2008 02:01:22 9.3 C 7.46 g/m*3 9.3 C 0 km/h
2860 02-11-2008 02:26:22 9.4 C 7.51 g/m*3 9.4 C 0 km/h
2861 02-11-2008 02:51:22 9 C 7.41 g/m*3 9 C 0 km/h
2862 02-11-2008 03:16:22 8.9 C 7.53 g/m*3 8.9 C 0 km/h
2863 02-11-2008 03:41:22 8.5 C 7.43 g/m*3 8.5 C 0 km/h
2864 02-11-2008 04:06:22 8.3 C 7.5 g/m*3 8.3 C 0 km/h
2865 02-11-2008 04:31:22 8.1 C 7.49 g/m*3 8.1 C 0 km/h
2866 02-11-2008 04:56:22 7.9 C 7.47 g/m*3 7.9 C 0 km/h
2867 02-11-2008 05:21:23 7.6 C 7.41 g/m*3 7.6 C 0 km/h
2868 02-11-2008 05:46:23 7.6 C 7.41 g/m*3 7.6 C 0 km/h
2869 02-11-2008 06:11:23 7.4 C 7.4 g/m*3 7.4 C 0 km/h
2870 02-11-2008 06:36:23 7.5 C 7.52 g/m*3 7.5 C 0 km/h
2871 02-11-2008 07:01:23 7.4 C 7.48 g/m*3 7.4 C 0 km/h
2872 02-11-2008 07:26:23 7.3 C 7.43 g/m*3 7.3 C 0 km/h
2873 02-11-2008 07:51:23 7.1 C 7.33 g/m*3 7.1 C 0 km/h
2874 02-11-2008 08:16:23 7.3 C 7.43 g/m*3 7.3 C 0 km/h
2875 02-11-2008 08:41:23 7.6 C 7.65 g/m*3 7.6 C 0 km/h
Sensor: Nr:Datum:Temp:Abs-Feuchte:Windchill:Wind:
Aussen-T/F 2876 02-11-2008 09:06:23 7.6 C 7.65 g/m*3 7.6 C 0 km/h
2877 02-11-2008 09:31:23 8.1 C 7.82 g/m*3 8.1 C 0 km/h
2878 02-11-2008 09:56:23 8.7 C 8.13 g/m*3 8.7 C 0 km/h
2879 02-11-2008 10:21:23 9.5 C 8.47 g/m*3 9.5 C 0 km/h
2880 02-11-2008 10:46:23 10.1 C 8.42 g/m*3 10.1 C 0 km/h
2881 02-11-2008 11:11:23 10.8 C 8.2 g/m*3 10.8 C 0 km/h
2882 02-11-2008 11:36:23 11.5 C 8.06 g/m*3 11.5 C 0 km/h
2883 02-11-2008 12:01:23 12.5 C 8.25 g/m*3 12.5 C 0 km/h
2884 02-11-2008 12:26:23 13.4 C 8.02 g/m*3 13.4 C 0 km/h
2885 02-11-2008 12:51:23 13.5 C 7.84 g/m*3 13.5 C 0 km/h
2886 02-11-2008 13:16:23 13.8 C 7.74 g/m*3 13.8 C 0 km/h
2887 02-11-2008 13:41:24 14.1 C 7.89 g/m*3 14.1 C 0 km/h
2888 02-11-2008 14:06:24 15.4 C 7.88 g/m*3 15.4 C 0 km/h
2889 02-11-2008 14:31:24 14.8 C 7.73 g/m*3 14.8 C 0 km/h
2890 02-11-2008 14:56:24 14.4 C 7.91 g/m*3 14.4 C 0 km/h
2891 02-11-2008 15:21:24 14.4 C 7.91 g/m*3 14.4 C 0 km/h
2892 02-11-2008 15:46:24 13.8 C 8.1 g/m*3 13.8 C 0 km/h
2893 02-11-2008 16:11:24 13.5 C 8.19 g/m*3 13.5 C 0 km/h
2894 02-11-2008 16:36:24 12.6 C 8.19 g/m*3 12.6 C 0 km/h
2895 02-11-2008 17:01:24 11.8 C 8.1 g/m*3 11.8 C 0 km/h
2896 02-11-2008 17:26:24 11.2 C 8.01 g/m*3 11.2 C 0 km/h
2897 02-11-2008 17:51:24 10.6 C 8 g/m*3 10.6 C 0 km/h
2898 02-11-2008 18:16:24 10.7 C 8.15 g/m*3 10.7 C 0 km/h
2899 02-11-2008 18:41:24 10.1 C 7.85 g/m*3 10.1 C 0 km/h
2900 02-11-2008 19:06:24 9.9 C 7.94 g/m*3 9.9 C 0 km/h
Sensor: Nr:Datum:Temp:Abs-Feuchte:Windchill:Wind:
Aussen-T/F 2901 02-11-2008 19:31:24 9.8 C 7.89 g/m*3 9.8 C 0 km/h
2902 02-11-2008 19:56:24 9.6 C 7.88 g/m*3 9.6 C 0 km/h
2903 02-11-2008 20:21:24 9.4 C 7.87 g/m*3 9.4 C 0 km/h
2904 02-11-2008 20:46:24 9.2 C 7.86 g/m*3 9.2 C 0 km/h
2905 02-11-2008 21:11:24 9.1 C 7.81 g/m*3 9.1 C 0 km/h
2906 02-11-2008 21:36:24 9.1 C 7.9 g/m*3 9.1 C 0 km/h
2907 02-11-2008 22:01:24 9.2 C 7.95 g/m*3 9.2 C 0 km/h
2908 02-11-2008 22:26:25 9 C 7.85 g/m*3 9 C 0 km/h
2909 02-11-2008 22:51:25 8.7 C 7.7 g/m*3 8.7 C 0 km/h
2910 02-11-2008 23:16:25 8.6 C 7.73 g/m*3 8.6 C 0 km/h
2911 02-11-2008 23:41:25 8.2 C 7.62 g/m*3 8.2 C 0 km/h
2912 03-11-2008 00:06:25 8.1 C 7.57 g/m*3 8.1 C 0 km/h
2913 03-11-2008 00:31:25 8 C 7.52 g/m*3 8 C 0 km/h
2914 03-11-2008 00:56:25 7.7 C 7.46 g/m*3 7.7 C 0 km/h
2915 03-11-2008 01:21:25 7.8 C 7.59 g/m*3 7.8 C 0 km/h
2916 03-11-2008 01:46:25 8 C 7.69 g/m*3 8 C 0 km/h
2917 03-11-2008 02:11:25 8 C 7.69 g/m*3 8 C 0 km/h
2918 03-11-2008 02:36:25 8 C 7.69 g/m*3 8 C 0 km/h
2919 03-11-2008 03:01:25 8.5 C 8.03 g/m*3 8.5 C 0 km/h
2920 03-11-2008 03:26:25 8.9 C 8.23 g/m*3 8.9 C 0 km/h
2921 03-11-2008 03:51:25 9 C 8.11 g/m*3 9 C 0 km/h
2922 03-11-2008 04:16:25 9.1 C 8.07 g/m*3 9.1 C 0 km/h
2923 03-11-2008 04:41:25 9.1 C 7.99 g/m*3 9.1 C 0 km/h
2924 03-11-2008 05:06:25 9.2 C 7.95 g/m*3 9.2 C 0 km/h
2925 03-11-2008 05:31:25 9.2 C 7.86 g/m*3 9.2 C 0 km/h
Sensor: Nr:Datum:Temp:Abs-Feuchte:Windchill:Wind:
Aussen-T/F 2926 03-11-2008 05:56:25 9.1 C 7.81 g/m*3 9.1 C 0 km/h
2927 03-11-2008 06:21:25 9.2 C 7.86 g/m*3 9.2 C 0 km/h
2928 03-11-2008 06:46:25 9.2 C 7.77 g/m*3 9.2 C 0 km/h
2929 03-11-2008 07:11:26 9.2 C 7.77 g/m*3 9.2 C 0 km/h
2930 03-11-2008 07:36:26 9.2 C 7.77 g/m*3 9.2 C 0 km/h
2931 03-11-2008 08:01:26 9.4 C 7.87 g/m*3 9.4 C 0 km/h
2932 03-11-2008 08:26:26 9.5 C 7.92 g/m*3 9.5 C 0 km/h
2933 03-11-2008 08:51:26 9.8 C 8.07 g/m*3 9.8 C 0 km/h
2934 03-11-2008 09:16:26 10.1 C 7.94 g/m*3 10.1 C 0 km/h
2935 03-11-2008 09:41:26 10.2 C 7.9 g/m*3 10.2 C 0 km/h
2936 03-11-2008 10:06:26 10.4 C 7.81 g/m*3 10.4 C 0 km/h
2937 03-11-2008 10:31:26 10.5 C 7.76 g/m*3 10.5 C 0 km/h
2938 03-11-2008 10:56:26 11.1 C 7.96 g/m*3 11.1 C 0 km/h
2939 03-11-2008 11:21:26 11.4 C 7.8 g/m*3 11.4 C 0 km/h
2940 03-11-2008 11:46:26 11.7 C 7.84 g/m*3 11.7 C 0 km/h
2941 03-11-2008 12:11:26 12.7 C 8.24 g/m*3 12.7 C 0 km/h
2942 03-11-2008 12:36:26 13.1 C 7.99 g/m*3 13.1 C 0 km/h
2943 03-11-2008 13:01:26 13.4 C 7.9 g/m*3 13.4 C 0 km/h
2944 03-11-2008 13:26:26 13.4 C 7.9 g/m*3 13.4 C 0 km/h
2945 03-11-2008 13:51:26 13.5 C 7.72 g/m*3 13.5 C 0 km/h
2946 03-11-2008 14:16:26 13.6 C 7.77 g/m*3 13.6 C 0 km/h
2947 03-11-2008 14:41:26 14.4 C 7.79 g/m*3 14.4 C 0 km/h
2948 03-11-2008 15:06:27 14 C 7.84 g/m*3 14 C 0 km/h
2949 03-11-2008 15:31:27 13.3 C 8.09 g/m*3 13.3 C 0 km/h
2950 03-11-2008 15:56:27 13.2 C 8.27 g/m*3 13.2 C 0 km/h
Sensor: Nr:Datum:Temp:Abs-Feuchte:Windchill:Wind:
Aussen-T/F 2951 03-11-2008 16:21:27 12.7 C 8.24 g/m*3 12.7 C 0 km/h
2952 03-11-2008 16:46:27 12.3 C 8.25 g/m*3 12.3 C 0 km/h
2953 03-11-2008 17:11:27 11.5 C 8.06 g/m*3 11.5 C 0 km/h
2954 03-11-2008 17:36:27 10.8 C 8.01 g/m*3 10.8 C 0 km/h
2955 03-11-2008 18:01:27 10.1 C 7.85 g/m*3 10.1 C 0 km/h
2956 03-11-2008 18:26:27 9.7 C 7.93 g/m*3 9.7 C 0 km/h
2957 03-11-2008 18:51:27 9.3 C 7.82 g/m*3 9.3 C 0 km/h
2958 03-11-2008 19:16:27 9 C 7.76 g/m*3 9 C 0 km/h
2959 03-11-2008 19:41:27 8.5 C 7.6 g/m*3 8.5 C 0 km/h
2960 03-11-2008 20:06:27 8.4 C 7.63 g/m*3 8.4 C 0 km/h
2961 03-11-2008 20:31:27 8.1 C 7.49 g/m*3 8.1 C 0 km/h
2962 03-11-2008 20:56:27 7.9 C 7.56 g/m*3 7.9 C 0 km/h
2963 03-11-2008 21:21:27 7.5 C 7.36 g/m*3 7.5 C 0 km/h
2964 03-11-2008 21:46:27 7.1 C 7.18 g/m*3 7.1 C 0 km/h
2965 03-11-2008 22:11:27 6.8 C 7.11 g/m*3 6.8 C 0 km/h
2966 03-11-2008 22:36:27 6.6 C 7.02 g/m*3 6.6 C 0 km/h
2967 03-11-2008 23:01:27 6.4 C 6.93 g/m*3 6.4 C 0 km/h
2968 03-11-2008 23:26:28 6.7 C 7.14 g/m*3 6.7 C 0 km/h
2969 03-11-2008 23:51:28 7.1 C 7.33 g/m*3 7.1 C 0 km/h
2970 04-11-2008 00:16:28 6.9 C 7.31 g/m*3 6.9 C 0 km/h
2971 04-11-2008 00:41:28 6.7 C 7.22 g/m*3 6.7 C 0 km/h
2972 04-11-2008 01:06:28 6.8 C 7.27 g/m*3 6.8 C 0 km/h
2973 04-11-2008 01:31:28 6.8 C 7.27 g/m*3 6.8 C 0 km/h
2974 04-11-2008 01:56:28 6.6 C 7.17 g/m*3 6.6 C 0 km/h
2975 04-11-2008 02:21:28 6.5 C 7.12 g/m*3 6.5 C 0 km/h
Sensor: Nr:Datum:Temp:Abs-Feuchte:Windchill:Wind:
Aussen-T/F 2976 04-11-2008 02:46:28 6.7 C 7.22 g/m*3 6.7 C 0 km/h
2977 04-11-2008 03:11:28 6.8 C 7.27 g/m*3 6.8 C 0 km/h
2978 04-11-2008 03:36:28 6.8 C 7.27 g/m*3 6.8 C 0 km/h
2979 04-11-2008 04:01:28 6.8 C 7.27 g/m*3 6.8 C 0 km/h
2980 04-11-2008 04:26:28 6.7 C 7.22 g/m*3 6.7 C 0 km/h
2981 04-11-2008 04:51:28 6.8 C 7.27 g/m*3 6.8 C 0 km/h
2982 04-11-2008 05:16:28 6.4 C 7.08 g/m*3 6.4 C 0 km/h
2983 04-11-2008 05:41:28 6.3 C 7.03 g/m*3 6.3 C 0 km/h
2984 04-11-2008 06:06:28 6.2 C 6.99 g/m*3 6.2 C 0 km/h
2985 04-11-2008 06:31:28 6.3 C 7.03 g/m*3 6.3 C 0 km/h
2986 04-11-2008 06:56:28 6.4 C 7.08 g/m*3 6.4 C 0 km/h
2987 04-11-2008 07:21:29 6.4 C 7.08 g/m*3 6.4 C 0 km/h
2988 04-11-2008 07:46:29 6.5 C 7.12 g/m*3 6.5 C 0 km/h
2989 04-11-2008 08:11:29 6.6 C 7.17 g/m*3 6.6 C 0 km/h
2990 04-11-2008 08:36:29 6.6 C 7.17 g/m*3 6.6 C 0 km/h
2991 04-11-2008 09:01:29 6.9 C 7.31 g/m*3 6.9 C 0 km/h
2992 04-11-2008 09:26:29 7.4 C 7.55 g/m*3 7.4 C 0 km/h
2993 04-11-2008 09:51:29 7.7 C 7.7 g/m*3 7.7 C 0 km/h
2994 04-11-2008 10:16:29 8.1 C 7.9 g/m*3 8.1 C 0 km/h
2995 04-11-2008 10:41:29 7.8 C 7.75 g/m*3 7.8 C 0 km/h
2996 04-11-2008 11:06:29 8.5 C 8.03 g/m*3 8.5 C 0 km/h
2997 04-11-2008 11:31:29 9 C 8.11 g/m*3 9 C 0 km/h
2998 04-11-2008 11:56:29 9 C 7.93 g/m*3 9 C 0 km/h
2999 04-11-2008 12:21:29 9.1 C 7.81 g/m*3 9.1 C 0 km/h
3000 04-11-2008 12:46:29 9.7 C 8.11 g/m*3 9.7 C 0 km/h
Sensor: Nr:Datum:Temp:Abs-Feuchte:Windchill:Wind:
Aussen-T/F 3001 04-11-2008 13:11:29 12 C 8.85 g/m*3 12 C 0 km/h
3002 04-11-2008 13:36:29 13.7 C 8.05 g/m*3 13.7 C 0 km/h
3003 04-11-2008 14:01:29 14.5 C 8.46 g/m*3 14.5 C 0 km/h
3004 04-11-2008 14:26:29 14.4 C 8.41 g/m*3 14.4 C 0 km/h
3005 04-11-2008 14:51:29 14.4 C 8.41 g/m*3 14.4 C 0 km/h
3006 04-11-2008 15:16:30 13.9 C 8.51 g/m*3 13.9 C 0 km/h
3007 04-11-2008 15:41:30 13.4 C 8.49 g/m*3 13.4 C 0 km/h
3008 04-11-2008 16:06:30 12.8 C 8.4 g/m*3 12.8 C 0 km/h
3009 04-11-2008 16:31:30 12.1 C 8.36 g/m*3 12.1 C 0 km/h
3010 04-11-2008 16:56:30 11.8 C 8.21 g/m*3 11.8 C 0 km/h
3011 04-11-2008 17:21:30 11.9 C 8.26 g/m*3 11.9 C 0 km/h
3012 04-11-2008 17:46:30 11.1 C 8.16 g/m*3 11.1 C 0 km/h
3013 04-11-2008 18:11:30 10.9 C 8.26 g/m*3 10.9 C 0 km/h
3014 04-11-2008 18:36:30 10.8 C 8.4 g/m*3 10.8 C 0 km/h
3015 04-11-2008 19:01:30 10.6 C 8.39 g/m*3 10.6 C 0 km/h
3016 04-11-2008 19:26:30 10.4 C 8.29 g/m*3 10.4 C 0 km/h
3017 04-11-2008 19:51:30 10.2 C 8.28 g/m*3 10.2 C 0 km/h
3018 04-11-2008 20:16:30 10.1 C 8.32 g/m*3 10.1 C 0 km/h
3019 04-11-2008 20:41:30 9.7 C 8.2 g/m*3 9.7 C 0 km/h
3020 04-11-2008 21:06:30 9.3 C 8.09 g/m*3 9.3 C 0 km/h
3021 04-11-2008 21:31:30 9.1 C 7.99 g/m*3 9.1 C 0 km/h
3022 04-11-2008 21:56:30 9.1 C 8.07 g/m*3 9.1 C 0 km/h
3023 04-11-2008 22:21:30 9.1 C 8.16 g/m*3 9.1 C 0 km/h
3024 04-11-2008 22:46:30 8.7 C 8.04 g/m*3 8.7 C 0 km/h
3025 04-11-2008 23:11:31 8.4 C 7.89 g/m*3 8.4 C 0 km/h
Sensor: Nr:Datum:Temp:Abs-Feuchte:Windchill:Wind:
Aussen-T/F 3026 04-11-2008 23:36:31 9 C 8.2 g/m*3 9 C 0 km/h
3027 05-11-2008 00:01:31 8.7 C 8.04 g/m*3 8.7 C 0 km/h
3028 05-11-2008 00:26:31 8.7 C 8.04 g/m*3 8.7 C 0 km/h
3029 05-11-2008 00:51:31 8.6 C 7.99 g/m*3 8.6 C 0 km/h
3030 05-11-2008 01:16:31 8.7 C 8.04 g/m*3 8.7 C 0 km/h
3031 05-11-2008 01:41:31 8.8 C 7.92 g/m*3 8.8 C 0 km/h
3032 05-11-2008 02:06:31 8.7 C 7.7 g/m*3 8.7 C 0 km/h
3033 05-11-2008 02:31:31 8.5 C 7.6 g/m*3 8.5 C 0 km/h
3034 05-11-2008 02:56:31 8.4 C 7.55 g/m*3 8.4 C 0 km/h
3035 05-11-2008 03:21:31 8.3 C 7.5 g/m*3 8.3 C 0 km/h
3036 05-11-2008 03:46:31 8.4 C 7.55 g/m*3 8.4 C 0 km/h
3037 05-11-2008 04:11:31 8.2 C 7.37 g/m*3 8.2 C 0 km/h
3038 05-11-2008 04:36:31 7.9 C 7.39 g/m*3 7.9 C 0 km/h
3039 05-11-2008 05:01:31 8.2 C 7.45 g/m*3 8.2 C 0 km/h
3040 05-11-2008 05:26:31 8.4 C 7.55 g/m*3 8.4 C 0 km/h
3041 05-11-2008 05:51:31 8.4 C 7.55 g/m*3 8.4 C 0 km/h
3042 05-11-2008 06:16:31 8.4 C 7.38 g/m*3 8.4 C 0 km/h
3043 05-11-2008 06:41:31 8.5 C 7.34 g/m*3 8.5 C 0 km/h
3044 05-11-2008 07:06:31 8.4 C 7.21 g/m*3 8.4 C 0 km/h
3045 05-11-2008 07:31:32 8.4 C 7.21 g/m*3 8.4 C 0 km/h
3046 05-11-2008 07:56:32 8.5 C 7.26 g/m*3 8.5 C 0 km/h
3047 05-11-2008 08:21:32 8.7 C 7.35 g/m*3 8.7 C 0 km/h
3048 05-11-2008 08:46:32 8.9 C 7.45 g/m*3 8.9 C 0 km/h
3049 05-11-2008 09:11:32 9.2 C 7.5 g/m*3 9.2 C 0 km/h
3050 05-11-2008 09:36:32 9.8 C 7.79 g/m*3 9.8 C 0 km/h
Sensor: Nr:Datum:Temp:Abs-Feuchte:Windchill:Wind:
Aussen-T/F 3051 05-11-2008 10:01:32 10 C 7.42 g/m*3 10 C 0 km/h
3052 05-11-2008 10:26:32 10.7 C 7.46 g/m*3 10.7 C 0 km/h
3053 05-11-2008 10:51:32 10.7 C 7.46 g/m*3 10.7 C 0 km/h
3054 05-11-2008 11:16:32 10.9 C 7.46 g/m*3 10.9 C 0 km/h
3055 05-11-2008 11:41:32 11 C 7.51 g/m*3 11 C 0 km/h
3056 05-11-2008 12:06:32 11.1 C 7.45 g/m*3 11.1 C 0 km/h
3057 05-11-2008 12:31:32 11 C 7.41 g/m*3 11 C 0 km/h
3058 05-11-2008 12:56:32 10.8 C 7.51 g/m*3 10.8 C 0 km/h
3059 05-11-2008 13:21:32 11 C 7.61 g/m*3 11 C 0 km/h
3060 05-11-2008 13:46:32 11.2 C 7.6 g/m*3 11.2 C 0 km/h
3061 05-11-2008 14:11:32 11.2 C 7.7 g/m*3 11.2 C 0 km/h
3062 05-11-2008 14:36:32 11.4 C 7.8 g/m*3 11.4 C 0 km/h
3063 05-11-2008 15:01:32 11.5 C 7.64 g/m*3 11.5 C 0 km/h
3064 05-11-2008 15:26:33 11.5 C 7.64 g/m*3 11.5 C 0 km/h
3065 05-11-2008 15:51:33 11.4 C 7.7 g/m*3 11.4 C 0 km/h
3066 05-11-2008 16:16:33 11.1 C 7.66 g/m*3 11.1 C 0 km/h
3067 05-11-2008 16:41:33 10.9 C 7.76 g/m*3 10.9 C 0 km/h
3068 05-11-2008 17:06:33 10.7 C 7.66 g/m*3 10.7 C 0 km/h
3069 05-11-2008 17:31:33 10.5 C 7.66 g/m*3 10.5 C 0 km/h
3070 05-11-2008 17:56:33 10.5 C 7.76 g/m*3 10.5 C 0 km/h
3071 05-11-2008 18:21:33 10.4 C 7.81 g/m*3 10.4 C 0 km/h
3072 05-11-2008 18:46:33 10.4 C 7.81 g/m*3 10.4 C 0 km/h
3073 05-11-2008 19:11:33 10.4 C 7.9 g/m*3 10.4 C 0 km/h
3074 05-11-2008 19:36:33 10.3 C 7.85 g/m*3 10.3 C 0 km/h
3075 05-11-2008 20:01:33 10.3 C 7.85 g/m*3 10.3 C 0 km/h
Sensor: Nr:Datum:Temp:Abs-Feuchte:Windchill:Wind:
Aussen-T/F 3076 05-11-2008 20:26:33 10.3 C 7.95 g/m*3 10.3 C 0 km/h
3077 05-11-2008 20:51:33 10.2 C 7.9 g/m*3 10.2 C 0 km/h
3078 05-11-2008 21:16:33 10.2 C 7.9 g/m*3 10.2 C 0 km/h
3079 05-11-2008 21:41:33 10.2 C 7.9 g/m*3 10.2 C 0 km/h
3080 05-11-2008 22:06:33 10.2 C 7.9 g/m*3 10.2 C 0 km/h
3081 05-11-2008 22:31:33 10.2 C 7.99 g/m*3 10.2 C 0 km/h
3082 05-11-2008 22:56:33 10.2 C 7.99 g/m*3 10.2 C 0 km/h
3083 05-11-2008 23:21:34 10.2 C 7.99 g/m*3 10.2 C 0 km/h
3084 05-11-2008 23:46:34 10 C 7.99 g/m*3 10 C 0 km/h
3085 06-11-2008 00:11:34 10 C 7.99 g/m*3 10 C 0 km/h
3086 06-11-2008 00:36:34 10 C 7.99 g/m*3 10 C 0 km/h
3087 06-11-2008 01:01:34 10 C 7.99 g/m*3 10 C 0 km/h
3088 06-11-2008 01:26:34 9.9 C 8.12 g/m*3 9.9 C 0 km/h
3089 06-11-2008 01:51:34 9.8 C 8.07 g/m*3 9.8 C 0 km/h
3090 06-11-2008 02:16:34 9.8 C 7.98 g/m*3 9.8 C 0 km/h
3091 06-11-2008 02:41:34 9.7 C 7.84 g/m*3 9.7 C 0 km/h
3092 06-11-2008 03:06:34 9.5 C 7.74 g/m*3 9.5 C 0 km/h
3093 06-11-2008 03:31:34 9.3 C 7.73 g/m*3 9.3 C 0 km/h
3094 06-11-2008 03:56:34 8.9 C 7.62 g/m*3 8.9 C 0 km/h
3095 06-11-2008 04:21:34 8.5 C 7.43 g/m*3 8.5 C 0 km/h
3096 06-11-2008 04:46:34 8.6 C 7.48 g/m*3 8.6 C 0 km/h
3097 06-11-2008 05:11:34 8.9 C 7.71 g/m*3 8.9 C 0 km/h
3098 06-11-2008 05:36:34 9 C 7.58 g/m*3 9 C 0 km/h
3099 06-11-2008 06:01:34 9 C 7.58 g/m*3 9 C 0 km/h
3100 06-11-2008 06:26:34 9.3 C 7.64 g/m*3 9.3 C 0 km/h
Sensor: Nr:Datum:Temp:Abs-Feuchte:Windchill:Wind:
Aussen-T/F 3101 06-11-2008 06:51:34 9.3 C 7.46 g/m*3 9.3 C 0 km/h
3102 06-11-2008 07:16:34 9.3 C 7.46 g/m*3 9.3 C 0 km/h
3103 06-11-2008 07:41:35 9.1 C 7.36 g/m*3 9.1 C 0 km/h
3104 06-11-2008 08:06:35 9.4 C 7.51 g/m*3 9.4 C 0 km/h
3105 06-11-2008 08:31:35 9.7 C 7.56 g/m*3 9.7 C 0 km/h
3106 06-11-2008 08:56:35 10 C 7.42 g/m*3 10 C 0 km/h
3107 06-11-2008 09:21:35 10.3 C 7.47 g/m*3 10.3 C 0 km/h
3108 06-11-2008 09:46:35 10.6 C 7.12 g/m*3 10.6 C 0 km/h
3109 06-11-2008 10:11:35 11 C 7.01 g/m*3 11 C 0 km/h
3110 06-11-2008 10:36:35 11.3 C 7.04 g/m*3 11.3 C 0 km/h
3111 06-11-2008 11:01:35 12.1 C 7.18 g/m*3 12.1 C 0 km/h
3112 06-11-2008 11:26:35 12.4 C 7.1 g/m*3 12.4 C 0 km/h
3113 06-11-2008 11:51:35 12.2 C 6.91 g/m*3 12.2 C 0 km/h
3114 06-11-2008 12:16:35 12.2 C 6.91 g/m*3 12.2 C 0 km/h
3115 06-11-2008 12:41:35 12.1 C 6.97 g/m*3 12.1 C 0 km/h
3116 06-11-2008 13:06:35 12.6 C 7.08 g/m*3 12.6 C 0 km/h
3117 06-11-2008 13:31:35 12.7 C 7.01 g/m*3 12.7 C 0 km/h
3118 06-11-2008 13:56:35 12.4 C 7.1 g/m*3 12.4 C 0 km/h
3119 06-11-2008 14:21:35 13 C 7.14 g/m*3 13 C 0 km/h
3120 06-11-2008 14:46:35 13.1 C 6.96 g/m*3 13.1 C 0 km/h
3121 06-11-2008 15:11:35 13 C 6.92 g/m*3 13 C 0 km/h
3122 06-11-2008 15:36:36 12.6 C 6.97 g/m*3 12.6 C 0 km/h
3123 06-11-2008 16:01:36 12.4 C 6.99 g/m*3 12.4 C 0 km/h
3124 06-11-2008 16:26:36 11.8 C 6.95 g/m*3 11.8 C 0 km/h
3125 06-11-2008 16:51:36 11.4 C 6.98 g/m*3 11.4 C 0 km/h
Sensor: Nr:Datum:Temp:Abs-Feuchte:Windchill:Wind:
Aussen-T/F 3126 06-11-2008 17:16:36 11.1 C 6.95 g/m*3 11.1 C 0 km/h
3127 06-11-2008 17:41:36 10.9 C 7.06 g/m*3 10.9 C 0 km/h
3128 06-11-2008 18:06:36 10.1 C 6.9 g/m*3 10.1 C 0 km/h
3129 06-11-2008 18:31:36 10.1 C 7 g/m*3 10.1 C 0 km/h
3130 06-11-2008 18:56:36 10.2 C 7.04 g/m*3 10.2 C 0 km/h
3131 06-11-2008 19:21:36 10.4 C 7.13 g/m*3 10.4 C 0 km/h
3132 06-11-2008 19:46:36 10.3 C 7.09 g/m*3 10.3 C 0 km/h
3133 06-11-2008 20:11:36 10.2 C 7.14 g/m*3 10.2 C 0 km/h
3134 06-11-2008 20:36:36 10.3 C 7.28 g/m*3 10.3 C 0 km/h
3135 06-11-2008 21:01:36 10.2 C 7.23 g/m*3 10.2 C 0 km/h
3136 06-11-2008 21:26:36 10.4 C 7.23 g/m*3 10.4 C 0 km/h
3137 06-11-2008 21:51:36 10.3 C 7.18 g/m*3 10.3 C 0 km/h
3138 06-11-2008 22:16:36 10.2 C 7.33 g/m*3 10.2 C 0 km/h
3139 06-11-2008 22:41:36 10.2 C 7.33 g/m*3 10.2 C 0 km/h
3140 06-11-2008 23:06:36 10.1 C 7.28 g/m*3 10.1 C 0 km/h
3141 06-11-2008 23:31:37 10.2 C 7.23 g/m*3 10.2 C 0 km/h
3142 06-11-2008 23:56:37 10.2 C 7.23 g/m*3 10.2 C 0 km/h
3143 07-11-2008 00:21:37 10.1 C 7.19 g/m*3 10.1 C 0 km/h
3144 07-11-2008 00:46:37 10.1 C 7.19 g/m*3 10.1 C 0 km/h
3145 07-11-2008 01:11:37 10 C 7.24 g/m*3 10 C 0 km/h
3146 07-11-2008 01:36:37 10 C 7.24 g/m*3 10 C 0 km/h
3147 07-11-2008 02:01:37 10 C 7.14 g/m*3 10 C 0 km/h
3148 07-11-2008 02:26:37 10 C 7.14 g/m*3 10 C 0 km/h
3149 07-11-2008 02:51:37 9.9 C 7.28 g/m*3 9.9 C 0 km/h
3150 07-11-2008 03:16:37 9.9 C 7.19 g/m*3 9.9 C 0 km/h
Sensor: Nr:Datum:Temp:Abs-Feuchte:Windchill:Wind:
Aussen-T/F 3151 07-11-2008 03:41:37 10 C 7.14 g/m*3 10 C 0 km/h
3152 07-11-2008 04:06:37 10.2 C 7.14 g/m*3 10.2 C 0 km/h
3153 07-11-2008 04:31:37 10.1 C 7.19 g/m*3 10.1 C 0 km/h
3154 07-11-2008 04:56:37 10.3 C 7.28 g/m*3 10.3 C 0 km/h
3155 07-11-2008 05:21:37 10.3 C 7.28 g/m*3 10.3 C 0 km/h
3156 07-11-2008 05:46:37 10.2 C 7.23 g/m*3 10.2 C 0 km/h
3157 07-11-2008 06:11:37 10.1 C 7.19 g/m*3 10.1 C 0 km/h
3158 07-11-2008 06:36:37 10 C 7.14 g/m*3 10 C 0 km/h
3159 07-11-2008 07:01:37 10.1 C 7.09 g/m*3 10.1 C 0 km/h
3160 07-11-2008 07:26:38 10.1 C 7 g/m*3 10.1 C 0 km/h
3161 07-11-2008 07:51:38 9.8 C 7.05 g/m*3 9.8 C 0 km/h
3162 07-11-2008 08:16:38 9.6 C 7.15 g/m*3 9.6 C 0 km/h
3163 07-11-2008 08:41:38 10.3 C 6.99 g/m*3 10.3 C 0 km/h
3164 07-11-2008 09:06:38 10.8 C 7.02 g/m*3 10.8 C 0 km/h
3165 07-11-2008 09:31:38 11 C 6.91 g/m*3 11 C 0 km/h
3166 07-11-2008 09:56:38 11.1 C 6.95 g/m*3 11.1 C 0 km/h
3167 07-11-2008 10:21:38 11.3 C 7.04 g/m*3 11.3 C 0 km/h
3168 07-11-2008 10:46:38 11.2 C 6.89 g/m*3 11.2 C 0 km/h
3169 07-11-2008 11:11:38 11.6 C 6.96 g/m*3 11.6 C 0 km/h
3170 07-11-2008 11:36:38 12.2 C 6.91 g/m*3 12.2 C 0 km/h
3171 07-11-2008 12:01:38 12.7 C 6.9 g/m*3 12.7 C 0 km/h
3172 07-11-2008 12:26:38 13.1 C 6.85 g/m*3 13.1 C 0 km/h
3173 07-11-2008 12:51:38 13.2 C 6.77 g/m*3 13.2 C 0 km/h
3174 07-11-2008 13:16:38 13.8 C 6.91 g/m*3 13.8 C 0 km/h
3175 07-11-2008 13:41:38 13.6 C 6.71 g/m*3 13.6 C 0 km/h
Sensor: Nr:Datum:Temp:Abs-Feuchte:Windchill:Wind:
Aussen-T/F 3176 07-11-2008 14:06:38 13.8 C 7.03 g/m*3 13.8 C 0 km/h
3177 07-11-2008 14:31:38 14.5 C 7.09 g/m*3 14.5 C 0 km/h
3178 07-11-2008 14:56:38 14 C 7 g/m*3 14 C 0 km/h
3179 07-11-2008 15:21:38 13.8 C 7.27 g/m*3 13.8 C 0 km/h
3180 07-11-2008 15:46:39 13.5 C 7.37 g/m*3 13.5 C 0 km/h
3181 07-11-2008 16:11:39 13.1 C 7.3 g/m*3 13.1 C 0 km/h
3182 07-11-2008 16:36:39 12.7 C 7.57 g/m*3 12.7 C 0 km/h
3183 07-11-2008 17:01:39 12.4 C 7.43 g/m*3 12.4 C 0 km/h
3184 07-11-2008 17:26:39 11.8 C 7.26 g/m*3 11.8 C 0 km/h
3185 07-11-2008 17:51:39 11.1 C 7.15 g/m*3 11.1 C 0 km/h
3186 07-11-2008 18:16:39 10.4 C 7.23 g/m*3 10.4 C 0 km/h
3187 07-11-2008 18:41:39 10.4 C 7.42 g/m*3 10.4 C 0 km/h
3188 07-11-2008 19:06:39 10.7 C 7.56 g/m*3 10.7 C 0 km/h
3189 07-11-2008 19:31:39 10.6 C 7.32 g/m*3 10.6 C 0 km/h
3190 07-11-2008 19:56:39 10 C 7.33 g/m*3 10 C 0 km/h
3191 07-11-2008 20:21:39 9.9 C 7.56 g/m*3 9.9 C 0 km/h
3192 07-11-2008 20:46:39 9.5 C 7.37 g/m*3 9.5 C 0 km/h
3193 07-11-2008 21:11:39 9.1 C 7.36 g/m*3 9.1 C 0 km/h
3194 07-11-2008 21:36:39 8.7 C 7.44 g/m*3 8.7 C 0 km/h
3195 07-11-2008 22:01:39 8.4 C 7.38 g/m*3 8.4 C 0 km/h
3196 07-11-2008 22:26:39 7.9 C 7.31 g/m*3 7.9 C 0 km/h
3197 07-11-2008 22:51:39 7.5 C 7.12 g/m*3 7.5 C 0 km/h
3198 07-11-2008 23:16:39 7.3 C 7.03 g/m*3 7.3 C 0 km/h
3199 07-11-2008 23:41:40 7.3 C 7.11 g/m*3 7.3 C 0 km/h
3200 08-11-2008 00:06:40 7.3 C 7.19 g/m*3 7.3 C 0 km/h
Sensor: Nr:Datum:Temp:Abs-Feuchte:Windchill:Wind:
Aussen-T/F 3201 08-11-2008 00:31:40 6.9 C 7.08 g/m*3 6.9 C 0 km/h
3202 08-11-2008 00:56:40 7.1 C 7.18 g/m*3 7.1 C 0 km/h
3203 08-11-2008 01:21:40 7 C 7.13 g/m*3 7 C 0 km/h
3204 08-11-2008 01:46:40 7.2 C 7.3 g/m*3 7.2 C 0 km/h
3205 08-11-2008 02:11:40 7.3 C 7.35 g/m*3 7.3 C 0 km/h
3206 08-11-2008 02:36:40 7.5 C 7.44 g/m*3 7.5 C 0 km/h
3207 08-11-2008 03:01:40 7.8 C 7.59 g/m*3 7.8 C 0 km/h
3208 08-11-2008 03:26:40 7.9 C 7.56 g/m*3 7.9 C 0 km/h
3209 08-11-2008 03:51:40 8.1 C 7.57 g/m*3 8.1 C 0 km/h
3210 08-11-2008 04:16:40 8.2 C 7.62 g/m*3 8.2 C 0 km/h
3211 08-11-2008 04:41:40 8.3 C 7.67 g/m*3 8.3 C 0 km/h
3212 08-11-2008 05:06:40 8.3 C 7.59 g/m*3 8.3 C 0 km/h
3213 08-11-2008 05:31:40 8 C 7.44 g/m*3 8 C 0 km/h
3214 08-11-2008 05:56:40 8.6 C 7.82 g/m*3 8.6 C 0 km/h
3215 08-11-2008 06:21:40 8.6 C 7.65 g/m*3 8.6 C 0 km/h
3216 08-11-2008 06:46:40 8.5 C 7.6 g/m*3 8.5 C 0 km/h
3217 08-11-2008 07:11:40 8.5 C 7.77 g/m*3 8.5 C 0 km/h
3218 08-11-2008 07:36:41 8 C 7.52 g/m*3 8 C 0 km/h
3219 08-11-2008 08:01:41 7.9 C 7.64 g/m*3 7.9 C 0 km/h
3220 08-11-2008 08:26:41 7.3 C 7.27 g/m*3 7.3 C 0 km/h
3221 08-11-2008 08:51:41 7.2 C 7.3 g/m*3 7.2 C 0 km/h
3222 08-11-2008 09:16:41 7.6 C 7.57 g/m*3 7.6 C 0 km/h
3223 08-11-2008 09:41:41 8.2 C 7.87 g/m*3 8.2 C 0 km/h
3224 08-11-2008 10:06:41 8.7 C 8.13 g/m*3 8.7 C 0 km/h
3225 08-11-2008 10:31:41 8.9 C 7.88 g/m*3 8.9 C 0 km/h
Sensor: Nr:Datum:Temp:Abs-Feuchte:Windchill:Wind:
Aussen-T/F 3226 08-11-2008 10:56:41 9.3 C 7.28 g/m*3 9.3 C 0 km/h
3227 08-11-2008 11:21:41 9.7 C 6.36 g/m*3 9.7 C 0 km/h
3228 08-11-2008 11:46:41 10.3 C 6.03 g/m*3 10.3 C 0 km/h
3229 08-11-2008 12:11:41 10.9 C 5.97 g/m*3 10.9 C 0 km/h
3230 08-11-2008 12:36:41 11.7 C 5.86 g/m*3 11.7 C 0 km/h
3231 08-11-2008 13:01:41 12.2 C 5.4 g/m*3 12.2 C 0 km/h
3232 08-11-2008 13:26:41 12.4 C 5.14 g/m*3 12.4 C 0 km/h
3233 08-11-2008 13:51:01 12 C 5.33 g/m*3 12 C 0 km/h
3234 08-11-2008 14:16:01 11.9 C 5.51 g/m*3 11.9 C 0 km/h
3235 08-11-2008 14:41:01 12 C 5.44 g/m*3 12 C 0 km/h
3236 08-11-2008 15:06:02 11.8 C 5.79 g/m*3 11.8 C 0 km/h
3237 08-11-2008 15:31:02 12 C 5.86 g/m*3 12 C 0 km/h
3238 08-11-2008 15:56:02 11.2 C 5.98 g/m*3 11.2 C 0 km/h
3239 08-11-2008 16:21:02 10.2 C 5.8 g/m*3 10.2 C 0 km/h